Time,TemperatureF,DewpointF,PressureIn,WindDirection,WindDirectionDegrees,WindSpeedMPH,WindSpeedGustMPH,Humidity,HourlyPrecipIn,Conditions,Clouds,dailyrainin,SoftwareType,DateUTC
2013-04-20 00:00:00,52.2,47.5,29.80,West,270,8.1,8.1,84,0.00,,,0.00,VWS V14.01,2013-04-20 07:00:00,
2013-04-20 00:01:00,52.2,47.5,29.79,WSW,248,14.5,14.5,84,0.00,,,0.00,VWS V14.01,2013-04-20 07:01:00,
2013-04-20 00:02:00,52.0,47.0,29.80,SW,225,10.7,10.7,83,0.00,,,0.00,VWS V14.01,2013-04-20 07:02:00,
2013-04-20 00:03:00,52.0,47.0,29.80,WSW,248,11.0,11.0,83,0.00,,,0.00,VWS V14.01,2013-04-20 07:03:00,
2013-04-20 00:04:00,52.0,47.0,29.80,SW,225,8.5,8.5,83,0.00,,,0.00,VWS V14.01,2013-04-20 07:04:00,
2013-04-20 00:05:00,51.8,46.8,29.80,West,270,10.7,10.7,83,0.00,,,0.00,VWS V14.01,2013-04-20 07:05:00,
2013-04-20 00:06:00,51.8,46.8,29.79,WSW,248,10.1,10.1,83,0.00,,,0.00,VWS V14.01,2013-04-20 07:06:00,
2013-04-20 00:07:00,51.8,47.1,29.80,WSW,248,12.3,12.3,84,0.00,,,0.00,VWS V14.01,2013-04-20 07:07:00,
2013-04-20 00:08:00,51.8,47.1,29.80,WSW,248,10.3,10.3,84,0.00,,,0.00,VWS V14.01,2013-04-20 07:08:00,
2013-04-20 00:09:00,51.8,47.1,29.80,WSW,248,10.5,10.5,84,0.00,,,0.00,VWS V14.01,2013-04-20 07:09:00,
2013-04-20 00:10:00,51.8,47.1,29.80,WSW,248,7.6,7.6,84,0.00,,,0.00,VWS V14.01,2013-04-20 07:10:00,
2013-04-20 00:11:00,51.6,47.0,29.79,WSW,248,7.8,7.8,84,0.00,,,0.00,VWS V14.01,2013-04-20 07:11:00,
2013-04-20 00:12:00,51.6,47.0,29.80,West,270,8.7,8.7,84,0.00,,,0.00,VWS V14.01,2013-04-20 07:12:00,
2013-04-20 00:13:00,51.6,47.0,29.80,WSW,248,10.3,10.3,84,0.00,,,0.00,VWS V14.01,2013-04-20 07:13:00,
2013-04-20 00:14:00,51.6,47.0,29.80,WSW,248,11.9,11.9,84,0.00,,,0.00,VWS V14.01,2013-04-20 07:14:00,
2013-04-20 00:15:00,51.6,47.0,29.80,WSW,248,9.0,9.0,84,0.00,,,0.00,VWS V14.01,2013-04-20 07:15:00,
2013-04-20 00:16:00,51.4,46.8,29.79,WSW,248,9.4,9.4,84,0.00,,,0.00,VWS V14.01,2013-04-20 07:16:00,
2013-04-20 00:17:00,51.4,46.8,29.80,WSW,248,11.0,11.0,84,0.00,,,0.00,VWS V14.01,2013-04-20 07:17:00,
2013-04-20 00:18:00,51.4,46.8,29.80,South,180,8.1,8.1,84,0.00,,,0.00,VWS V14.01,2013-04-20 07:18:00,
2013-04-20 00:19:00,51.4,46.8,29.80,SW,225,11.0,11.0,84,0.00,,,0.00,VWS V14.01,2013-04-20 07:19:00,
2013-04-20 00:20:00,51.3,46.6,29.80,SW,225,11.0,11.0,84,0.00,,,0.00,VWS V14.01,2013-04-20 07:20:00,
2013-04-20 00:21:00,51.3,46.6,29.79,SSW,202,12.8,12.8,84,0.00,,,0.00,VWS V14.01,2013-04-20 07:21:00,
2013-04-20 00:22:00,51.3,46.6,29.80,SW,225,9.6,9.6,84,0.00,,,0.00,VWS V14.01,2013-04-20 07:22:00,
2013-04-20 00:23:00,51.1,46.7,29.80,SW,225,10.1,10.1,85,0.00,,,0.00,VWS V14.01,2013-04-20 07:23:00,
2013-04-20 00:24:00,51.1,46.7,29.80,SSW,202,15.2,15.2,85,0.00,,,0.00,VWS V14.01,2013-04-20 07:24:00,
2013-04-20 00:25:00,51.1,46.7,29.80,SW,225,9.8,9.8,85,0.00,,,0.00,VWS V14.01,2013-04-20 07:25:00,
2013-04-20 00:26:00,51.1,46.7,29.79,WSW,248,12.8,12.8,85,0.00,,,0.00,VWS V14.01,2013-04-20 07:26:00,
2013-04-20 00:27:00,51.1,46.7,29.80,SW,225,8.1,8.1,85,0.00,,,0.00,VWS V14.01,2013-04-20 07:27:00,
2013-04-20 00:28:00,50.9,46.6,29.80,SW,225,15.2,15.2,85,0.00,,,0.00,VWS V14.01,2013-04-20 07:28:00,
2013-04-20 00:29:00,50.9,46.6,29.80,SW,225,8.7,8.7,85,0.00,,,0.00,VWS V14.01,2013-04-20 07:29:00,
2013-04-20 00:30:00,50.9,46.9,29.80,SW,225,10.7,10.7,86,0.00,,,0.00,VWS V14.01,2013-04-20 07:30:00,
2013-04-20 00:31:00,50.9,46.9,29.79,WSW,248,10.1,10.1,86,0.00,,,0.00,VWS V14.01,2013-04-20 07:31:00,
2013-04-20 00:32:00,50.9,46.9,29.80,SSW,202,12.3,12.3,86,0.00,,,0.00,VWS V14.01,2013-04-20 07:32:00,
2013-04-20 00:33:00,50.9,46.9,29.80,WSW,248,10.3,10.3,86,0.00,,,0.00,VWS V14.01,2013-04-20 07:33:00,
2013-04-20 00:34:00,50.7,46.7,29.80,WSW,248,12.8,12.8,86,0.00,,,0.00,VWS V14.01,2013-04-20 07:34:00,
2013-04-20 00:35:00,50.7,46.7,29.80,SSW,202,11.0,11.0,86,0.00,,,0.00,VWS V14.01,2013-04-20 07:35:00,
2013-04-20 00:36:00,50.7,46.7,29.79,WSW,248,10.1,10.1,86,0.00,,,0.00,VWS V14.01,2013-04-20 07:36:00,
2013-04-20 00:37:00,50.7,46.7,29.80,WSW,248,12.5,12.5,86,0.00,,,0.00,VWS V14.01,2013-04-20 07:37:00,
2013-04-20 00:38:00,50.7,46.7,29.80,WSW,248,13.2,13.2,86,0.00,,,0.00,VWS V14.01,2013-04-20 07:38:00,
2013-04-20 00:39:00,50.5,46.5,29.80,SW,225,12.3,12.3,86,0.00,,,0.00,VWS V14.01,2013-04-20 07:39:00,
2013-04-20 00:40:00,50.5,46.5,29.80,SW,225,12.3,12.3,86,0.00,,,0.00,VWS V14.01,2013-04-20 07:40:00,
2013-04-20 00:41:00,50.5,46.8,29.79,SSW,202,14.5,14.5,87,0.00,,,0.00,VWS V14.01,2013-04-20 07:41:00,
2013-04-20 00:42:00,50.5,46.8,29.82,SW,225,12.8,12.8,87,0.00,,,0.00,VWS V14.01,2013-04-20 07:42:00,
2013-04-20 00:43:00,50.5,46.8,29.82,SSW,202,10.1,10.1,87,0.00,,,0.00,VWS V14.01,2013-04-20 07:43:00,
2013-04-20 00:44:00,50.4,46.6,29.82,SW,225,13.6,13.6,87,0.00,,,0.00,VWS V14.01,2013-04-20 07:44:00,
2013-04-20 00:45:00,50.4,46.6,29.82,WSW,248,12.8,12.8,87,0.00,,,0.00,VWS V14.01,2013-04-20 07:45:00,
2013-04-20 00:46:00,50.4,46.6,29.82,SW,225,10.1,10.1,87,0.00,,,0.00,VWS V14.01,2013-04-20 07:46:00,
2013-04-20 00:47:00,50.4,46.6,29.82,SSW,202,10.7,10.7,87,0.00,,,0.00,VWS V14.01,2013-04-20 07:47:00,
2013-04-20 00:48:00,50.4,46.6,29.82,SW,225,14.5,14.5,87,0.00,,,0.00,VWS V14.01,2013-04-20 07:48:00,
2013-04-20 00:49:00,50.4,46.6,29.82,SW,225,10.1,10.1,87,0.00,,,0.00,VWS V14.01,2013-04-20 07:49:00,
2013-04-20 00:50:00,50.4,47.0,29.82,WSW,248,16.3,16.3,88,0.00,,,0.00,VWS V14.01,2013-04-20 07:50:00,
2013-04-20 00:51:00,50.4,47.0,29.82,SSW,202,13.4,13.4,88,0.00,,,0.00,VWS V14.01,2013-04-20 07:51:00,
2013-04-20 00:52:00,50.4,47.0,29.82,SW,225,13.4,13.4,88,0.00,,,0.00,VWS V14.01,2013-04-20 07:52:00,
2013-04-20 00:53:00,50.4,47.0,29.82,SW,225,8.1,8.1,88,0.00,,,0.00,VWS V14.01,2013-04-20 07:53:00,
2013-04-20 00:54:00,50.4,47.0,29.82,SW,225,13.9,13.9,88,0.00,,,0.00,VWS V14.01,2013-04-20 07:54:00,
2013-04-20 00:55:00,50.2,46.8,29.82,SSW,202,11.0,11.0,88,0.00,,,0.00,VWS V14.01,2013-04-20 07:55:00,
2013-04-20 00:56:00,50.2,46.8,29.82,SSW,202,13.0,13.0,88,0.00,,,0.00,VWS V14.01,2013-04-20 07:56:00,
2013-04-20 00:57:00,50.2,46.8,29.82,WSW,248,10.7,10.7,88,0.00,,,0.00,VWS V14.01,2013-04-20 07:57:00,
2013-04-20 00:58:00,50.2,46.8,29.82,SW,225,13.2,13.2,88,0.00,,,0.00,VWS V14.01,2013-04-20 07:58:00,
2013-04-20 00:59:00,50.2,46.8,29.82,SSW,202,13.2,13.2,88,0.00,,,0.00,VWS V14.01,2013-04-20 07:59:00,
2013-04-20 01:00:00,50.2,47.1,29.82,SW,225,12.8,12.8,89,0.00,,,0.00,VWS V14.01,2013-04-20 08:00:00,
2013-04-20 01:01:00,50.2,47.1,29.82,WSW,248,11.0,11.0,89,0.00,,,0.00,VWS V14.01,2013-04-20 08:01:00,
2013-04-20 01:02:00,50.2,47.1,29.82,WSW,248,9.2,9.2,89,0.00,,,0.00,VWS V14.01,2013-04-20 08:02:00,
2013-04-20 01:03:00,50.2,47.1,29.82,SW,225,13.2,13.2,89,0.00,,,0.00,VWS V14.01,2013-04-20 08:03:00,
2013-04-20 01:04:00,50.0,46.9,29.82,WSW,248,10.7,10.7,89,0.00,,,0.00,VWS V14.01,2013-04-20 08:04:00,
2013-04-20 01:05:00,50.0,46.9,29.82,SSW,202,12.3,12.3,89,0.00,,,0.00,VWS V14.01,2013-04-20 08:05:00,
2013-04-20 01:06:00,50.0,46.9,29.82,WSW,248,11.2,11.2,89,0.00,,,0.00,VWS V14.01,2013-04-20 08:06:00,
2013-04-20 01:07:00,50.0,46.9,29.82,WSW,248,9.8,9.8,89,0.00,,,0.00,VWS V14.01,2013-04-20 08:07:00,
2013-04-20 01:08:00,50.0,46.9,29.82,West,270,8.7,8.7,89,0.00,,,0.00,VWS V14.01,2013-04-20 08:08:00,
2013-04-20 01:09:00,50.0,46.9,29.82,WSW,248,9.8,9.8,89,0.00,,,0.00,VWS V14.01,2013-04-20 08:09:00,
2013-04-20 01:10:00,50.0,46.9,29.82,West,270,12.3,12.3,89,0.00,,,0.00,VWS V14.01,2013-04-20 08:10:00,
2013-04-20 01:11:00,49.8,47.0,29.82,WSW,248,13.2,13.2,90,0.00,,,0.00,VWS V14.01,2013-04-20 08:11:00,
2013-04-20 01:12:00,49.8,47.0,29.82,WSW,248,15.4,15.4,90,0.00,,,0.00,VWS V14.01,2013-04-20 08:12:00,
2013-04-20 01:13:00,49.8,47.0,29.82,SW,225,8.5,8.5,90,0.00,,,0.00,VWS V14.01,2013-04-20 08:13:00,
2013-04-20 01:14:00,49.8,47.0,29.82,WSW,248,10.1,10.1,90,0.00,,,0.00,VWS V14.01,2013-04-20 08:14:00,
2013-04-20 01:15:00,49.8,47.0,29.82,WSW,248,10.7,10.7,90,0.00,,,0.00,VWS V14.01,2013-04-20 08:15:00,
2013-04-20 01:16:00,49.6,46.8,29.82,SW,225,9.6,9.6,90,0.00,,,0.00,VWS V14.01,2013-04-20 08:16:00,
2013-04-20 01:17:00,49.6,46.8,29.82,WSW,248,12.5,12.5,90,0.00,,,0.00,VWS V14.01,2013-04-20 08:17:00,
2013-04-20 01:19:00,49.6,46.8,29.82,WSW,248,12.5,12.5,90,0.00,,,0.00,VWS V14.01,2013-04-20 08:19:00,
2013-04-20 01:20:00,49.6,46.8,29.82,West,270,8.1,8.1,90,0.00,,,0.00,VWS V14.01,2013-04-20 08:20:00,
2013-04-20 01:21:00,49.5,47.0,29.82,WSW,248,11.4,11.4,91,0.00,,,0.00,VWS V14.01,2013-04-20 08:21:00,
2013-04-20 01:22:00,49.5,47.0,29.82,SSW,202,10.1,10.1,91,0.00,,,0.00,VWS V14.01,2013-04-20 08:22:00,
2013-04-20 01:23:00,49.5,47.0,29.82,SW,225,9.8,9.8,91,0.00,,,0.00,VWS V14.01,2013-04-20 08:23:00,
2013-04-20 01:24:00,49.5,47.0,29.82,SW,225,7.6,7.6,91,0.00,,,0.00,VWS V14.01,2013-04-20 08:24:00,
2013-04-20 01:25:00,49.5,47.0,29.82,WSW,248,10.3,10.3,91,0.00,,,0.00,VWS V14.01,2013-04-20 08:25:00,
2013-04-20 01:26:00,49.5,47.0,29.82,SW,225,10.3,10.3,91,0.00,,,0.00,VWS V14.01,2013-04-20 08:26:00,
2013-04-20 01:27:00,49.5,47.0,29.82,WSW,248,8.7,8.7,91,0.00,,,0.00,VWS V14.01,2013-04-20 08:27:00,
2013-04-20 01:28:00,49.5,47.0,29.82,WSW,248,8.7,8.7,91,0.00,,,0.00,VWS V14.01,2013-04-20 08:28:00,
2013-04-20 01:29:00,49.5,47.0,29.82,West,270,9.8,9.8,91,0.00,,,0.00,VWS V14.01,2013-04-20 08:29:00,
2013-04-20 01:30:00,49.3,46.8,29.82,West,270,11.0,11.0,91,0.00,,,0.00,VWS V14.01,2013-04-20 08:30:00,
2013-04-20 01:31:00,49.3,46.8,29.82,WSW,248,12.5,12.5,91,0.00,,,0.00,VWS V14.01,2013-04-20 08:31:00,
2013-04-20 01:32:00,49.3,46.8,29.82,WSW,248,10.7,10.7,91,0.00,,,0.00,VWS V14.01,2013-04-20 08:32:00,
2013-04-20 01:33:00,49.3,46.8,29.82,SW,225,12.5,12.5,91,0.00,,,0.00,VWS V14.01,2013-04-20 08:33:00,
2013-04-20 01:34:00,49.3,46.8,29.82,SSW,202,12.3,12.3,91,0.00,,,0.00,VWS V14.01,2013-04-20 08:34:00,
2013-04-20 01:35:00,49.3,47.1,29.82,West,270,10.3,10.3,92,0.00,,,0.00,VWS V14.01,2013-04-20 08:35:00,
2013-04-20 01:36:00,49.3,47.1,29.82,West,270,10.3,10.3,92,0.00,,,0.00,VWS V14.01,2013-04-20 08:36:00,
2013-04-20 01:37:00,49.3,47.1,29.82,WSW,248,11.0,11.0,92,0.00,,,0.00,VWS V14.01,2013-04-20 08:37:00,
2013-04-20 01:38:00,49.3,47.1,29.82,SW,225,8.1,8.1,92,0.00,,,0.00,VWS V14.01,2013-04-20 08:38:00,
2013-04-20 01:39:00,49.3,47.1,29.82,SW,225,8.1,8.1,92,0.00,,,0.00,VWS V14.01,2013-04-20 08:39:00,
2013-04-20 01:40:00,49.3,47.1,29.82,WSW,248,9.0,9.0,92,0.00,,,0.00,VWS V14.01,2013-04-20 08:40:00,
2013-04-20 01:41:00,49.3,47.1,29.82,WSW,248,9.0,9.0,92,0.00,,,0.00,VWS V14.01,2013-04-20 08:41:00,
2013-04-20 01:42:00,49.3,47.1,29.82,SSW,202,11.0,11.0,92,0.00,,,0.00,VWS V14.01,2013-04-20 08:42:00,
2013-04-20 01:43:00,49.3,47.1,29.82,SW,225,8.1,8.1,92,0.00,,,0.00,VWS V14.01,2013-04-20 08:43:00,
2013-04-20 01:44:00,49.3,47.1,29.82,WSW,248,7.8,7.8,92,0.00,,,0.00,VWS V14.01,2013-04-20 08:44:00,
2013-04-20 01:45:00,49.1,46.9,29.82,SW,225,10.1,10.1,92,0.00,,,0.00,VWS V14.01,2013-04-20 08:45:00,
2013-04-20 01:46:00,49.1,46.9,29.82,WSW,248,13.0,13.0,92,0.00,,,0.00,VWS V14.01,2013-04-20 08:46:00,
2013-04-20 01:47:00,49.1,46.9,29.82,SW,225,9.6,9.6,92,0.00,,,0.00,VWS V14.01,2013-04-20 08:47:00,
2013-04-20 01:48:00,49.1,46.9,29.82,WSW,248,10.1,10.1,92,0.00,,,0.00,VWS V14.01,2013-04-20 08:48:00,
2013-04-20 01:49:00,49.1,46.9,29.82,SW,225,8.7,8.7,92,0.00,,,0.00,VWS V14.01,2013-04-20 08:49:00,
2013-04-20 01:50:00,49.1,46.9,29.82,WSW,248,6.0,6.0,92,0.00,,,0.00,VWS V14.01,2013-04-20 08:50:00,
2013-04-20 01:51:00,49.1,47.2,29.82,WSW,248,6.0,6.0,93,0.00,,,0.00,VWS V14.01,2013-04-20 08:51:00,
2013-04-20 01:52:00,49.1,47.2,29.82,SW,225,8.5,8.5,93,0.00,,,0.00,VWS V14.01,2013-04-20 08:52:00,
2013-04-20 01:53:00,49.1,47.2,29.82,WSW,248,6.5,6.5,93,0.00,,,0.00,VWS V14.01,2013-04-20 08:53:00,
2013-04-20 01:55:00,49.1,47.2,29.82,WSW,248,6.5,6.5,93,0.00,,,0.00,VWS V14.01,2013-04-20 08:55:00,
2013-04-20 01:56:00,49.1,47.2,29.82,SW,225,10.1,10.1,93,0.00,,,0.00,VWS V14.01,2013-04-20 08:56:00,
2013-04-20 01:57:00,49.1,47.2,29.82,WSW,248,5.8,5.8,93,0.00,,,0.00,VWS V14.01,2013-04-20 08:57:00,
2013-04-20 01:58:00,49.1,47.2,29.82,SW,225,10.3,10.3,93,0.00,,,0.00,VWS V14.01,2013-04-20 08:58:00,
2013-04-20 01:59:00,49.1,47.2,29.82,West,270,7.4,7.4,93,0.00,,,0.00,VWS V14.01,2013-04-20 08:59:00,
2013-04-20 02:00:00,49.1,47.2,29.82,WSW,248,8.5,8.5,93,0.00,,,0.00,VWS V14.01,2013-04-20 09:00:00,
2013-04-20 02:01:00,49.1,47.2,29.82,WSW,248,8.5,8.5,93,0.00,,,0.00,VWS V14.01,2013-04-20 09:01:00,
2013-04-20 02:02:00,48.9,47.0,29.82,SSW,202,8.7,8.7,93,0.00,,,0.00,VWS V14.01,2013-04-20 09:02:00,
2013-04-20 02:03:00,48.9,47.0,29.82,WSW,248,9.8,9.8,93,0.00,,,0.00,VWS V14.01,2013-04-20 09:03:00,
2013-04-20 02:04:00,48.9,47.0,29.82,WSW,248,15.2,15.2,93,0.00,,,0.00,VWS V14.01,2013-04-20 09:04:00,
2013-04-20 02:05:00,48.9,47.0,29.82,WSW,248,11.0,11.0,93,0.00,,,0.00,VWS V14.01,2013-04-20 09:05:00,
2013-04-20 02:06:00,48.9,47.0,29.82,WSW,248,10.3,10.3,93,0.00,,,0.00,VWS V14.01,2013-04-20 09:06:00,
2013-04-20 02:07:00,48.9,47.0,29.82,WSW,248,12.5,12.5,93,0.00,,,0.00,VWS V14.01,2013-04-20 09:07:00,
2013-04-20 02:08:00,48.9,47.0,29.82,WSW,248,13.4,13.4,93,0.00,,,0.00,VWS V14.01,2013-04-20 09:08:00,
2013-04-20 02:09:00,48.9,47.3,29.82,WSW,248,8.1,8.1,94,0.00,,,0.00,VWS V14.01,2013-04-20 09:09:00,
2013-04-20 02:10:00,48.9,47.3,29.82,WSW,248,10.5,10.5,94,0.00,,,0.00,VWS V14.01,2013-04-20 09:10:00,
2013-04-20 02:11:00,48.9,47.3,29.82,WSW,248,10.5,10.5,94,0.00,,,0.00,VWS V14.01,2013-04-20 09:11:00,
2013-04-20 02:12:00,48.9,47.3,29.82,WSW,248,8.7,8.7,94,0.00,,,0.00,VWS V14.01,2013-04-20 09:12:00,
2013-04-20 02:13:00,48.9,47.3,29.82,WSW,248,10.3,10.3,94,0.00,,,0.00,VWS V14.01,2013-04-20 09:13:00,
2013-04-20 02:14:00,48.9,47.3,29.82,WSW,248,9.4,9.4,94,0.00,,,0.00,VWS V14.01,2013-04-20 09:14:00,
2013-04-20 02:15:00,48.9,47.3,29.82,SW,225,9.4,9.4,94,0.00,,,0.00,VWS V14.01,2013-04-20 09:15:00,
2013-04-20 02:16:00,48.9,47.3,29.82,SW,225,9.8,9.8,94,0.00,,,0.00,VWS V14.01,2013-04-20 09:16:00,
2013-04-20 02:17:00,48.9,47.3,29.82,SSW,202,10.5,10.5,94,0.00,,,0.00,VWS V14.01,2013-04-20 09:17:00,
2013-04-20 02:18:00,48.9,47.3,29.82,SW,225,9.6,9.6,94,0.00,,,0.00,VWS V14.01,2013-04-20 09:18:00,
2013-04-20 02:19:00,48.9,47.3,29.82,WSW,248,8.5,8.5,94,0.00,,,0.00,VWS V14.01,2013-04-20 09:19:00,
2013-04-20 02:20:00,48.9,47.3,29.82,WSW,248,10.3,10.3,94,0.00,,,0.00,VWS V14.01,2013-04-20 09:20:00,
2013-04-20 02:21:00,48.9,47.3,29.82,WSW,248,10.3,10.3,94,0.00,,,0.00,VWS V14.01,2013-04-20 09:21:00,
2013-04-20 02:22:00,48.9,47.3,29.82,SSW,202,6.3,6.3,94,0.00,,,0.00,VWS V14.01,2013-04-20 09:22:00,
2013-04-20 02:23:00,48.9,47.3,29.82,SSW,202,12.5,12.5,94,0.00,,,0.00,VWS V14.01,2013-04-20 09:23:00,
2013-04-20 02:24:00,48.9,47.3,29.82,SSW,202,10.1,10.1,94,0.00,,,0.00,VWS V14.01,2013-04-20 09:24:00,
2013-04-20 02:25:00,48.9,47.3,29.82,SW,225,9.4,9.4,94,0.00,,,0.00,VWS V14.01,2013-04-20 09:25:00,
2013-04-20 02:26:00,48.9,47.3,29.82,SW,225,9.4,9.4,94,0.00,,,0.00,VWS V14.01,2013-04-20 09:26:00,
2013-04-20 02:27:00,48.9,47.3,29.82,WNW,292,11.9,11.9,94,0.00,,,0.00,VWS V14.01,2013-04-20 09:27:00,
2013-04-20 02:28:00,48.9,47.3,29.82,WSW,248,7.8,7.8,94,0.00,,,0.00,VWS V14.01,2013-04-20 09:28:00,
2013-04-20 02:29:00,49.1,47.5,29.82,WSW,248,13.6,13.6,94,0.00,,,0.00,VWS V14.01,2013-04-20 09:29:00,
2013-04-20 02:30:00,49.1,47.5,29.82,West,270,7.6,7.6,94,0.00,,,0.00,VWS V14.01,2013-04-20 09:30:00,
2013-04-20 02:31:00,49.1,47.5,29.82,WSW,248,8.5,8.5,94,0.00,,,0.00,VWS V14.01,2013-04-20 09:31:00,
2013-04-20 02:32:00,49.1,47.5,29.82,WSW,248,8.7,8.7,94,0.00,,,0.00,VWS V14.01,2013-04-20 09:32:00,
2013-04-20 02:33:00,49.1,47.5,29.82,West,270,11.0,11.0,94,0.00,,,0.00,VWS V14.01,2013-04-20 09:33:00,
2013-04-20 02:34:00,49.1,47.5,29.82,WSW,248,7.6,7.6,94,0.00,,,0.00,VWS V14.01,2013-04-20 09:34:00,
2013-04-20 02:35:00,49.1,47.5,29.82,WSW,248,5.8,5.8,94,0.00,,,0.00,VWS V14.01,2013-04-20 09:35:00,
2013-04-20 02:36:00,49.1,47.5,29.82,WSW,248,5.8,5.8,94,0.00,,,0.00,VWS V14.01,2013-04-20 09:36:00,
2013-04-20 02:37:00,49.1,47.5,29.82,WSW,248,11.9,11.9,94,0.00,,,0.00,VWS V14.01,2013-04-20 09:37:00,
2013-04-20 02:38:00,49.1,47.5,29.82,South,180,8.7,8.7,94,0.00,,,0.00,VWS V14.01,2013-04-20 09:38:00,
2013-04-20 02:39:00,49.1,47.5,29.82,WSW,248,11.2,11.2,94,0.00,,,0.00,VWS V14.01,2013-04-20 09:39:00,
2013-04-20 02:40:00,49.1,47.5,29.82,SW,225,7.8,7.8,94,0.00,,,0.00,VWS V14.01,2013-04-20 09:40:00,
2013-04-20 02:41:00,49.1,47.5,29.82,SW,225,7.8,7.8,94,0.00,,,0.00,VWS V14.01,2013-04-20 09:41:00,
2013-04-20 02:42:00,49.1,47.5,29.82,WSW,248,9.2,9.2,94,0.00,,,0.00,VWS V14.01,2013-04-20 09:42:00,
2013-04-20 02:43:00,49.1,47.5,29.82,SW,225,8.1,8.1,94,0.00,,,0.00,VWS V14.01,2013-04-20 09:43:00,
2013-04-20 02:44:00,49.1,47.5,29.82,WSW,248,9.2,9.2,94,0.00,,,0.00,VWS V14.01,2013-04-20 09:44:00,
2013-04-20 02:45:00,49.1,47.7,29.82,WSW,248,9.2,9.2,95,0.00,,,0.00,VWS V14.01,2013-04-20 09:45:00,
2013-04-20 02:46:00,49.1,47.7,29.82,SSW,202,9.8,9.8,95,0.00,,,0.00,VWS V14.01,2013-04-20 09:46:00,
2013-04-20 02:47:00,49.1,47.7,29.82,WSW,248,5.8,5.8,95,0.00,,,0.00,VWS V14.01,2013-04-20 09:47:00,
2013-04-20 02:48:00,49.1,47.5,29.82,West,270,6.5,6.5,94,0.00,,,0.00,VWS V14.01,2013-04-20 09:48:00,
2013-04-20 02:49:00,49.1,47.5,29.82,WSW,248,5.8,5.8,94,0.00,,,0.00,VWS V14.01,2013-04-20 09:49:00,
2013-04-20 02:50:00,49.1,47.5,29.82,WSW,248,5.8,5.8,94,0.00,,,0.00,VWS V14.01,2013-04-20 09:50:00,
2013-04-20 02:51:00,49.1,47.5,29.82,WSW,248,5.8,5.8,94,0.00,,,0.00,VWS V14.01,2013-04-20 09:51:00,
2013-04-20 02:52:00,49.1,47.5,29.82,WSW,248,7.8,7.8,94,0.00,,,0.00,VWS V14.01,2013-04-20 09:52:00,
2013-04-20 02:53:00,49.1,47.5,29.82,SW,225,6.9,6.9,94,0.00,,,0.00,VWS V14.01,2013-04-20 09:53:00,
2013-04-20 02:54:00,49.1,47.5,29.82,WNW,292,8.7,8.7,94,0.00,,,0.00,VWS V14.01,2013-04-20 09:54:00,
2013-04-20 02:55:00,49.1,47.5,29.82,WSW,248,10.3,10.3,94,0.00,,,0.00,VWS V14.01,2013-04-20 09:55:00,
2013-04-20 02:56:00,49.1,47.5,29.82,WSW,248,10.3,10.3,94,0.00,,,0.00,VWS V14.01,2013-04-20 09:56:00,
2013-04-20 02:57:00,49.1,47.5,29.82,WSW,248,10.3,10.3,94,0.00,,,0.00,VWS V14.01,2013-04-20 09:57:00,
2013-04-20 02:58:00,49.1,47.5,29.82,WNW,292,7.8,7.8,94,0.00,,,0.00,VWS V14.01,2013-04-20 09:58:00,
2013-04-20 02:59:00,49.1,47.5,29.82,West,270,10.5,10.5,94,0.00,,,0.00,VWS V14.01,2013-04-20 09:59:00,
2013-04-20 03:00:00,49.1,47.5,29.82,SSW,202,9.0,9.0,94,0.00,,,0.00,VWS V14.01,2013-04-20 10:00:00,
2013-04-20 03:01:00,49.1,47.5,29.82,WSW,248,10.5,10.5,94,0.00,,,0.00,VWS V14.01,2013-04-20 10:01:00,
2013-04-20 03:02:00,49.1,47.5,29.82,SSW,202,7.8,7.8,94,0.00,,,0.00,VWS V14.01,2013-04-20 10:02:00,
2013-04-20 03:03:00,49.1,47.5,29.82,West,270,8.5,8.5,94,0.00,,,0.00,VWS V14.01,2013-04-20 10:03:00,
2013-04-20 03:04:00,49.1,47.5,29.82,WSW,248,10.7,10.7,94,0.00,,,0.00,VWS V14.01,2013-04-20 10:04:00,
2013-04-20 03:05:00,49.1,47.5,29.82,WSW,248,4.7,4.7,94,0.00,,,0.00,VWS V14.01,2013-04-20 10:05:00,
2013-04-20 03:06:00,49.1,47.5,29.82,WSW,248,4.7,4.7,94,0.00,,,0.00,VWS V14.01,2013-04-20 10:06:00,
2013-04-20 03:07:00,49.1,47.5,29.82,WSW,248,5.8,5.8,94,0.00,,,0.00,VWS V14.01,2013-04-20 10:07:00,
2013-04-20 03:08:00,49.1,47.5,29.82,WNW,292,12.1,12.1,94,0.00,,,0.00,VWS V14.01,2013-04-20 10:08:00,
2013-04-20 03:09:00,49.1,47.5,29.82,SSW,202,10.5,10.5,94,0.00,,,0.00,VWS V14.01,2013-04-20 10:09:00,
2013-04-20 03:10:00,49.1,47.5,29.82,SW,225,11.2,11.2,94,0.00,,,0.00,VWS V14.01,2013-04-20 10:10:00,
2013-04-20 03:11:00,49.1,47.5,29.82,WSW,248,6.3,6.3,94,0.00,,,0.00,VWS V14.01,2013-04-20 10:11:00,
2013-04-20 03:12:00,49.1,47.5,29.82,WSW,248,12.8,12.8,94,0.00,,,0.00,VWS V14.01,2013-04-20 10:12:00,
2013-04-20 03:13:00,49.1,47.5,29.82,WSW,248,3.6,3.6,94,0.00,,,0.00,VWS V14.01,2013-04-20 10:13:00,
2013-04-20 03:14:00,49.1,47.5,29.82,SW,225,10.3,10.3,94,0.00,,,0.00,VWS V14.01,2013-04-20 10:14:00,
2013-04-20 03:15:00,49.3,47.6,29.82,WSW,248,6.3,6.3,94,0.00,,,0.00,VWS V14.01,2013-04-20 10:15:00,
2013-04-20 03:16:00,49.3,47.6,29.82,WSW,248,6.3,6.3,94,0.00,,,0.00,VWS V14.01,2013-04-20 10:16:00,
2013-04-20 03:17:00,49.3,47.6,29.82,WSW,248,8.5,8.5,94,0.00,,,0.00,VWS V14.01,2013-04-20 10:17:00,
2013-04-20 03:18:00,49.3,47.6,29.82,SSW,202,7.6,7.6,94,0.00,,,0.00,VWS V14.01,2013-04-20 10:18:00,
2013-04-20 03:19:00,49.3,47.6,29.82,WSW,248,8.1,8.1,94,0.00,,,0.00,VWS V14.01,2013-04-20 10:19:00,
2013-04-20 03:20:00,49.3,47.6,29.82,WSW,248,10.3,10.3,94,0.00,,,0.00,VWS V14.01,2013-04-20 10:20:00,
2013-04-20 03:21:00,49.3,47.6,29.82,WSW,248,9.2,9.2,94,0.00,,,0.00,VWS V14.01,2013-04-20 10:21:00,
2013-04-20 03:22:00,49.3,47.6,29.82,SSW,202,7.6,7.6,94,0.00,,,0.00,VWS V14.01,2013-04-20 10:22:00,
2013-04-20 03:23:00,49.3,47.6,29.82,SSW,202,7.6,7.6,94,0.00,,,0.00,VWS V14.01,2013-04-20 10:23:00,
2013-04-20 03:24:00,49.3,47.6,29.82,WSW,248,7.6,7.6,94,0.00,,,0.00,VWS V14.01,2013-04-20 10:24:00,
2013-04-20 03:25:00,49.3,47.6,29.82,South,180,9.8,9.8,94,0.00,,,0.00,VWS V14.01,2013-04-20 10:25:00,
2013-04-20 03:26:00,49.3,47.6,29.82,South,180,9.8,9.8,94,0.00,,,0.00,VWS V14.01,2013-04-20 10:26:00,
2013-04-20 03:27:00,49.3,47.6,29.82,SW,225,11.9,11.9,94,0.00,,,0.00,VWS V14.01,2013-04-20 10:27:00,
2013-04-20 03:28:00,49.3,47.6,29.82,SW,225,8.1,8.1,94,0.00,,,0.00,VWS V14.01,2013-04-20 10:28:00,
2013-04-20 03:29:00,49.3,47.6,29.82,SW,225,8.1,8.1,94,0.00,,,0.00,VWS V14.01,2013-04-20 10:29:00,
2013-04-20 03:30:00,49.3,47.6,29.82,SW,225,5.8,5.8,94,0.00,,,0.00,VWS V14.01,2013-04-20 10:30:00,
2013-04-20 03:31:00,49.3,47.6,29.82,SW,225,5.8,5.8,94,0.00,,,0.00,VWS V14.01,2013-04-20 10:31:00,
2013-04-20 03:32:00,49.3,47.6,29.82,WSW,248,7.8,7.8,94,0.00,,,0.00,VWS V14.01,2013-04-20 10:32:00,
2013-04-20 03:33:00,49.3,47.6,29.82,SSW,202,8.7,8.7,94,0.00,,,0.00,VWS V14.01,2013-04-20 10:33:00,
2013-04-20 03:34:00,49.3,47.6,29.82,WSW,248,9.6,9.6,94,0.00,,,0.00,VWS V14.01,2013-04-20 10:34:00,
2013-04-20 03:35:00,49.3,47.6,29.82,WSW,248,7.4,7.4,94,0.00,,,0.00,VWS V14.01,2013-04-20 10:35:00,
2013-04-20 03:36:00,49.3,47.6,29.82,West,270,10.5,10.5,94,0.00,,,0.00,VWS V14.01,2013-04-20 10:36:00,
2013-04-20 03:37:00,49.3,47.6,29.82,WSW,248,11.0,11.0,94,0.00,,,0.00,VWS V14.01,2013-04-20 10:37:00,
2013-04-20 03:38:00,49.3,47.6,29.82,SW,225,10.3,10.3,94,0.00,,,0.00,VWS V14.01,2013-04-20 10:38:00,
2013-04-20 03:39:00,49.3,47.6,29.82,SW,225,10.7,10.7,94,0.00,,,0.00,VWS V14.01,2013-04-20 10:39:00,
2013-04-20 03:40:00,49.3,47.6,29.82,West,270,13.2,13.2,94,0.00,,,0.00,VWS V14.01,2013-04-20 10:40:00,
2013-04-20 03:41:00,49.3,47.6,29.82,WSW,248,6.3,6.3,94,0.00,,,0.00,VWS V14.01,2013-04-20 10:41:00,
2013-04-20 03:42:00,49.3,47.6,29.82,SW,225,8.5,8.5,94,0.00,,,0.00,VWS V14.01,2013-04-20 10:42:00,
2013-04-20 03:43:00,49.3,47.6,29.82,SW,225,8.5,8.5,94,0.00,,,0.00,VWS V14.01,2013-04-20 10:43:00,
2013-04-20 03:44:00,49.3,47.6,29.82,WSW,248,7.2,7.2,94,0.00,,,0.00,VWS V14.01,2013-04-20 10:44:00,
2013-04-20 03:45:00,49.3,47.6,29.82,SW,225,6.3,6.3,94,0.00,,,0.00,VWS V14.01,2013-04-20 10:45:00,
2013-04-20 03:46:00,49.3,47.6,29.82,SW,225,6.3,6.3,94,0.00,,,0.00,VWS V14.01,2013-04-20 10:46:00,
2013-04-20 03:47:00,49.3,47.6,29.82,SW,225,6.3,6.3,94,0.00,,,0.00,VWS V14.01,2013-04-20 10:47:00,
2013-04-20 03:48:00,49.3,47.6,29.82,WSW,248,12.3,12.3,94,0.00,,,0.00,VWS V14.01,2013-04-20 10:48:00,
2013-04-20 03:49:00,49.3,47.6,29.82,West,270,8.7,8.7,94,0.00,,,0.00,VWS V14.01,2013-04-20 10:49:00,
2013-04-20 03:50:00,49.3,47.6,29.82,WSW,248,7.8,7.8,94,0.00,,,0.00,VWS V14.01,2013-04-20 10:50:00,
2013-04-20 03:51:00,49.3,47.6,29.82,WSW,248,10.5,10.5,94,0.00,,,0.00,VWS V14.01,2013-04-20 10:51:00,
2013-04-20 03:52:00,49.3,47.6,29.82,West,270,7.4,7.4,94,0.00,,,0.00,VWS V14.01,2013-04-20 10:52:00,
2013-04-20 03:53:00,49.3,47.6,29.82,WSW,248,9.8,9.8,94,0.00,,,0.00,VWS V14.01,2013-04-20 10:53:00,
2013-04-20 03:54:00,49.3,47.6,29.82,WSW,248,5.8,5.8,94,0.00,,,0.00,VWS V14.01,2013-04-20 10:54:00,
2013-04-20 03:55:00,49.3,47.6,29.82,West,270,6.3,6.3,94,0.00,,,0.00,VWS V14.01,2013-04-20 10:55:00,
2013-04-20 03:56:00,49.3,47.6,29.82,West,270,6.3,6.3,94,0.00,,,0.00,VWS V14.01,2013-04-20 10:56:00,
2013-04-20 03:57:00,49.3,47.6,29.82,West,270,9.4,9.4,94,0.00,,,0.00,VWS V14.01,2013-04-20 10:57:00,
2013-04-20 03:58:00,49.3,47.6,29.82,West,270,9.4,9.4,94,0.00,,,0.00,VWS V14.01,2013-04-20 10:58:00,
2013-04-20 03:59:00,49.3,47.6,29.82,SW,225,9.0,9.0,94,0.00,,,0.00,VWS V14.01,2013-04-20 10:59:00,
2013-04-20 04:00:00,49.3,47.6,29.82,SW,225,12.1,12.1,94,0.00,,,0.00,VWS V14.01,2013-04-20 11:00:00,
2013-04-20 04:01:00,49.3,47.6,29.82,WSW,248,8.1,8.1,94,0.00,,,0.00,VWS V14.01,2013-04-20 11:01:00,
2013-04-20 04:02:00,49.3,47.6,29.82,SW,225,8.1,8.1,94,0.00,,,0.00,VWS V14.01,2013-04-20 11:02:00,
2013-04-20 04:03:00,49.3,47.6,29.82,West,270,8.1,8.1,94,0.00,,,0.00,VWS V14.01,2013-04-20 11:03:00,
2013-04-20 04:04:00,49.3,47.6,29.82,WSW,248,5.8,5.8,94,0.00,,,0.00,VWS V14.01,2013-04-20 11:04:00,
2013-04-20 04:05:00,49.3,47.6,29.82,West,270,8.7,8.7,94,0.00,,,0.00,VWS V14.01,2013-04-20 11:05:00,
2013-04-20 04:06:00,49.3,47.6,29.82,West,270,8.7,8.7,94,0.00,,,0.00,VWS V14.01,2013-04-20 11:06:00,
2013-04-20 04:07:00,49.3,47.6,29.82,WSW,248,7.8,7.8,94,0.00,,,0.00,VWS V14.01,2013-04-20 11:07:00,
2013-04-20 04:08:00,49.3,47.6,29.82,WSW,248,7.8,7.8,94,0.00,,,0.00,VWS V14.01,2013-04-20 11:08:00,
2013-04-20 04:09:00,49.3,47.6,29.82,WSW,248,7.4,7.4,94,0.00,,,0.00,VWS V14.01,2013-04-20 11:09:00,
2013-04-20 04:10:00,49.3,47.6,29.82,WSW,248,9.8,9.8,94,0.00,,,0.00,VWS V14.01,2013-04-20 11:10:00,
2013-04-20 04:11:00,49.3,47.6,29.82,WSW,248,9.8,9.8,94,0.00,,,0.00,VWS V14.01,2013-04-20 11:11:00,
2013-04-20 04:12:00,49.3,47.6,29.82,WNW,292,6.0,6.0,94,0.00,,,0.00,VWS V14.01,2013-04-20 11:12:00,
2013-04-20 04:13:00,49.3,47.6,29.82,SW,225,5.4,5.4,94,0.00,,,0.00,VWS V14.01,2013-04-20 11:13:00,
2013-04-20 04:14:00,49.3,47.6,29.82,WSW,248,9.2,9.2,94,0.00,,,0.00,VWS V14.01,2013-04-20 11:14:00,
2013-04-20 04:15:00,49.3,47.6,29.82,WSW,248,9.2,9.2,94,0.00,,,0.00,VWS V14.01,2013-04-20 11:15:00,
2013-04-20 04:16:00,49.3,47.6,29.82,WSW,248,9.2,9.2,94,0.00,,,0.00,VWS V14.01,2013-04-20 11:16:00,
2013-04-20 04:17:00,49.3,47.6,29.82,WSW,248,9.2,9.2,94,0.00,,,0.00,VWS V14.01,2013-04-20 11:17:00,
2013-04-20 04:18:00,49.3,47.6,29.82,West,270,11.0,11.0,94,0.00,,,0.00,VWS V14.01,2013-04-20 11:18:00,
2013-04-20 04:19:00,49.3,47.6,29.82,WSW,248,10.1,10.1,94,0.00,,,0.00,VWS V14.01,2013-04-20 11:19:00,
2013-04-20 04:20:00,49.3,47.3,29.82,WSW,248,10.1,10.1,93,0.00,,,0.00,VWS V14.01,2013-04-20 11:20:00,
2013-04-20 04:21:00,49.3,47.3,29.82,WSW,248,10.1,10.1,93,0.00,,,0.00,VWS V14.01,2013-04-20 11:21:00,
2013-04-20 04:22:00,49.3,47.3,29.82,SW,225,9.8,9.8,93,0.00,,,0.00,VWS V14.01,2013-04-20 11:22:00,
2013-04-20 04:23:00,49.3,47.3,29.82,SW,225,7.6,7.6,93,0.00,,,0.00,VWS V14.01,2013-04-20 11:23:00,
2013-04-20 04:24:00,49.3,47.3,29.82,SW,225,8.5,8.5,93,0.00,,,0.00,VWS V14.01,2013-04-20 11:24:00,
2013-04-20 04:25:00,49.3,47.3,29.82,SW,225,8.5,8.5,93,0.00,,,0.00,VWS V14.01,2013-04-20 11:25:00,
2013-04-20 04:26:00,49.3,47.3,29.82,WSW,248,8.5,8.5,93,0.00,,,0.00,VWS V14.01,2013-04-20 11:26:00,
2013-04-20 04:27:00,49.3,47.3,29.82,WSW,248,7.8,7.8,93,0.00,,,0.00,VWS V14.01,2013-04-20 11:27:00,
2013-04-20 04:28:00,49.3,47.3,29.82,WSW,248,8.5,8.5,93,0.00,,,0.00,VWS V14.01,2013-04-20 11:28:00,
2013-04-20 04:29:00,49.3,47.3,29.82,WSW,248,8.5,8.5,93,0.00,,,0.00,VWS V14.01,2013-04-20 11:29:00,
2013-04-20 04:30:00,49.3,47.3,29.82,West,270,10.3,10.3,93,0.00,,,0.00,VWS V14.01,2013-04-20 11:30:00,
2013-04-20 04:31:00,49.3,47.3,29.82,West,270,10.3,10.3,93,0.00,,,0.00,VWS V14.01,2013-04-20 11:31:00,
2013-04-20 04:32:00,49.3,47.3,29.82,WNW,292,9.8,9.8,93,0.00,,,0.00,VWS V14.01,2013-04-20 11:32:00,
2013-04-20 04:33:00,49.3,47.3,29.82,West,270,7.8,7.8,93,0.00,,,0.00,VWS V14.01,2013-04-20 11:33:00,
2013-04-20 04:34:00,49.1,47.2,29.82,WSW,248,8.7,8.7,93,0.00,,,0.00,VWS V14.01,2013-04-20 11:34:00,
2013-04-20 04:35:00,49.1,47.2,29.82,WSW,248,6.0,6.0,93,0.00,,,0.00,VWS V14.01,2013-04-20 11:35:00,
2013-04-20 04:36:00,49.1,47.2,29.82,WSW,248,6.0,6.0,93,0.00,,,0.00,VWS V14.01,2013-04-20 11:36:00,
2013-04-20 04:37:00,49.1,47.2,29.82,WSW,248,9.8,9.8,93,0.00,,,0.00,VWS V14.01,2013-04-20 11:37:00,
2013-04-20 04:38:00,49.1,47.2,29.82,WSW,248,10.3,10.3,93,0.00,,,0.00,VWS V14.01,2013-04-20 11:38:00,
2013-04-20 04:39:00,49.1,47.2,29.82,West,270,9.8,9.8,93,0.00,,,0.00,VWS V14.01,2013-04-20 11:39:00,
2013-04-20 04:40:00,49.1,47.2,29.82,WSW,248,7.6,7.6,93,0.00,,,0.00,VWS V14.01,2013-04-20 11:40:00,
2013-04-20 04:41:00,49.1,47.2,29.82,WSW,248,7.8,7.8,93,0.00,,,0.00,VWS V14.01,2013-04-20 11:41:00,
2013-04-20 04:42:00,49.1,47.2,29.82,WSW,248,8.1,8.1,93,0.00,,,0.00,VWS V14.01,2013-04-20 11:42:00,
2013-04-20 04:43:00,49.1,47.2,29.82,WSW,248,8.5,8.5,93,0.00,,,0.00,VWS V14.01,2013-04-20 11:43:00,
2013-04-20 04:44:00,49.1,47.2,29.82,SW,225,5.8,5.8,93,0.00,,,0.00,VWS V14.01,2013-04-20 11:44:00,
2013-04-20 04:45:00,49.1,47.2,29.82,WSW,248,8.5,8.5,93,0.00,,,0.00,VWS V14.01,2013-04-20 11:45:00,
2013-04-20 04:46:00,49.1,47.2,29.82,WSW,248,8.5,8.5,93,0.00,,,0.00,VWS V14.01,2013-04-20 11:46:00,
2013-04-20 04:47:00,49.1,47.2,29.82,West,270,7.4,7.4,93,0.00,,,0.00,VWS V14.01,2013-04-20 11:47:00,
2013-04-20 04:48:00,49.1,47.2,29.82,WSW,248,4.9,4.9,93,0.00,,,0.00,VWS V14.01,2013-04-20 11:48:00,
2013-04-20 04:49:00,49.1,47.2,29.82,WSW,248,6.5,6.5,93,0.00,,,0.00,VWS V14.01,2013-04-20 11:49:00,
2013-04-20 04:50:00,49.1,47.2,29.82,WSW,248,8.1,8.1,93,0.00,,,0.00,VWS V14.01,2013-04-20 11:50:00,
2013-04-20 04:51:00,49.1,47.2,29.82,WSW,248,8.1,8.1,93,0.00,,,0.00,VWS V14.01,2013-04-20 11:51:00,
2013-04-20 04:52:00,49.1,47.2,29.82,WSW,248,5.4,5.4,93,0.00,,,0.00,VWS V14.01,2013-04-20 11:52:00,
2013-04-20 04:53:00,49.1,47.2,29.82,WSW,248,6.5,6.5,93,0.00,,,0.00,VWS V14.01,2013-04-20 11:53:00,
2013-04-20 04:54:00,49.1,47.2,29.82,WSW,248,6.5,6.5,93,0.00,,,0.00,VWS V14.01,2013-04-20 11:54:00,
2013-04-20 04:55:00,49.1,47.2,29.82,West,270,5.6,5.6,93,0.00,,,0.00,VWS V14.01,2013-04-20 11:55:00,
2013-04-20 04:56:00,49.1,47.2,29.82,West,270,5.6,5.6,93,0.00,,,0.00,VWS V14.01,2013-04-20 11:56:00,
2013-04-20 04:57:00,49.1,47.2,29.82,West,270,5.6,5.6,93,0.00,,,0.00,VWS V14.01,2013-04-20 11:57:00,
2013-04-20 04:58:00,49.1,47.2,29.82,West,270,9.8,9.8,93,0.00,,,0.00,VWS V14.01,2013-04-20 11:58:00,
2013-04-20 04:59:00,49.1,47.2,29.82,WSW,248,7.8,7.8,93,0.00,,,0.00,VWS V14.01,2013-04-20 11:59:00,
2013-04-20 05:00:00,49.1,47.2,29.82,WSW,248,8.1,8.1,93,0.00,,,0.00,VWS V14.01,2013-04-20 12:00:00,
2013-04-20 05:01:00,49.1,47.2,29.82,WSW,248,8.1,8.1,93,0.00,,,0.00,VWS V14.01,2013-04-20 12:01:00,
2013-04-20 05:02:00,49.1,47.2,29.82,WNW,292,8.7,8.7,93,0.00,,,0.00,VWS V14.01,2013-04-20 12:02:00,
2013-04-20 05:03:00,49.1,47.2,29.82,WNW,292,8.7,8.7,93,0.00,,,0.00,VWS V14.01,2013-04-20 12:03:00,
2013-04-20 05:04:00,49.1,47.2,29.82,WSW,248,6.0,6.0,93,0.00,,,0.00,VWS V14.01,2013-04-20 12:04:00,
2013-04-20 05:05:00,49.1,47.2,29.82,West,270,5.8,5.8,93,0.00,,,0.00,VWS V14.01,2013-04-20 12:05:00,
2013-04-20 05:06:00,49.1,47.2,29.82,West,270,5.8,5.8,93,0.00,,,0.00,VWS V14.01,2013-04-20 12:06:00,
2013-04-20 05:07:00,49.1,47.2,29.82,West,270,5.8,5.8,93,0.00,,,0.00,VWS V14.01,2013-04-20 12:07:00,
2013-04-20 05:08:00,49.1,47.2,29.82,WSW,248,8.5,8.5,93,0.00,,,0.00,VWS V14.01,2013-04-20 12:08:00,
2013-04-20 05:09:00,49.1,47.2,29.82,WNW,292,9.2,9.2,93,0.00,,,0.00,VWS V14.01,2013-04-20 12:09:00,
2013-04-20 05:10:00,49.1,47.2,29.82,SW,225,8.7,8.7,93,0.00,,,0.00,VWS V14.01,2013-04-20 12:10:00,
2013-04-20 05:11:00,49.1,47.2,29.82,SW,225,8.7,8.7,93,0.00,,,0.00,VWS V14.01,2013-04-20 12:11:00,
2013-04-20 05:12:00,49.1,47.2,29.82,SW,225,8.7,8.7,93,0.00,,,0.00,VWS V14.01,2013-04-20 12:12:00,
2013-04-20 05:13:00,49.1,47.2,29.82,WSW,248,9.2,9.2,93,0.00,,,0.00,VWS V14.01,2013-04-20 12:13:00,
2013-04-20 05:14:00,49.1,47.2,29.82,WSW,248,9.2,9.2,93,0.00,,,0.00,VWS V14.01,2013-04-20 12:14:00,
2013-04-20 05:15:00,48.9,47.0,29.82,West,270,9.8,9.8,93,0.00,,,0.00,VWS V14.01,2013-04-20 12:15:00,
2013-04-20 05:16:00,48.9,47.0,29.82,West,270,8.7,8.7,93,0.00,,,0.00,VWS V14.01,2013-04-20 12:16:00,
2013-04-20 05:17:00,48.9,47.0,29.82,WSW,248,10.5,10.5,93,0.00,,,0.00,VWS V14.01,2013-04-20 12:17:00,
2013-04-20 05:18:00,48.9,47.0,29.82,WSW,248,10.3,10.3,93,0.00,,,0.00,VWS V14.01,2013-04-20 12:18:00,
2013-04-20 05:19:00,48.9,47.0,29.82,West,270,10.3,10.3,93,0.00,,,0.00,VWS V14.01,2013-04-20 12:19:00,
2013-04-20 05:20:00,48.9,47.0,29.82,WSW,248,6.3,6.3,93,0.00,,,0.00,VWS V14.01,2013-04-20 12:20:00,
2013-04-20 05:21:00,48.9,47.0,29.82,WSW,248,6.3,6.3,93,0.00,,,0.00,VWS V14.01,2013-04-20 12:21:00,
2013-04-20 05:22:00,48.9,47.0,29.82,WNW,292,9.6,9.6,93,0.00,,,0.00,VWS V14.01,2013-04-20 12:22:00,
2013-04-20 05:23:00,48.9,47.0,29.82,SW,225,7.2,7.2,93,0.00,,,0.00,VWS V14.01,2013-04-20 12:23:00,
2013-04-20 05:24:00,48.9,47.0,29.82,WSW,248,8.7,8.7,93,0.00,,,0.00,VWS V14.01,2013-04-20 12:24:00,
2013-04-20 05:25:00,48.9,47.0,29.82,WSW,248,9.8,9.8,93,0.00,,,0.00,VWS V14.01,2013-04-20 12:25:00,
2013-04-20 05:26:00,48.9,47.0,29.82,WSW,248,9.8,9.8,93,0.00,,,0.00,VWS V14.01,2013-04-20 12:26:00,
2013-04-20 05:27:00,48.9,47.0,29.82,WSW,248,7.6,7.6,93,0.00,,,0.00,VWS V14.01,2013-04-20 12:27:00,
2013-04-20 05:28:00,48.9,47.0,29.82,WSW,248,5.6,5.6,93,0.00,,,0.00,VWS V14.01,2013-04-20 12:28:00,
2013-04-20 05:29:00,48.9,47.0,29.82,WSW,248,8.1,8.1,93,0.00,,,0.00,VWS V14.01,2013-04-20 12:29:00,
2013-04-20 05:30:00,49.1,47.2,29.82,WNW,292,7.6,7.6,93,0.00,,,0.00,VWS V14.01,2013-04-20 12:30:00,
2013-04-20 05:31:00,49.1,47.2,29.82,WNW,292,7.6,7.6,93,0.00,,,0.00,VWS V14.01,2013-04-20 12:31:00,
2013-04-20 05:32:00,49.1,47.2,29.82,WSW,248,10.5,10.5,93,0.00,,,0.00,VWS V14.01,2013-04-20 12:32:00,
2013-04-20 05:34:00,49.1,47.2,29.82,WSW,248,7.8,7.8,93,0.00,,,0.00,VWS V14.01,2013-04-20 12:34:00,
2013-04-20 05:35:00,48.9,47.0,29.82,WSW,248,6.5,6.5,93,0.00,,,0.00,VWS V14.01,2013-04-20 12:35:00,
2013-04-20 05:36:00,48.9,47.0,29.82,WSW,248,6.5,6.5,93,0.00,,,0.00,VWS V14.01,2013-04-20 12:36:00,
2013-04-20 05:37:00,48.9,47.0,29.82,WNW,292,8.7,8.7,93,0.00,,,0.00,VWS V14.01,2013-04-20 12:37:00,
2013-04-20 05:38:00,48.9,47.0,29.82,SW,225,7.8,7.8,93,0.00,,,0.00,VWS V14.01,2013-04-20 12:38:00,
2013-04-20 05:39:00,48.9,47.0,29.82,WSW,248,9.6,9.6,93,0.00,,,0.00,VWS V14.01,2013-04-20 12:39:00,
2013-04-20 05:40:00,48.9,47.0,29.82,WSW,248,6.0,6.0,93,0.00,,,0.00,VWS V14.01,2013-04-20 12:40:00,
2013-04-20 05:41:00,48.9,47.0,29.82,WSW,248,6.0,6.0,93,0.00,,,0.00,VWS V14.01,2013-04-20 12:41:00,
2013-04-20 05:42:00,48.9,47.0,29.82,WSW,248,9.8,9.8,93,0.00,,,0.00,VWS V14.01,2013-04-20 12:42:00,
2013-04-20 05:43:00,48.9,47.0,29.82,WSW,248,10.5,10.5,93,0.00,,,0.00,VWS V14.01,2013-04-20 12:43:00,
2013-04-20 05:44:00,48.9,47.0,29.82,SW,225,10.5,10.5,93,0.00,,,0.00,VWS V14.01,2013-04-20 12:44:00,
2013-04-20 05:45:00,49.1,47.2,29.82,WSW,248,7.8,7.8,93,0.00,,,0.00,VWS V14.01,2013-04-20 12:45:00,
2013-04-20 05:46:00,49.1,47.2,29.82,WSW,248,7.8,7.8,93,0.00,,,0.00,VWS V14.01,2013-04-20 12:46:00,
2013-04-20 05:47:00,49.1,47.2,29.82,SW,225,8.1,8.1,93,0.00,,,0.00,VWS V14.01,2013-04-20 12:47:00,
2013-04-20 05:48:00,48.9,47.0,29.82,West,270,6.3,6.3,93,0.00,,,0.00,VWS V14.01,2013-04-20 12:48:00,
2013-04-20 05:49:00,48.9,47.0,29.82,WSW,248,7.6,7.6,93,0.00,,,0.00,VWS V14.01,2013-04-20 12:49:00,
2013-04-20 05:50:00,48.9,47.0,29.82,WSW,248,8.7,8.7,93,0.00,,,0.00,VWS V14.01,2013-04-20 12:50:00,
2013-04-20 05:51:00,48.9,47.0,29.82,WSW,248,8.7,8.7,93,0.00,,,0.00,VWS V14.01,2013-04-20 12:51:00,
2013-04-20 05:52:00,48.9,47.0,29.82,WSW,248,7.6,7.6,93,0.00,,,0.00,VWS V14.01,2013-04-20 12:52:00,
2013-04-20 05:53:00,48.9,47.0,29.82,WSW,248,8.1,8.1,93,0.00,,,0.00,VWS V14.01,2013-04-20 12:53:00,
2013-04-20 05:54:00,48.9,47.0,29.82,WSW,248,7.8,7.8,93,0.00,,,0.00,VWS V14.01,2013-04-20 12:54:00,
2013-04-20 05:55:00,48.9,47.0,29.82,WSW,248,7.8,7.8,93,0.00,,,0.00,VWS V14.01,2013-04-20 12:55:00,
2013-04-20 05:56:00,48.9,47.0,29.82,WSW,248,7.8,7.8,93,0.00,,,0.00,VWS V14.01,2013-04-20 12:56:00,
2013-04-20 05:57:00,48.9,47.0,29.82,SSW,202,7.4,7.4,93,0.00,,,0.00,VWS V14.01,2013-04-20 12:57:00,
2013-04-20 05:58:00,48.9,47.0,29.82,SSW,202,6.3,6.3,93,0.00,,,0.00,VWS V14.01,2013-04-20 12:58:00,
2013-04-20 05:59:00,48.9,47.0,29.82,WSW,248,8.1,8.1,93,0.00,,,0.00,VWS V14.01,2013-04-20 12:59:00,
2013-04-20 06:00:00,48.9,47.0,29.82,WSW,248,6.0,6.0,93,0.00,,,0.00,VWS V14.01,2013-04-20 13:00:00,
2013-04-20 06:01:00,48.9,47.0,29.82,WSW,248,6.0,6.0,93,0.00,,,0.00,VWS V14.01,2013-04-20 13:01:00,
2013-04-20 06:02:00,48.9,47.0,29.82,WSW,248,5.6,5.6,93,0.00,,,0.00,VWS V14.01,2013-04-20 13:02:00,
2013-04-20 06:03:00,48.9,47.0,29.82,WSW,248,7.8,7.8,93,0.00,,,0.00,VWS V14.01,2013-04-20 13:03:00,
2013-04-20 06:04:00,48.9,47.0,29.82,WSW,248,6.0,6.0,93,0.00,,,0.00,VWS V14.01,2013-04-20 13:04:00,
2013-04-20 06:05:00,48.9,47.0,29.82,SW,225,6.0,6.0,93,0.00,,,0.00,VWS V14.01,2013-04-20 13:05:00,
2013-04-20 06:06:00,48.9,47.0,29.82,SW,225,6.0,6.0,93,0.00,,,0.00,VWS V14.01,2013-04-20 13:06:00,
2013-04-20 06:07:00,48.9,47.0,29.82,WSW,248,7.4,7.4,93,0.00,,,0.00,VWS V14.01,2013-04-20 13:07:00,
2013-04-20 06:08:00,48.9,47.0,29.82,WSW,248,8.1,8.1,93,0.00,,,0.00,VWS V14.01,2013-04-20 13:08:00,
2013-04-20 06:09:00,48.9,47.0,29.82,WSW,248,6.5,6.5,93,0.00,,,0.00,VWS V14.01,2013-04-20 13:09:00,
2013-04-20 06:10:00,48.9,47.0,29.82,WSW,248,8.1,8.1,93,0.00,,,0.00,VWS V14.01,2013-04-20 13:10:00,
2013-04-20 06:11:00,48.9,47.0,29.82,WSW,248,8.1,8.1,93,0.00,,,0.00,VWS V14.01,2013-04-20 13:11:00,
2013-04-20 06:12:00,48.9,47.0,29.82,WSW,248,6.0,6.0,93,0.00,,,0.00,VWS V14.01,2013-04-20 13:12:00,
2013-04-20 06:13:00,48.9,47.0,29.82,SSW,202,8.5,8.5,93,0.00,,,0.00,VWS V14.01,2013-04-20 13:13:00,
2013-04-20 06:14:00,48.9,47.0,29.82,WSW,248,1.3,1.3,93,0.00,,,0.00,VWS V14.01,2013-04-20 13:14:00,
2013-04-20 06:15:00,48.9,47.0,29.82,West,270,4.0,4.0,93,0.00,,,0.00,VWS V14.01,2013-04-20 13:15:00,
2013-04-20 06:16:00,48.9,47.0,29.82,West,270,4.0,4.0,93,0.00,,,0.00,VWS V14.01,2013-04-20 13:16:00,
2013-04-20 06:17:00,48.9,47.0,29.82,WSW,248,7.4,7.4,93,0.00,,,0.00,VWS V14.01,2013-04-20 13:17:00,
2013-04-20 06:18:00,49.1,47.2,29.82,West,270,5.4,5.4,93,0.00,,,0.00,VWS V14.01,2013-04-20 13:18:00,
2013-04-20 06:19:00,49.1,47.2,29.82,WSW,248,5.6,5.6,93,0.00,,,0.00,VWS V14.01,2013-04-20 13:19:00,
2013-04-20 06:20:00,49.1,47.2,29.82,SSW,202,7.2,7.2,93,0.00,,,0.00,VWS V14.01,2013-04-20 13:20:00,
2013-04-20 06:21:00,49.1,47.2,29.82,WSW,248,5.8,5.8,93,0.00,,,0.00,VWS V14.01,2013-04-20 13:21:00,
2013-04-20 06:22:00,49.1,47.2,29.82,West,270,6.3,6.3,93,0.00,,,0.00,VWS V14.01,2013-04-20 13:22:00,
2013-04-20 06:23:00,49.1,47.2,29.82,WSW,248,4.0,4.0,93,0.00,,,0.00,VWS V14.01,2013-04-20 13:23:00,
2013-04-20 06:24:00,49.1,47.2,29.82,WSW,248,5.8,5.8,93,0.00,,,0.00,VWS V14.01,2013-04-20 13:24:00,
2013-04-20 06:25:00,48.9,47.0,29.82,WNW,292,5.8,5.8,93,0.00,,,0.00,VWS V14.01,2013-04-20 13:25:00,
2013-04-20 06:26:00,48.9,47.0,29.82,WNW,292,5.8,5.8,93,0.00,,,0.00,VWS V14.01,2013-04-20 13:26:00,
2013-04-20 06:27:00,49.1,47.2,29.82,WSW,248,3.8,3.8,93,0.00,,,0.00,VWS V14.01,2013-04-20 13:27:00,
2013-04-20 06:28:00,49.1,47.2,29.82,WSW,248,5.8,5.8,93,0.00,,,0.00,VWS V14.01,2013-04-20 13:28:00,
2013-04-20 06:29:00,48.9,47.0,29.82,West,270,5.8,5.8,93,0.00,,,0.00,VWS V14.01,2013-04-20 13:29:00,
2013-04-20 06:30:00,48.9,47.0,29.82,WSW,248,4.0,4.0,93,0.00,,,0.00,VWS V14.01,2013-04-20 13:30:00,
2013-04-20 06:31:00,48.9,47.0,29.82,WSW,248,4.0,4.0,93,0.00,,,0.00,VWS V14.01,2013-04-20 13:31:00,
2013-04-20 06:32:00,48.9,47.0,29.82,WSW,248,8.5,8.5,93,0.00,,,0.00,VWS V14.01,2013-04-20 13:32:00,
2013-04-20 06:33:00,48.9,47.0,29.82,WSW,248,8.7,8.7,93,0.00,,,0.00,VWS V14.01,2013-04-20 13:33:00,
2013-04-20 06:34:00,49.1,47.2,29.82,WSW,248,8.7,8.7,93,0.00,,,0.00,VWS V14.01,2013-04-20 13:34:00,
2013-04-20 06:35:00,49.1,47.2,29.82,WSW,248,8.5,8.5,93,0.00,,,0.00,VWS V14.01,2013-04-20 13:35:00,
2013-04-20 06:36:00,49.1,47.2,29.82,WSW,248,8.5,8.5,93,0.00,,,0.00,VWS V14.01,2013-04-20 13:36:00,
2013-04-20 06:37:00,49.1,47.2,29.82,West,270,7.4,7.4,93,0.00,,,0.00,VWS V14.01,2013-04-20 13:37:00,
2013-04-20 06:38:00,48.9,47.0,29.82,WSW,248,7.8,7.8,93,0.00,,,0.00,VWS V14.01,2013-04-20 13:38:00,
2013-04-20 06:39:00,48.9,47.0,29.82,WSW,248,7.4,7.4,93,0.00,,,0.00,VWS V14.01,2013-04-20 13:39:00,
2013-04-20 06:40:00,48.9,47.0,29.82,West,270,8.7,8.7,93,0.00,,,0.00,VWS V14.01,2013-04-20 13:40:00,
2013-04-20 06:41:00,48.9,47.0,29.82,West,270,8.7,8.7,93,0.00,,,0.00,VWS V14.01,2013-04-20 13:41:00,
2013-04-20 06:43:00,48.9,47.0,29.82,WSW,248,8.1,8.1,93,0.00,,,0.00,VWS V14.01,2013-04-20 13:43:00,
2013-04-20 06:44:00,48.9,47.0,29.82,WSW,248,8.5,8.5,93,0.00,,,0.00,VWS V14.01,2013-04-20 13:44:00,
2013-04-20 06:45:00,48.9,47.0,29.82,WSW,248,8.1,8.1,93,0.00,,,0.00,VWS V14.01,2013-04-20 13:45:00,
2013-04-20 06:46:00,48.9,47.0,29.82,WSW,248,8.1,8.1,93,0.00,,,0.00,VWS V14.01,2013-04-20 13:46:00,
2013-04-20 06:47:00,48.9,47.0,29.82,WSW,248,7.8,7.8,93,0.00,,,0.00,VWS V14.01,2013-04-20 13:47:00,
2013-04-20 06:48:00,48.9,47.3,29.82,WSW,248,7.8,7.8,94,0.00,,,0.00,VWS V14.01,2013-04-20 13:48:00,
2013-04-20 06:49:00,48.9,47.3,29.82,SW,225,6.3,6.3,94,0.00,,,0.00,VWS V14.01,2013-04-20 13:49:00,
2013-04-20 06:50:00,48.9,47.3,29.82,WSW,248,8.7,8.7,94,0.00,,,0.00,VWS V14.01,2013-04-20 13:50:00,
2013-04-20 06:51:00,48.9,47.3,29.82,WSW,248,8.7,8.7,94,0.00,,,0.00,VWS V14.01,2013-04-20 13:51:00,
2013-04-20 06:52:00,49.1,47.5,29.82,WSW,248,7.6,7.6,94,0.00,,,0.00,VWS V14.01,2013-04-20 13:52:00,
2013-04-20 06:53:00,49.1,47.5,29.82,WSW,248,8.7,8.7,94,0.00,,,0.00,VWS V14.01,2013-04-20 13:53:00,
2013-04-20 06:54:00,49.1,47.5,29.82,WSW,248,7.6,7.6,94,0.00,,,0.00,VWS V14.01,2013-04-20 13:54:00,
2013-04-20 06:55:00,49.1,47.5,29.82,West,270,7.4,7.4,94,0.00,,,0.00,VWS V14.01,2013-04-20 13:55:00,
2013-04-20 06:56:00,49.1,47.5,29.82,WNW,292,7.8,7.8,94,0.00,,,0.00,VWS V14.01,2013-04-20 13:56:00,
2013-04-20 06:57:00,49.1,47.5,29.82,West,270,6.5,6.5,94,0.00,,,0.00,VWS V14.01,2013-04-20 13:57:00,
2013-04-20 06:58:00,49.1,47.5,29.82,West,270,6.5,6.5,94,0.00,,,0.00,VWS V14.01,2013-04-20 13:58:00,
2013-04-20 06:59:00,49.1,47.5,29.82,WSW,248,5.4,5.4,94,0.00,,,0.00,VWS V14.01,2013-04-20 13:59:00,
2013-04-20 07:00:00,49.3,47.6,29.82,WSW,248,5.4,5.4,94,0.00,,,0.00,VWS V14.01,2013-04-20 14:00:00,
2013-04-20 07:01:00,49.3,47.6,29.82,WSW,248,5.4,5.4,94,0.00,,,0.00,VWS V14.01,2013-04-20 14:01:00,
2013-04-20 07:02:00,49.3,47.6,29.82,WSW,248,6.5,6.5,94,0.00,,,0.00,VWS V14.01,2013-04-20 14:02:00,
2013-04-20 07:03:00,49.3,47.6,29.82,WSW,248,6.5,6.5,94,0.00,,,0.00,VWS V14.01,2013-04-20 14:03:00,
2013-04-20 07:04:00,49.5,47.8,29.82,WSW,248,8.1,8.1,94,0.00,,,0.00,VWS V14.01,2013-04-20 14:04:00,
2013-04-20 07:05:00,49.5,47.5,29.82,WSW,248,7.2,7.2,93,0.00,,,0.00,VWS V14.01,2013-04-20 14:05:00,
2013-04-20 07:06:00,49.5,47.5,29.82,WSW,248,7.2,7.2,93,0.00,,,0.00,VWS V14.01,2013-04-20 14:06:00,
2013-04-20 07:07:00,49.5,47.5,29.82,WSW,248,7.8,7.8,93,0.00,,,0.00,VWS V14.01,2013-04-20 14:07:00,
2013-04-20 07:08:00,49.6,47.7,29.82,West,270,5.8,5.8,93,0.00,,,0.00,VWS V14.01,2013-04-20 14:08:00,
2013-04-20 07:09:00,49.6,47.7,29.82,WSW,248,6.0,6.0,93,0.00,,,0.00,VWS V14.01,2013-04-20 14:09:00,
2013-04-20 07:10:00,49.6,47.7,29.82,WSW,248,6.9,6.9,93,0.00,,,0.00,VWS V14.01,2013-04-20 14:10:00,
2013-04-20 07:11:00,49.6,47.7,29.82,WSW,248,6.9,6.9,93,0.00,,,0.00,VWS V14.01,2013-04-20 14:11:00,
2013-04-20 07:12:00,49.6,47.7,29.82,WSW,248,5.6,5.6,93,0.00,,,0.00,VWS V14.01,2013-04-20 14:12:00,
2013-04-20 07:13:00,49.6,47.7,29.82,WSW,248,5.6,5.6,93,0.00,,,0.00,VWS V14.01,2013-04-20 14:13:00,
2013-04-20 07:14:00,49.6,47.7,29.82,WSW,248,5.4,5.4,93,0.00,,,0.00,VWS V14.01,2013-04-20 14:14:00,
2013-04-20 07:15:00,49.8,47.9,29.82,WNW,292,5.8,5.8,93,0.00,,,0.00,VWS V14.01,2013-04-20 14:15:00,
2013-04-20 07:16:00,49.8,47.9,29.82,WSW,248,5.6,5.6,93,0.00,,,0.00,VWS V14.01,2013-04-20 14:16:00,
2013-04-20 07:17:00,50.0,47.8,29.82,WSW,248,7.8,7.8,92,0.00,,,0.00,VWS V14.01,2013-04-20 14:17:00,
2013-04-20 07:18:00,50.0,47.8,29.82,WSW,248,5.4,5.4,92,0.00,,,0.00,VWS V14.01,2013-04-20 14:18:00,
2013-04-20 07:19:00,50.0,47.8,29.82,WSW,248,7.6,7.6,92,0.00,,,0.00,VWS V14.01,2013-04-20 14:19:00,
2013-04-20 07:20:00,50.2,48.0,29.82,WSW,248,6.5,6.5,92,0.00,,,0.00,VWS V14.01,2013-04-20 14:20:00,
2013-04-20 07:21:00,50.2,48.0,29.82,WSW,248,6.5,6.5,92,0.00,,,0.00,VWS V14.01,2013-04-20 14:21:00,
2013-04-20 07:22:00,50.4,48.1,29.82,WSW,248,6.3,6.3,92,0.00,,,0.00,VWS V14.01,2013-04-20 14:22:00,
2013-04-20 07:23:00,50.4,48.1,29.82,WSW,248,5.6,5.6,92,0.00,,,0.00,VWS V14.01,2013-04-20 14:23:00,
2013-04-20 07:24:00,50.5,48.3,29.82,WSW,248,5.4,5.4,92,0.00,,,0.00,VWS V14.01,2013-04-20 14:24:00,
2013-04-20 07:25:00,50.5,48.0,29.82,West,270,6.3,6.3,91,0.00,,,0.00,VWS V14.01,2013-04-20 14:25:00,
2013-04-20 07:26:00,50.5,48.0,29.82,West,270,6.3,6.3,91,0.00,,,0.00,VWS V14.01,2013-04-20 14:26:00,
2013-04-20 07:27:00,50.5,48.0,29.82,West,270,6.3,6.3,91,0.00,,,0.00,VWS V14.01,2013-04-20 14:27:00,
2013-04-20 07:28:00,50.5,48.0,29.82,WSW,248,5.6,5.6,91,0.00,,,0.00,VWS V14.01,2013-04-20 14:28:00,
2013-04-20 07:29:00,50.5,48.0,29.82,WSW,248,7.2,7.2,91,0.00,,,0.00,VWS V14.01,2013-04-20 14:29:00,
2013-04-20 07:30:00,50.7,48.2,29.82,West,270,4.9,4.9,91,0.00,,,0.00,VWS V14.01,2013-04-20 14:30:00,
2013-04-20 07:31:00,50.7,48.2,29.82,WSW,248,6.5,6.5,91,0.00,,,0.00,VWS V14.01,2013-04-20 14:31:00,
2013-04-20 07:32:00,50.9,48.4,29.82,WSW,248,6.5,6.5,91,0.00,,,0.00,VWS V14.01,2013-04-20 14:32:00,
2013-04-20 07:33:00,50.9,48.4,29.82,WSW,248,5.8,5.8,91,0.00,,,0.00,VWS V14.01,2013-04-20 14:33:00,
2013-04-20 07:34:00,50.9,48.1,29.82,WSW,248,4.3,4.3,90,0.00,,,0.00,VWS V14.01,2013-04-20 14:34:00,
2013-04-20 07:35:00,50.9,48.1,29.82,WSW,248,8.1,8.1,90,0.00,,,0.00,VWS V14.01,2013-04-20 14:35:00,
2013-04-20 07:36:00,50.9,48.1,29.82,WSW,248,6.0,6.0,90,0.00,,,0.00,VWS V14.01,2013-04-20 14:36:00,
2013-04-20 07:37:00,50.9,48.1,29.82,West,270,3.1,3.1,90,0.00,,,0.00,VWS V14.01,2013-04-20 14:37:00,
2013-04-20 07:38:00,50.9,48.1,29.82,WSW,248,6.3,6.3,90,0.00,,,0.00,VWS V14.01,2013-04-20 14:38:00,
2013-04-20 07:39:00,50.9,48.1,29.82,WSW,248,5.8,5.8,90,0.00,,,0.00,VWS V14.01,2013-04-20 14:39:00,
2013-04-20 07:40:00,51.1,48.2,29.82,WSW,248,5.4,5.4,90,0.00,,,0.00,VWS V14.01,2013-04-20 14:40:00,
2013-04-20 07:41:00,51.1,48.3,29.82,WSW,248,5.4,5.4,90,0.00,,,0.00,VWS V14.01,2013-04-20 14:41:00,
2013-04-20 07:42:00,51.1,48.3,29.82,West,270,4.9,4.9,90,0.00,,,0.00,VWS V14.01,2013-04-20 14:42:00,
2013-04-20 07:43:00,51.3,48.4,29.82,WSW,248,3.8,3.8,90,0.00,,,0.00,VWS V14.01,2013-04-20 14:43:00,
2013-04-20 07:44:00,51.3,48.4,29.82,WNW,292,6.5,6.5,90,0.00,,,0.00,VWS V14.01,2013-04-20 14:44:00,
2013-04-20 07:45:00,51.4,48.6,29.82,WSW,248,5.4,5.4,90,0.00,,,0.00,VWS V14.01,2013-04-20 14:45:00,
2013-04-20 07:46:00,51.4,48.6,29.82,West,270,4.9,4.9,90,0.00,,,0.00,VWS V14.01,2013-04-20 14:46:00,
2013-04-20 07:47:00,51.6,48.5,29.82,West,270,5.6,5.6,89,0.00,,,0.00,VWS V14.01,2013-04-20 14:47:00,
2013-04-20 07:48:00,51.6,48.5,29.82,WSW,248,5.4,5.4,89,0.00,,,0.00,VWS V14.01,2013-04-20 14:48:00,
2013-04-20 07:49:00,51.6,48.5,29.82,WSW,248,4.7,4.7,89,0.00,,,0.00,VWS V14.01,2013-04-20 14:49:00,
2013-04-20 07:50:00,51.8,48.7,29.82,WSW,248,6.0,6.0,89,0.00,,,0.00,VWS V14.01,2013-04-20 14:50:00,
2013-04-20 07:51:00,51.8,48.7,29.82,WSW,248,6.0,6.0,89,0.00,,,0.00,VWS V14.01,2013-04-20 14:51:00,
2013-04-20 07:52:00,52.0,48.5,29.82,West,270,5.6,5.6,88,0.00,,,0.00,VWS V14.01,2013-04-20 14:52:00,
2013-04-20 07:53:00,52.0,48.5,29.82,West,270,7.2,7.2,88,0.00,,,0.00,VWS V14.01,2013-04-20 14:53:00,
2013-04-20 07:54:00,52.0,48.5,29.82,WSW,248,4.9,4.9,88,0.00,,,0.00,VWS V14.01,2013-04-20 14:54:00,
2013-04-20 07:55:00,52.2,48.7,29.82,WSW,248,6.0,6.0,88,0.00,,,0.00,VWS V14.01,2013-04-20 14:55:00,
2013-04-20 07:56:00,52.2,48.7,29.82,WSW,248,4.9,4.9,88,0.00,,,0.00,VWS V14.01,2013-04-20 14:56:00,
2013-04-20 07:57:00,52.3,48.9,29.82,SW,225,5.8,5.8,88,0.00,,,0.00,VWS V14.01,2013-04-20 14:57:00,
2013-04-20 07:58:00,52.3,48.9,29.82,WSW,248,5.6,5.6,88,0.00,,,0.00,VWS V14.01,2013-04-20 14:58:00,
2013-04-20 07:59:00,52.5,48.8,29.82,WSW,248,5.6,5.6,87,0.00,,,0.00,VWS V14.01,2013-04-20 14:59:00,
2013-04-20 08:00:00,52.7,49.0,29.82,West,270,4.9,4.9,87,0.00,,,0.00,VWS V14.01,2013-04-20 15:00:00,
2013-04-20 08:01:00,52.7,49.0,29.82,West,270,4.9,4.9,87,0.00,,,0.00,VWS V14.01,2013-04-20 15:01:00,
2013-04-20 08:02:00,52.7,49.0,29.82,WNW,292,3.8,3.8,87,0.00,,,0.00,VWS V14.01,2013-04-20 15:02:00,
2013-04-20 08:03:00,52.7,49.0,29.82,WNW,292,4.9,4.9,87,0.00,,,0.00,VWS V14.01,2013-04-20 15:03:00,
2013-04-20 08:04:00,52.9,48.8,29.82,WSW,248,6.0,6.0,86,0.00,,,0.00,VWS V14.01,2013-04-20 15:04:00,
2013-04-20 08:05:00,52.9,48.8,29.82,WSW,248,4.3,4.3,86,0.00,,,0.00,VWS V14.01,2013-04-20 15:05:00,
2013-04-20 08:06:00,52.9,48.8,29.82,WSW,248,4.3,4.3,86,0.00,,,0.00,VWS V14.01,2013-04-20 15:06:00,
2013-04-20 08:07:00,52.9,48.8,29.82,WSW,248,4.3,4.3,86,0.00,,,0.00,VWS V14.01,2013-04-20 15:07:00,
2013-04-20 08:08:00,53.4,49.3,29.82,WSW,248,4.3,4.3,86,0.00,,,0.00,VWS V14.01,2013-04-20 15:08:00,
2013-04-20 08:09:00,53.4,49.3,29.82,WSW,248,4.3,4.3,86,0.00,,,0.00,VWS V14.01,2013-04-20 15:09:00,
2013-04-20 08:10:00,53.4,49.3,29.82,WSW,248,2.9,2.9,86,0.00,,,0.00,VWS V14.01,2013-04-20 15:10:00,
2013-04-20 08:11:00,53.6,49.2,29.82,WSW,248,2.9,2.9,85,0.00,,,0.00,VWS V14.01,2013-04-20 15:11:00,
2013-04-20 08:12:00,53.6,49.2,29.82,West,270,3.6,3.6,85,0.00,,,0.00,VWS V14.01,2013-04-20 15:12:00,
2013-04-20 08:13:00,54.0,49.6,29.82,West,270,3.6,3.6,85,0.00,,,0.00,VWS V14.01,2013-04-20 15:13:00,
2013-04-20 08:14:00,54.0,49.6,29.82,WNW,292,5.6,5.6,85,0.00,,,0.00,VWS V14.01,2013-04-20 15:14:00,
2013-04-20 08:15:00,54.0,49.6,29.82,WNW,292,5.6,5.6,85,0.00,,,0.00,VWS V14.01,2013-04-20 15:15:00,
2013-04-20 08:16:00,54.0,49.6,29.82,WNW,292,5.6,5.6,85,0.00,,,0.00,VWS V14.01,2013-04-20 15:16:00,
2013-04-20 08:17:00,54.1,49.7,29.82,WNW,292,5.6,5.6,85,0.00,,,0.00,VWS V14.01,2013-04-20 15:17:00,
2013-04-20 08:18:00,54.1,49.7,29.82,WNW,292,5.6,5.6,85,0.00,,,0.00,VWS V14.01,2013-04-20 15:18:00,
2013-04-20 08:19:00,54.1,49.7,29.82,WSW,248,3.1,3.1,85,0.00,,,0.00,VWS V14.01,2013-04-20 15:19:00,
2013-04-20 08:20:00,54.7,50.0,29.82,WNW,292,2.9,2.9,84,0.00,,,0.00,VWS V14.01,2013-04-20 15:20:00,
2013-04-20 08:21:00,54.7,50.0,29.82,WNW,292,2.9,2.9,84,0.00,,,0.00,VWS V14.01,2013-04-20 15:21:00,
2013-04-20 08:22:00,54.9,50.1,29.82,WNW,292,3.6,3.6,84,0.00,,,0.00,VWS V14.01,2013-04-20 15:22:00,
2013-04-20 08:23:00,54.9,50.1,29.82,WSW,248,3.6,3.6,84,0.00,,,0.00,VWS V14.01,2013-04-20 15:23:00,
2013-04-20 08:24:00,55.2,50.5,29.82,WSW,248,3.8,3.8,84,0.00,,,0.00,VWS V14.01,2013-04-20 15:24:00,
2013-04-20 08:25:00,55.4,50.3,29.82,WNW,292,3.8,3.8,83,0.00,,,0.00,VWS V14.01,2013-04-20 15:25:00,
2013-04-20 08:26:00,55.4,50.3,29.82,WNW,292,3.8,3.8,83,0.00,,,0.00,VWS V14.01,2013-04-20 15:26:00,
2013-04-20 08:27:00,55.6,50.5,29.82,SW,225,3.8,3.8,83,0.00,,,0.00,VWS V14.01,2013-04-20 15:27:00,
2013-04-20 08:28:00,55.6,50.5,29.82,WSW,248,2.9,2.9,83,0.00,,,0.00,VWS V14.01,2013-04-20 15:28:00,
2013-04-20 08:29:00,55.8,50.4,29.82,WSW,248,2.9,2.9,82,0.00,,,0.00,VWS V14.01,2013-04-20 15:29:00,
2013-04-20 08:30:00,55.8,50.4,29.82,WSW,248,3.4,3.4,82,0.00,,,0.00,VWS V14.01,2013-04-20 15:30:00,
2013-04-20 08:31:00,55.8,50.4,29.82,WSW,248,4.0,4.0,82,0.00,,,0.00,VWS V14.01,2013-04-20 15:31:00,
2013-04-20 08:32:00,55.8,50.4,29.82,West,270,2.5,2.5,82,0.00,,,0.00,VWS V14.01,2013-04-20 15:32:00,
2013-04-20 08:33:00,56.1,50.7,29.82,West,270,3.8,3.8,82,0.00,,,0.00,VWS V14.01,2013-04-20 15:33:00,
2013-04-20 08:34:00,56.1,50.4,29.82,West,270,4.7,4.7,81,0.00,,,0.00,VWS V14.01,2013-04-20 15:34:00,
2013-04-20 08:35:00,56.3,50.2,29.82,WSW,248,3.1,3.1,80,0.00,,,0.00,VWS V14.01,2013-04-20 15:35:00,
2013-04-20 08:36:00,56.3,50.2,29.82,WSW,248,3.1,3.1,80,0.00,,,0.00,VWS V14.01,2013-04-20 15:36:00,
2013-04-20 08:37:00,56.3,50.2,29.82,WSW,248,6.5,6.5,80,0.00,,,0.00,VWS V14.01,2013-04-20 15:37:00,
2013-04-20 08:38:00,56.3,49.9,29.82,WSW,248,5.6,5.6,79,0.00,,,0.00,VWS V14.01,2013-04-20 15:38:00,
2013-04-20 08:39:00,56.3,49.9,29.82,WSW,248,5.8,5.8,79,0.00,,,0.00,VWS V14.01,2013-04-20 15:39:00,
2013-04-20 08:40:00,56.5,49.7,29.82,WSW,248,5.8,5.8,78,0.00,,,0.00,VWS V14.01,2013-04-20 15:40:00,
2013-04-20 08:41:00,56.7,49.5,29.82,West,270,7.6,7.6,77,0.00,,,0.00,VWS V14.01,2013-04-20 15:41:00,
2013-04-20 08:42:00,56.7,49.5,29.82,WSW,248,3.4,3.4,77,0.00,,,0.00,VWS V14.01,2013-04-20 15:42:00,
2013-04-20 08:43:00,56.8,49.7,29.82,WSW,248,3.4,3.4,77,0.00,,,0.00,VWS V14.01,2013-04-20 15:43:00,
2013-04-20 08:44:00,56.8,49.7,29.82,WSW,248,3.4,3.4,77,0.00,,,0.00,VWS V14.01,2013-04-20 15:44:00,
2013-04-20 08:45:00,57.0,49.9,29.82,WSW,248,4.5,4.5,77,0.00,,,0.00,VWS V14.01,2013-04-20 15:45:00,
2013-04-20 08:46:00,57.0,49.9,29.82,WSW,248,4.5,4.5,77,0.00,,,0.00,VWS V14.01,2013-04-20 15:46:00,
2013-04-20 08:47:00,57.0,49.9,29.82,WSW,248,4.5,4.5,77,0.00,,,0.00,VWS V14.01,2013-04-20 15:47:00,
2013-04-20 08:48:00,57.6,50.1,29.82,SW,225,2.9,2.9,76,0.00,,,0.00,VWS V14.01,2013-04-20 15:48:00,
2013-04-20 08:49:00,57.6,50.1,29.82,SW,225,2.9,2.9,76,0.00,,,0.00,VWS V14.01,2013-04-20 15:49:00,
2013-04-20 08:50:00,57.6,50.1,29.82,SW,225,2.9,2.9,76,0.00,,,0.00,VWS V14.01,2013-04-20 15:50:00,
2013-04-20 08:51:00,57.6,50.1,29.82,WSW,248,5.4,5.4,76,0.00,,,0.00,VWS V14.01,2013-04-20 15:51:00,
2013-04-20 08:52:00,57.9,50.0,29.82,WSW,248,4.0,4.0,75,0.00,,,0.00,VWS V14.01,2013-04-20 15:52:00,
2013-04-20 08:53:00,57.9,50.0,29.82,WSW,248,5.4,5.4,75,0.00,,,0.00,VWS V14.01,2013-04-20 15:53:00,
2013-04-20 08:54:00,58.1,49.9,29.82,WSW,248,5.4,5.4,74,0.00,,,0.00,VWS V14.01,2013-04-20 15:54:00,
2013-04-20 08:55:00,58.3,50.0,29.82,WSW,248,5.4,5.4,74,0.00,,,0.00,VWS V14.01,2013-04-20 15:55:00,
2013-04-20 08:56:00,58.3,50.0,29.82,WSW,248,5.4,5.4,74,0.00,,,0.00,VWS V14.01,2013-04-20 15:56:00,
2013-04-20 08:57:00,58.5,49.8,29.82,WSW,248,5.4,5.4,73,0.00,,,0.00,VWS V14.01,2013-04-20 15:57:00,
2013-04-20 08:58:00,58.5,49.8,29.82,WSW,248,5.4,5.4,73,0.00,,,0.00,VWS V14.01,2013-04-20 15:58:00,
2013-04-20 08:59:00,58.5,49.8,29.82,WSW,248,5.4,5.4,73,0.00,,,0.00,VWS V14.01,2013-04-20 15:59:00,
2013-04-20 09:00:00,58.6,50.0,29.82,West,270,2.5,2.5,73,0.00,,,0.00,VWS V14.01,2013-04-20 16:00:00,
2013-04-20 09:01:00,58.6,50.0,29.82,West,270,2.5,2.5,73,0.00,,,0.00,VWS V14.01,2013-04-20 16:01:00,
2013-04-20 09:02:00,58.6,50.0,29.82,WNW,292,3.4,3.4,73,0.00,,,0.00,VWS V14.01,2013-04-20 16:02:00,
2013-04-20 09:03:00,58.8,50.2,29.82,West,270,4.0,4.0,73,0.00,,,0.00,VWS V14.01,2013-04-20 16:03:00,
2013-04-20 09:04:00,59.0,50.4,29.82,West,270,4.0,4.0,73,0.00,,,0.00,VWS V14.01,2013-04-20 16:04:00,
2013-04-20 09:05:00,59.4,50.7,29.82,West,270,3.4,3.4,73,0.00,,,0.00,VWS V14.01,2013-04-20 16:05:00,
2013-04-20 09:06:00,59.4,50.7,29.82,West,270,3.4,3.4,73,0.00,,,0.00,VWS V14.01,2013-04-20 16:06:00,
2013-04-20 09:07:00,59.4,50.7,29.82,WSW,248,2.5,2.5,73,0.00,,,0.00,VWS V14.01,2013-04-20 16:07:00,
2013-04-20 09:08:00,59.4,50.3,29.82,WSW,248,2.5,2.5,72,0.00,,,0.00,VWS V14.01,2013-04-20 16:08:00,
2013-04-20 09:09:00,59.4,50.3,29.82,WNW,292,4.0,4.0,72,0.00,,,0.00,VWS V14.01,2013-04-20 16:09:00,
2013-04-20 09:10:00,59.5,50.5,29.82,WNW,292,3.1,3.1,72,0.00,,,0.00,VWS V14.01,2013-04-20 16:10:00,
2013-04-20 09:11:00,59.5,50.5,29.82,WNW,292,3.4,3.4,72,0.00,,,0.00,VWS V14.01,2013-04-20 16:11:00,
2013-04-20 09:12:00,59.5,50.5,29.80,WNW,292,3.4,3.4,72,0.00,,,0.00,VWS V14.01,2013-04-20 16:12:00,
2013-04-20 09:13:00,59.9,50.9,29.80,WNW,292,2.7,2.7,72,0.00,,,0.00,VWS V14.01,2013-04-20 16:13:00,
2013-04-20 09:14:00,59.9,50.9,29.80,WNW,292,2.7,2.7,72,0.00,,,0.00,VWS V14.01,2013-04-20 16:14:00,
2013-04-20 09:15:00,60.4,51.4,29.79,WNW,292,4.0,4.0,72,0.00,,,0.00,VWS V14.01,2013-04-20 16:15:00,
2013-04-20 09:16:00,60.4,51.4,29.80,WNW,292,4.0,4.0,72,0.00,,,0.00,VWS V14.01,2013-04-20 16:16:00,
2013-04-20 09:17:00,60.6,51.6,29.80,WNW,292,4.0,4.0,72,0.00,,,0.00,VWS V14.01,2013-04-20 16:17:00,
2013-04-20 09:18:00,60.8,51.3,29.80,WNW,292,3.8,3.8,71,0.00,,,0.00,VWS V14.01,2013-04-20 16:18:00,
2013-04-20 09:19:00,60.8,51.3,29.80,WSW,248,3.6,3.6,71,0.00,,,0.00,VWS V14.01,2013-04-20 16:19:00,
2013-04-20 09:20:00,61.2,51.7,29.79,WNW,292,3.8,3.8,71,0.00,,,0.00,VWS V14.01,2013-04-20 16:20:00,
2013-04-20 09:21:00,61.2,51.7,29.80,WNW,292,3.8,3.8,71,0.00,,,0.00,VWS V14.01,2013-04-20 16:21:00,
2013-04-20 09:22:00,61.5,52.0,29.80,WNW,292,2.7,2.7,71,0.00,,,0.00,VWS V14.01,2013-04-20 16:22:00,
2013-04-20 09:23:00,61.5,52.0,29.80,WNW,292,2.5,2.5,71,0.00,,,0.00,VWS V14.01,2013-04-20 16:23:00,
2013-04-20 09:24:00,62.2,53.1,29.80,West,270,3.1,3.1,72,0.00,,,0.00,VWS V14.01,2013-04-20 16:24:00,
2013-04-20 09:25:00,62.2,52.3,29.79,West,270,2.9,2.9,70,0.00,,,0.00,VWS V14.01,2013-04-20 16:25:00,
2013-04-20 09:26:00,62.2,52.3,29.80,West,270,2.9,2.9,70,0.00,,,0.00,VWS V14.01,2013-04-20 16:26:00,
2013-04-20 09:27:00,62.6,52.7,29.80,West,270,2.9,2.9,70,0.00,,,0.00,VWS V14.01,2013-04-20 16:27:00,
2013-04-20 09:28:00,62.6,52.7,29.80,WNW,292,2.0,2.0,70,0.00,,,0.00,VWS V14.01,2013-04-20 16:28:00,
2013-04-20 09:29:00,63.0,52.6,29.80,WNW,292,4.9,4.9,69,0.00,,,0.00,VWS V14.01,2013-04-20 16:29:00,
2013-04-20 09:30:00,63.0,52.2,29.79,WNW,292,1.3,1.3,68,0.00,,,0.00,VWS V14.01,2013-04-20 16:30:00,
2013-04-20 09:31:00,63.0,52.2,29.80,NW,315,0.0,0.0,68,0.00,,,0.00,VWS V14.01,2013-04-20 16:31:00,
2013-04-20 09:32:00,63.0,52.2,29.80,SW,225,0.0,0.0,68,0.00,,,0.00,VWS V14.01,2013-04-20 16:32:00,
2013-04-20 09:33:00,63.3,52.2,29.80,West,270,0.0,0.0,67,0.00,,,0.00,VWS V14.01,2013-04-20 16:33:00,
2013-04-20 09:34:00,63.9,53.1,29.80,West,270,0.0,0.0,68,0.00,,,0.00,VWS V14.01,2013-04-20 16:34:00,
2013-04-20 09:35:00,63.9,52.7,29.79,SSE,158,0.0,0.0,67,0.00,,,0.00,VWS V14.01,2013-04-20 16:35:00,
2013-04-20 09:36:00,63.9,52.7,29.80,South,180,0.9,0.9,67,0.00,,,0.00,VWS V14.01,2013-04-20 16:36:00,
2013-04-20 09:37:00,63.9,52.7,29.80,South,180,0.0,0.0,67,0.00,,,0.00,VWS V14.01,2013-04-20 16:37:00,
2013-04-20 09:38:00,63.9,52.7,29.80,South,180,0.0,0.0,67,0.00,,,0.00,VWS V14.01,2013-04-20 16:38:00,
2013-04-20 09:39:00,63.9,52.7,29.80,South,180,0.0,0.0,67,0.00,,,0.00,VWS V14.01,2013-04-20 16:39:00,
2013-04-20 09:40:00,64.8,52.7,29.79,SSE,158,3.1,3.1,65,0.00,,,0.00,VWS V14.01,2013-04-20 16:40:00,
2013-04-20 09:41:00,65.1,52.7,29.80,SSE,158,3.1,3.1,64,0.00,,,0.00,VWS V14.01,2013-04-20 16:41:00,
2013-04-20 09:42:00,65.1,52.7,29.80,NNE,22,0.0,0.0,64,0.00,,,0.00,VWS V14.01,2013-04-20 16:42:00,
2013-04-20 09:43:00,65.5,51.7,29.80,NNE,22,2.0,2.0,61,0.00,,,0.00,VWS V14.01,2013-04-20 16:43:00,
2013-04-20 09:44:00,65.5,51.7,29.80,ENE,68,2.0,2.0,61,0.00,,,0.00,VWS V14.01,2013-04-20 16:44:00,
2013-04-20 09:45:00,65.7,52.3,29.79,ENE,68,2.0,2.0,62,0.00,,,0.00,VWS V14.01,2013-04-20 16:45:00,
2013-04-20 09:46:00,65.7,52.3,29.80,ENE,68,2.0,2.0,62,0.00,,,0.00,VWS V14.01,2013-04-20 16:46:00,
2013-04-20 09:47:00,66.0,53.1,29.80,ESE,112,1.3,1.3,63,0.00,,,0.00,VWS V14.01,2013-04-20 16:47:00,
2013-04-20 09:48:00,66.2,52.4,29.80,ESE,112,3.4,3.4,61,0.00,,,0.00,VWS V14.01,2013-04-20 16:48:00,
2013-04-20 09:49:00,66.2,52.4,29.80,ESE,112,3.4,3.4,61,0.00,,,0.00,VWS V14.01,2013-04-20 16:49:00,
2013-04-20 09:50:00,66.7,53.3,29.79,ENE,68,1.3,1.3,62,0.00,,,0.00,VWS V14.01,2013-04-20 16:50:00,
2013-04-20 09:51:00,66.7,53.3,29.80,NE,45,2.5,2.5,62,0.00,,,0.00,VWS V14.01,2013-04-20 16:51:00,
2013-04-20 09:52:00,66.9,54.4,29.80,ENE,68,3.4,3.4,64,0.00,,,0.00,VWS V14.01,2013-04-20 16:52:00,
2013-04-20 09:53:00,66.9,54.4,29.80,SSW,202,0.0,0.0,64,0.00,,,0.00,VWS V14.01,2013-04-20 16:53:00,
2013-04-20 09:54:00,66.9,54.4,29.80,SSW,202,0.0,0.0,64,0.00,,,0.00,VWS V14.01,2013-04-20 16:54:00,
2013-04-20 09:55:00,67.1,52.8,29.79,NNE,22,0.9,0.9,60,0.00,,,0.00,VWS V14.01,2013-04-20 16:55:00,
2013-04-20 09:56:00,67.1,52.8,29.80,NNE,22,0.9,0.9,60,0.00,,,0.00,VWS V14.01,2013-04-20 16:56:00,
2013-04-20 09:57:00,67.6,53.7,29.80,NNE,22,1.1,1.1,61,0.00,,,0.00,VWS V14.01,2013-04-20 16:57:00,
2013-04-20 09:58:00,67.6,53.7,29.80,NE,45,4.0,4.0,61,0.00,,,0.00,VWS V14.01,2013-04-20 16:58:00,
2013-04-20 09:59:00,67.6,51.4,29.80,ENE,68,2.9,2.9,56,0.00,,,0.00,VWS V14.01,2013-04-20 16:59:00,
2013-04-20 10:00:00,68.0,52.2,29.79,ENE,68,3.6,3.6,57,0.00,,,0.00,VWS V14.01,2013-04-20 17:00:00,
2013-04-20 10:01:00,68.0,52.2,29.80,ENE,68,3.6,3.6,57,0.00,,,0.00,VWS V14.01,2013-04-20 17:01:00,
2013-04-20 10:02:00,68.0,52.2,29.80,ENE,68,3.6,3.6,57,0.00,,,0.00,VWS V14.01,2013-04-20 17:02:00,
2013-04-20 10:03:00,68.4,51.1,29.80,ENE,68,4.0,4.0,54,0.00,,,0.00,VWS V14.01,2013-04-20 17:03:00,
2013-04-20 10:04:00,68.4,52.1,29.80,NE,45,1.1,1.1,56,0.00,,,0.00,VWS V14.01,2013-04-20 17:04:00,
2013-04-20 10:05:00,68.4,50.6,29.79,North,0,3.4,3.4,53,0.00,,,0.00,VWS V14.01,2013-04-20 17:05:00,
2013-04-20 10:06:00,68.4,50.6,29.80,North,0,3.4,3.4,53,0.00,,,0.00,VWS V14.01,2013-04-20 17:06:00,
2013-04-20 10:07:00,68.4,50.6,29.80,North,0,3.4,3.4,53,0.00,,,0.00,VWS V14.01,2013-04-20 17:07:00,
2013-04-20 10:08:00,68.9,51.6,29.80,NNW,338,4.0,4.0,54,0.00,,,0.00,VWS V14.01,2013-04-20 17:08:00,
2013-04-20 10:09:00,68.9,51.6,29.80,NNW,338,4.0,4.0,54,0.00,,,0.00,VWS V14.01,2013-04-20 17:09:00,
2013-04-20 10:10:00,69.6,52.3,29.79,NNW,338,4.0,4.0,54,0.00,,,0.00,VWS V14.01,2013-04-20 17:10:00,
2013-04-20 10:11:00,70.2,55.2,29.80,WNW,292,2.9,2.9,59,0.00,,,0.00,VWS V14.01,2013-04-20 17:11:00,
2013-04-20 10:12:00,70.2,55.2,29.80,NNE,22,3.4,3.4,59,0.00,,,0.00,VWS V14.01,2013-04-20 17:12:00,
2013-04-20 10:13:00,70.7,52.2,29.80,NNW,338,4.0,4.0,52,0.00,,,0.00,VWS V14.01,2013-04-20 17:13:00,
2013-04-20 10:14:00,70.7,52.2,29.80,North,0,6.5,6.5,52,0.00,,,0.00,VWS V14.01,2013-04-20 17:14:00,
2013-04-20 10:15:00,71.4,54.4,29.79,North,0,6.5,6.5,55,0.00,,,0.00,VWS V14.01,2013-04-20 17:15:00,
2013-04-20 10:16:00,71.4,54.4,29.80,NW,315,4.0,4.0,55,0.00,,,0.00,VWS V14.01,2013-04-20 17:16:00,
2013-04-20 10:17:00,71.6,54.1,29.80,NNW,338,5.8,5.8,54,0.00,,,0.00,VWS V14.01,2013-04-20 17:17:00,
2013-04-20 10:18:00,71.6,54.1,29.80,NNW,338,10.3,10.3,54,0.00,,,0.00,VWS V14.01,2013-04-20 17:18:00,
2013-04-20 10:19:00,71.8,49.3,29.80,NNW,338,10.3,10.3,45,0.00,,,0.00,VWS V14.01,2013-04-20 17:19:00,
2013-04-20 10:20:00,72.0,48.9,29.79,NNW,338,9.8,9.8,44,0.00,,,0.00,VWS V14.01,2013-04-20 17:20:00,
2013-04-20 10:22:00,72.0,48.9,29.80,NNW,338,9.8,9.8,44,0.00,,,0.00,VWS V14.01,2013-04-20 17:22:00,
2013-04-20 10:23:00,72.0,48.9,29.80,NW,315,4.3,4.3,44,0.00,,,0.00,VWS V14.01,2013-04-20 17:23:00,
2013-04-20 10:24:00,72.5,48.8,29.80,NW,315,9.4,9.4,43,0.00,,,0.00,VWS V14.01,2013-04-20 17:24:00,
2013-04-20 10:25:00,72.7,48.3,29.79,NNW,338,9.6,9.6,42,0.00,,,0.00,VWS V14.01,2013-04-20 17:25:00,
2013-04-20 10:26:00,72.7,48.3,29.80,NNW,338,9.6,9.6,42,0.00,,,0.00,VWS V14.01,2013-04-20 17:26:00,
2013-04-20 10:27:00,72.5,45.5,29.80,NNW,338,9.6,9.6,38,0.00,,,0.00,VWS V14.01,2013-04-20 17:27:00,
2013-04-20 10:28:00,72.5,45.5,29.80,NNW,338,10.7,10.7,38,0.00,,,0.00,VWS V14.01,2013-04-20 17:28:00,
2013-04-20 10:29:00,72.5,44.1,29.80,NNW,338,10.7,10.7,36,0.00,,,0.00,VWS V14.01,2013-04-20 17:29:00,
2013-04-20 10:30:00,72.5,44.8,29.79,NNE,22,7.8,7.8,37,0.00,,,0.00,VWS V14.01,2013-04-20 17:30:00,
2013-04-20 10:31:00,72.5,44.8,29.80,NNW,338,10.7,10.7,37,0.00,,,0.00,VWS V14.01,2013-04-20 17:31:00,
2013-04-20 10:32:00,72.5,44.8,29.80,NW,315,8.5,8.5,37,0.00,,,0.00,VWS V14.01,2013-04-20 17:32:00,
2013-04-20 10:33:00,72.7,44.9,29.80,NNE,22,10.3,10.3,37,0.00,,,0.00,VWS V14.01,2013-04-20 17:33:00,
2013-04-20 10:34:00,72.9,43.6,29.80,North,0,10.5,10.5,35,0.00,,,0.00,VWS V14.01,2013-04-20 17:34:00,
2013-04-20 10:35:00,72.9,43.6,29.79,NNW,338,12.5,12.5,35,0.00,,,0.00,VWS V14.01,2013-04-20 17:35:00,
2013-04-20 10:36:00,73.0,43.8,29.80,NNW,338,12.5,12.5,35,0.00,,,0.00,VWS V14.01,2013-04-20 17:36:00,
2013-04-20 10:37:00,73.0,43.8,29.80,NW,315,7.6,7.6,35,0.00,,,0.00,VWS V14.01,2013-04-20 17:37:00,
2013-04-20 10:38:00,72.9,42.9,29.80,NNW,338,10.5,10.5,34,0.00,,,0.00,VWS V14.01,2013-04-20 17:38:00,
2013-04-20 10:39:00,72.9,42.9,29.80,NNW,338,12.8,12.8,34,0.00,,,0.00,VWS V14.01,2013-04-20 17:39:00,
2013-04-20 10:40:00,73.0,42.3,29.79,NNW,338,10.3,10.3,33,0.00,,,0.00,VWS V14.01,2013-04-20 17:40:00,
2013-04-20 10:41:00,73.0,43.0,29.80,NNW,338,8.5,8.5,34,0.00,,,0.00,VWS V14.01,2013-04-20 17:41:00,
2013-04-20 10:42:00,73.0,43.0,29.80,NNW,338,8.1,8.1,34,0.00,,,0.00,VWS V14.01,2013-04-20 17:42:00,
2013-04-20 10:43:00,73.6,43.5,29.80,NNW,338,8.1,8.1,34,0.00,,,0.00,VWS V14.01,2013-04-20 17:43:00,
2013-04-20 10:44:00,73.6,43.5,29.80,NNW,338,9.8,9.8,34,0.00,,,0.00,VWS V14.01,2013-04-20 17:44:00,
2013-04-20 10:45:00,73.8,42.9,29.79,NW,315,10.3,10.3,33,0.00,,,0.00,VWS V14.01,2013-04-20 17:45:00,
2013-04-20 10:46:00,73.8,42.9,29.80,NW,315,10.3,10.3,33,0.00,,,0.00,VWS V14.01,2013-04-20 17:46:00,
2013-04-20 10:47:00,73.4,42.6,29.80,NW,315,10.3,10.3,33,0.00,,,0.00,VWS V14.01,2013-04-20 17:47:00,
2013-04-20 10:48:00,73.4,42.6,29.80,NNW,338,10.7,10.7,33,0.00,,,0.00,VWS V14.01,2013-04-20 17:48:00,
2013-04-20 10:49:00,73.2,42.4,29.80,WNW,292,10.5,10.5,33,0.00,,,0.00,VWS V14.01,2013-04-20 17:49:00,
2013-04-20 10:50:00,73.2,42.4,29.79,NNW,338,12.3,12.3,33,0.00,,,0.00,VWS V14.01,2013-04-20 17:50:00,
2013-04-20 10:51:00,73.2,42.4,29.80,NNW,338,12.3,12.3,33,0.00,,,0.00,VWS V14.01,2013-04-20 17:51:00,
2013-04-20 10:53:00,73.4,42.6,29.80,NW,315,10.5,10.5,33,0.00,,,0.00,VWS V14.01,2013-04-20 17:53:00,
2013-04-20 10:54:00,73.6,42.7,29.80,NNW,338,12.8,12.8,33,0.00,,,0.00,VWS V14.01,2013-04-20 17:54:00,
2013-04-20 10:55:00,73.6,41.9,29.79,NNW,338,11.0,11.0,32,0.00,,,0.00,VWS V14.01,2013-04-20 17:55:00,
2013-04-20 10:56:00,73.6,41.9,29.80,NNW,338,11.0,11.0,32,0.00,,,0.00,VWS V14.01,2013-04-20 17:56:00,
2013-04-20 10:57:00,73.8,42.1,29.80,NNW,338,11.0,11.0,32,0.00,,,0.00,VWS V14.01,2013-04-20 17:57:00,
2013-04-20 10:58:00,73.8,42.1,29.80,NNW,338,12.8,12.8,32,0.00,,,0.00,VWS V14.01,2013-04-20 17:58:00,
2013-04-20 10:59:00,73.8,42.1,29.80,NNW,338,11.9,11.9,32,0.00,,,0.00,VWS V14.01,2013-04-20 17:59:00,
2013-04-20 11:00:00,73.8,42.1,29.79,NNW,338,11.9,11.9,32,0.00,,,0.00,VWS V14.01,2013-04-20 18:00:00,
2013-04-20 11:01:00,73.8,42.1,29.80,NNW,338,11.9,11.9,32,0.00,,,0.00,VWS V14.01,2013-04-20 18:01:00,
2013-04-20 11:02:00,73.8,42.1,29.80,NNW,338,11.9,11.9,32,0.00,,,0.00,VWS V14.01,2013-04-20 18:02:00,
2013-04-20 11:03:00,73.8,42.1,29.80,NNW,338,10.1,10.1,32,0.00,,,0.00,VWS V14.01,2013-04-20 18:03:00,
2013-04-20 11:04:00,73.9,42.2,29.80,NNW,338,10.1,10.1,32,0.00,,,0.00,VWS V14.01,2013-04-20 18:04:00,
2013-04-20 11:05:00,73.9,42.2,29.79,NNW,338,10.1,10.1,32,0.00,,,0.00,VWS V14.01,2013-04-20 18:05:00,
2013-04-20 11:06:00,74.1,41.6,29.80,NNW,338,10.1,10.1,31,0.00,,,0.00,VWS V14.01,2013-04-20 18:06:00,
2013-04-20 11:07:00,74.1,41.6,29.80,North,0,8.7,8.7,31,0.00,,,0.00,VWS V14.01,2013-04-20 18:07:00,
2013-04-20 11:08:00,74.5,42.7,29.80,North,0,8.7,8.7,32,0.00,,,0.00,VWS V14.01,2013-04-20 18:08:00,
2013-04-20 11:09:00,74.5,42.7,29.80,North,0,8.7,8.7,32,0.00,,,0.00,VWS V14.01,2013-04-20 18:09:00,
2013-04-20 11:10:00,74.1,41.6,29.79,North,0,12.3,12.3,31,0.00,,,0.00,VWS V14.01,2013-04-20 18:10:00,
2013-04-20 11:11:00,74.1,41.6,29.80,North,0,7.4,7.4,31,0.00,,,0.00,VWS V14.01,2013-04-20 18:11:00,
2013-04-20 11:12:00,74.3,41.7,29.80,NNE,22,10.5,10.5,31,0.00,,,0.00,VWS V14.01,2013-04-20 18:12:00,
2013-04-20 11:13:00,74.7,42.9,29.80,NNE,22,10.5,10.5,32,0.00,,,0.00,VWS V14.01,2013-04-20 18:13:00,
2013-04-20 11:14:00,74.7,42.9,29.80,NNE,22,10.5,10.5,32,0.00,,,0.00,VWS V14.01,2013-04-20 18:14:00,
2013-04-20 11:15:00,75.0,42.4,29.79,NNW,338,10.1,10.1,31,0.00,,,0.00,VWS V14.01,2013-04-20 18:15:00,
2013-04-20 11:16:00,75.0,42.4,29.80,NNW,338,10.1,10.1,31,0.00,,,0.00,VWS V14.01,2013-04-20 18:16:00,
2013-04-20 11:17:00,75.2,42.5,29.80,NNW,338,9.0,9.0,31,0.00,,,0.00,VWS V14.01,2013-04-20 18:17:00,
2013-04-20 11:18:00,75.2,42.5,29.80,NNW,338,11.9,11.9,31,0.00,,,0.00,VWS V14.01,2013-04-20 18:18:00,
2013-04-20 11:19:00,75.2,42.5,29.80,NNW,338,11.9,11.9,31,0.00,,,0.00,VWS V14.01,2013-04-20 18:19:00,
2013-04-20 11:20:00,75.2,42.5,29.79,North,0,11.9,11.9,31,0.00,,,0.00,VWS V14.01,2013-04-20 18:20:00,
2013-04-20 11:21:00,75.2,42.5,29.80,North,0,9.6,9.6,31,0.00,,,0.00,VWS V14.01,2013-04-20 18:21:00,
2013-04-20 11:22:00,75.4,42.7,29.80,North,0,10.3,10.3,31,0.00,,,0.00,VWS V14.01,2013-04-20 18:22:00,
2013-04-20 11:23:00,75.4,42.7,29.80,NNW,338,10.3,10.3,31,0.00,,,0.00,VWS V14.01,2013-04-20 18:23:00,
2013-04-20 11:24:00,75.7,43.0,29.80,NNW,338,7.4,7.4,31,0.00,,,0.00,VWS V14.01,2013-04-20 18:24:00,
2013-04-20 11:25:00,75.6,42.8,29.79,NNW,338,13.2,13.2,31,0.00,,,0.00,VWS V14.01,2013-04-20 18:25:00,
2013-04-20 11:26:00,75.6,42.8,29.80,NNW,338,13.2,13.2,31,0.00,,,0.00,VWS V14.01,2013-04-20 18:26:00,
2013-04-20 11:27:00,75.6,42.0,29.80,North,0,12.8,12.8,30,0.00,,,0.00,VWS V14.01,2013-04-20 18:27:00,
2013-04-20 11:28:00,75.6,42.0,29.80,NNW,338,10.5,10.5,30,0.00,,,0.00,VWS V14.01,2013-04-20 18:28:00,
2013-04-20 11:29:00,75.7,42.1,29.80,NNW,338,11.0,11.0,30,0.00,,,0.00,VWS V14.01,2013-04-20 18:29:00,
2013-04-20 11:30:00,76.3,42.6,29.79,North,0,8.1,8.1,30,0.00,,,0.00,VWS V14.01,2013-04-20 18:30:00,
2013-04-20 11:31:00,76.3,42.6,29.80,North,0,8.1,8.1,30,0.00,,,0.00,VWS V14.01,2013-04-20 18:31:00,
2013-04-20 11:32:00,76.3,42.6,29.80,North,0,8.1,8.1,30,0.00,,,0.00,VWS V14.01,2013-04-20 18:32:00,
2013-04-20 11:33:00,76.5,42.8,29.80,NNW,338,9.8,9.8,30,0.00,,,0.00,VWS V14.01,2013-04-20 18:33:00,
2013-04-20 11:34:00,76.8,43.9,29.80,NNW,338,9.8,9.8,31,0.00,,,0.00,VWS V14.01,2013-04-20 18:34:00,
2013-04-20 11:35:00,76.8,43.9,29.79,NW,315,8.7,8.7,31,0.00,,,0.00,VWS V14.01,2013-04-20 18:35:00,
2013-04-20 11:36:00,76.8,43.1,29.80,NNW,338,8.7,8.7,30,0.00,,,0.00,VWS V14.01,2013-04-20 18:36:00,
2013-04-20 11:37:00,76.8,43.1,29.80,NW,315,11.0,11.0,30,0.00,,,0.00,VWS V14.01,2013-04-20 18:37:00,
2013-04-20 11:38:00,76.6,42.0,29.80,NNW,338,12.3,12.3,29,0.00,,,0.00,VWS V14.01,2013-04-20 18:38:00,
2013-04-20 11:39:00,76.6,42.0,29.80,NNW,338,10.3,10.3,29,0.00,,,0.00,VWS V14.01,2013-04-20 18:39:00,
2013-04-20 11:40:00,76.6,42.0,29.79,NNW,338,12.5,12.5,29,0.00,,,0.00,VWS V14.01,2013-04-20 18:40:00,
2013-04-20 11:41:00,76.6,42.0,29.80,NNW,338,12.5,12.5,29,0.00,,,0.00,VWS V14.01,2013-04-20 18:41:00,
2013-04-20 11:42:00,76.3,41.7,29.80,NW,315,11.0,11.0,29,0.00,,,0.00,VWS V14.01,2013-04-20 18:42:00,
2013-04-20 11:43:00,76.3,43.5,29.80,WNW,292,15.4,15.4,31,0.00,,,0.00,VWS V14.01,2013-04-20 18:43:00,
2013-04-20 11:44:00,76.3,43.5,29.80,West,270,9.8,9.8,31,0.00,,,0.00,VWS V14.01,2013-04-20 18:44:00,
2013-04-20 11:45:00,74.1,42.4,29.79,West,270,9.8,9.8,32,0.00,,,0.00,VWS V14.01,2013-04-20 18:45:00,
2013-04-20 11:46:00,74.1,42.4,29.80,West,270,9.8,9.8,32,0.00,,,0.00,VWS V14.01,2013-04-20 18:46:00,
2013-04-20 11:47:00,74.3,43.4,29.80,WSW,248,7.4,7.4,33,0.00,,,0.00,VWS V14.01,2013-04-20 18:47:00,
2013-04-20 11:48:00,74.3,43.4,29.80,WSW,248,7.4,7.4,33,0.00,,,0.00,VWS V14.01,2013-04-20 18:48:00,
2013-04-20 11:49:00,73.9,43.0,29.80,SSW,202,6.5,6.5,33,0.00,,,0.00,VWS V14.01,2013-04-20 18:49:00,
2013-04-20 11:50:00,74.1,43.2,29.79,SW,225,7.6,7.6,33,0.00,,,0.00,VWS V14.01,2013-04-20 18:50:00,
2013-04-20 11:51:00,74.1,43.2,29.80,SSW,202,4.7,4.7,33,0.00,,,0.00,VWS V14.01,2013-04-20 18:51:00,
2013-04-20 11:52:00,74.1,44.0,29.80,SW,225,10.3,10.3,34,0.00,,,0.00,VWS V14.01,2013-04-20 18:52:00,
2013-04-20 11:53:00,74.1,44.0,29.80,West,270,4.9,4.9,34,0.00,,,0.00,VWS V14.01,2013-04-20 18:53:00,
2013-04-20 11:54:00,74.3,43.4,29.80,WSW,248,0.0,0.0,33,0.00,,,0.00,VWS V14.01,2013-04-20 18:54:00,
2013-04-20 11:55:00,74.7,44.5,29.79,WNW,292,4.3,4.3,34,0.00,,,0.00,VWS V14.01,2013-04-20 18:55:00,
2013-04-20 11:56:00,74.7,44.5,29.80,WNW,292,4.3,4.3,34,0.00,,,0.00,VWS V14.01,2013-04-20 18:56:00,
2013-04-20 11:57:00,73.6,42.7,29.80,WNW,292,10.7,10.7,33,0.00,,,0.00,VWS V14.01,2013-04-20 18:57:00,
2013-04-20 11:58:00,73.6,42.7,29.80,West,270,6.0,6.0,33,0.00,,,0.00,VWS V14.01,2013-04-20 18:58:00,
2013-04-20 11:59:00,73.6,42.7,29.80,SSE,158,0.9,0.9,33,0.00,,,0.00,VWS V14.01,2013-04-20 18:59:00,
2013-04-20 12:00:00,74.3,44.1,29.79,SSW,202,5.6,5.6,34,0.00,,,0.00,VWS V14.01,2013-04-20 19:00:00,
2013-04-20 12:01:00,74.3,44.2,29.80,SSW,202,5.6,5.6,34,0.00,,,0.00,VWS V14.01,2013-04-20 19:01:00,
2013-04-20 12:02:00,74.3,44.2,29.80,SW,225,5.4,5.4,34,0.00,,,0.00,VWS V14.01,2013-04-20 19:02:00,
2013-04-20 12:03:00,74.5,44.3,29.80,West,270,3.1,3.1,34,0.00,,,0.00,VWS V14.01,2013-04-20 19:03:00,
2013-04-20 12:04:00,74.5,44.3,29.80,SW,225,11.9,11.9,34,0.00,,,0.00,VWS V14.01,2013-04-20 19:04:00,
2013-04-20 12:05:00,73.9,43.8,29.79,SSW,202,9.8,9.8,34,0.00,,,0.00,VWS V14.01,2013-04-20 19:05:00,
2013-04-20 12:06:00,73.8,44.4,29.80,SSW,202,9.8,9.8,35,0.00,,,0.00,VWS V14.01,2013-04-20 19:06:00,
2013-04-20 12:07:00,73.8,44.4,29.80,West,270,8.7,8.7,35,0.00,,,0.00,VWS V14.01,2013-04-20 19:07:00,
2013-04-20 12:08:00,72.5,44.1,29.80,West,270,8.7,8.7,36,0.00,,,0.00,VWS V14.01,2013-04-20 19:08:00,
2013-04-20 12:09:00,72.5,44.1,29.80,SW,225,10.7,10.7,36,0.00,,,0.00,VWS V14.01,2013-04-20 19:09:00,
2013-04-20 12:10:00,72.0,44.3,29.79,SSW,202,3.8,3.8,37,0.00,,,0.00,VWS V14.01,2013-04-20 19:10:00,
2013-04-20 12:11:00,72.0,44.3,29.80,SSW,202,3.8,3.8,37,0.00,,,0.00,VWS V14.01,2013-04-20 19:11:00,
2013-04-20 12:12:00,72.0,44.3,29.80,SSW,202,3.8,3.8,37,0.00,,,0.00,VWS V14.01,2013-04-20 19:12:00,
2013-04-20 12:13:00,71.4,44.5,29.80,NNW,338,7.6,7.6,38,0.00,,,0.00,VWS V14.01,2013-04-20 19:13:00,
2013-04-20 12:14:00,71.4,44.5,29.80,WSW,248,8.1,8.1,38,0.00,,,0.00,VWS V14.01,2013-04-20 19:14:00,
2013-04-20 12:15:00,70.7,44.5,29.79,WSW,248,6.0,6.0,39,0.00,,,0.00,VWS V14.01,2013-04-20 19:15:00,
2013-04-20 12:16:00,70.7,44.6,29.80,WSW,248,9.8,9.8,39,0.00,,,0.00,VWS V14.01,2013-04-20 19:16:00,
2013-04-20 12:17:00,70.5,44.4,29.80,WSW,248,11.4,11.4,39,0.00,,,0.00,VWS V14.01,2013-04-20 19:17:00,
2013-04-20 12:18:00,70.5,44.4,29.80,WSW,248,7.8,7.8,39,0.00,,,0.00,VWS V14.01,2013-04-20 19:18:00,
2013-04-20 12:19:00,70.2,44.7,29.80,SW,225,10.3,10.3,40,0.00,,,0.00,VWS V14.01,2013-04-20 19:19:00,
2013-04-20 12:20:00,70.0,44.6,29.79,SSW,202,10.5,10.5,40,0.00,,,0.00,VWS V14.01,2013-04-20 19:20:00,
2013-04-20 12:21:00,70.0,44.6,29.80,SSW,202,10.5,10.5,40,0.00,,,0.00,VWS V14.01,2013-04-20 19:21:00,
2013-04-20 12:22:00,69.8,45.1,29.80,SW,225,10.5,10.5,41,0.00,,,0.00,VWS V14.01,2013-04-20 19:22:00,
2013-04-20 12:23:00,69.8,45.1,29.80,SW,225,10.5,10.5,41,0.00,,,0.00,VWS V14.01,2013-04-20 19:23:00,
2013-04-20 12:24:00,69.8,45.1,29.80,SW,225,10.5,10.5,41,0.00,,,0.00,VWS V14.01,2013-04-20 19:24:00,
2013-04-20 12:25:00,69.8,45.1,29.79,SW,225,10.5,10.5,41,0.00,,,0.00,VWS V14.01,2013-04-20 19:25:00,
2013-04-20 12:26:00,69.8,45.1,29.80,WSW,248,13.0,13.0,41,0.00,,,0.00,VWS V14.01,2013-04-20 19:26:00,
2013-04-20 12:27:00,69.6,45.5,29.80,WSW,248,13.0,13.0,42,0.00,,,0.00,VWS V14.01,2013-04-20 19:27:00,
2013-04-20 12:28:00,69.6,45.5,29.80,SW,225,7.6,7.6,42,0.00,,,0.00,VWS V14.01,2013-04-20 19:28:00,
2013-04-20 12:29:00,69.4,45.4,29.80,SW,225,13.6,13.6,42,0.00,,,0.00,VWS V14.01,2013-04-20 19:29:00,
2013-04-20 12:30:00,69.6,45.5,29.79,SW,225,10.5,10.5,42,0.00,,,0.00,VWS V14.01,2013-04-20 19:30:00,
2013-04-20 12:31:00,69.6,45.5,29.80,SSW,202,13.4,13.4,42,0.00,,,0.00,VWS V14.01,2013-04-20 19:31:00,
2013-04-20 12:32:00,69.6,45.5,29.80,SSW,202,13.4,13.4,42,0.00,,,0.00,VWS V14.01,2013-04-20 19:32:00,
2013-04-20 12:33:00,69.6,45.5,29.80,SSW,202,10.7,10.7,42,0.00,,,0.00,VWS V14.01,2013-04-20 19:33:00,
2013-04-20 12:34:00,69.6,45.5,29.80,WSW,248,9.8,9.8,42,0.00,,,0.00,VWS V14.01,2013-04-20 19:34:00,
2013-04-20 12:35:00,69.1,45.0,29.79,SW,225,13.0,13.0,42,0.00,,,0.00,VWS V14.01,2013-04-20 19:35:00,
2013-04-20 12:36:00,69.1,45.7,29.80,SW,225,13.0,13.0,43,0.00,,,0.00,VWS V14.01,2013-04-20 19:36:00,
2013-04-20 12:37:00,69.1,45.7,29.80,WSW,248,10.3,10.3,43,0.00,,,0.00,VWS V14.01,2013-04-20 19:37:00,
2013-04-20 12:38:00,68.7,45.3,29.80,SW,225,10.3,10.3,43,0.00,,,0.00,VWS V14.01,2013-04-20 19:38:00,
2013-04-20 12:39:00,68.7,45.3,29.80,WSW,248,13.2,13.2,43,0.00,,,0.00,VWS V14.01,2013-04-20 19:39:00,
2013-04-20 12:40:00,68.2,44.9,29.79,SW,225,10.7,10.7,43,0.00,,,0.00,VWS V14.01,2013-04-20 19:40:00,
2013-04-20 12:41:00,68.2,44.9,29.80,WSW,248,13.2,13.2,43,0.00,,,0.00,VWS V14.01,2013-04-20 19:41:00,
2013-04-20 12:42:00,68.2,44.9,29.80,WSW,248,12.8,12.8,43,0.00,,,0.00,VWS V14.01,2013-04-20 19:42:00,
2013-04-20 12:43:00,68.0,44.7,29.80,WNW,292,11.9,11.9,43,0.00,,,0.00,VWS V14.01,2013-04-20 19:43:00,
2013-04-20 12:44:00,68.0,44.7,29.80,WSW,248,9.8,9.8,43,0.00,,,0.00,VWS V14.01,2013-04-20 19:44:00,
2013-04-20 12:45:00,67.8,44.5,29.79,SW,225,12.5,12.5,43,0.00,,,0.00,VWS V14.01,2013-04-20 19:45:00,
2013-04-20 12:46:00,67.8,44.5,29.80,SW,225,12.5,12.5,43,0.00,,,0.00,VWS V14.01,2013-04-20 19:46:00,
2013-04-20 12:47:00,67.8,44.5,29.80,WSW,248,13.0,13.0,43,0.00,,,0.00,VWS V14.01,2013-04-20 19:47:00,
2013-04-20 12:48:00,67.6,44.4,29.80,SSW,202,14.5,14.5,43,0.00,,,0.00,VWS V14.01,2013-04-20 19:48:00,
2013-04-20 12:49:00,67.6,44.4,29.80,West,270,12.5,12.5,43,0.00,,,0.00,VWS V14.01,2013-04-20 19:49:00,
2013-04-20 12:50:00,67.6,44.4,29.79,SSW,202,12.5,12.5,43,0.00,,,0.00,VWS V14.01,2013-04-20 19:50:00,
2013-04-20 12:51:00,67.6,45.0,29.80,SSW,202,12.5,12.5,44,0.00,,,0.00,VWS V14.01,2013-04-20 19:51:00,
2013-04-20 12:52:00,67.6,45.0,29.80,WSW,248,12.5,12.5,44,0.00,,,0.00,VWS V14.01,2013-04-20 19:52:00,
2013-04-20 12:53:00,67.5,44.8,29.80,WSW,248,10.5,10.5,44,0.00,,,0.00,VWS V14.01,2013-04-20 19:53:00,
2013-04-20 12:54:00,67.5,44.8,29.80,SSW,202,10.7,10.7,44,0.00,,,0.00,VWS V14.01,2013-04-20 19:54:00,
2013-04-20 12:55:00,67.6,45.0,29.79,SSW,202,10.7,10.7,44,0.00,,,0.00,VWS V14.01,2013-04-20 19:55:00,
2013-04-20 12:56:00,67.6,45.0,29.80,SSW,202,10.7,10.7,44,0.00,,,0.00,VWS V14.01,2013-04-20 19:56:00,
2013-04-20 12:57:00,67.6,45.0,29.80,WSW,248,12.8,12.8,44,0.00,,,0.00,VWS V14.01,2013-04-20 19:57:00,
2013-04-20 12:58:00,67.5,44.8,29.80,WSW,248,12.8,12.8,44,0.00,,,0.00,VWS V14.01,2013-04-20 19:58:00,
2013-04-20 12:59:00,67.5,44.8,29.80,SSW,202,13.4,13.4,44,0.00,,,0.00,VWS V14.01,2013-04-20 19:59:00,
2013-04-20 13:00:00,67.5,45.4,29.79,SW,225,16.8,16.8,45,0.00,,,0.00,VWS V14.01,2013-04-20 20:00:00,
2013-04-20 13:01:00,67.5,45.4,29.80,SW,225,16.8,16.8,45,0.00,,,0.00,VWS V14.01,2013-04-20 20:01:00,
2013-04-20 13:02:00,67.3,45.2,29.80,SW,225,10.5,10.5,45,0.00,,,0.00,VWS V14.01,2013-04-20 20:02:00,
2013-04-20 13:03:00,67.3,45.2,29.80,SW,225,12.5,12.5,45,0.00,,,0.00,VWS V14.01,2013-04-20 20:03:00,
2013-04-20 13:04:00,67.5,45.4,29.80,WSW,248,16.8,16.8,45,0.00,,,0.00,VWS V14.01,2013-04-20 20:04:00,
2013-04-20 13:05:00,67.5,46.0,29.79,WSW,248,16.8,16.8,46,0.00,,,0.00,VWS V14.01,2013-04-20 20:05:00,
2013-04-20 13:06:00,67.5,46.0,29.80,West,270,14.8,14.8,46,0.00,,,0.00,VWS V14.01,2013-04-20 20:06:00,
2013-04-20 13:07:00,66.9,45.5,29.80,West,270,12.5,12.5,46,0.00,,,0.00,VWS V14.01,2013-04-20 20:07:00,
2013-04-20 13:08:00,66.9,45.5,29.80,WSW,248,12.5,12.5,46,0.00,,,0.00,VWS V14.01,2013-04-20 20:08:00,
2013-04-20 13:09:00,66.6,45.2,29.80,SSW,202,12.3,12.3,46,0.00,,,0.00,VWS V14.01,2013-04-20 20:09:00,
2013-04-20 13:10:00,66.6,45.2,29.79,SSW,202,17.0,17.0,46,0.00,,,0.00,VWS V14.01,2013-04-20 20:10:00,
2013-04-20 13:11:00,66.6,45.2,29.80,WSW,248,14.8,14.8,46,0.00,,,0.00,VWS V14.01,2013-04-20 20:11:00,
2013-04-20 13:12:00,66.6,45.2,29.76,WSW,248,13.2,13.2,46,0.00,,,0.00,VWS V14.01,2013-04-20 20:12:00,
2013-04-20 13:13:00,66.4,45.6,29.76,WSW,248,12.5,12.5,47,0.00,,,0.00,VWS V14.01,2013-04-20 20:13:00,
2013-04-20 13:14:00,66.2,44.8,29.76,West,270,14.8,14.8,46,0.00,,,0.00,VWS V14.01,2013-04-20 20:14:00,
2013-04-20 13:15:00,66.0,45.2,29.76,SW,225,11.0,11.0,47,0.00,,,0.00,VWS V14.01,2013-04-20 20:15:00,
2013-04-20 13:16:00,66.0,45.2,29.76,SW,225,11.0,11.0,47,0.00,,,0.00,VWS V14.01,2013-04-20 20:16:00,
2013-04-20 13:17:00,66.0,45.2,29.76,WSW,248,11.9,11.9,47,0.00,,,0.00,VWS V14.01,2013-04-20 20:17:00,
2013-04-20 13:18:00,66.2,45.4,29.76,SW,225,7.6,7.6,47,0.00,,,0.00,VWS V14.01,2013-04-20 20:18:00,
2013-04-20 13:19:00,66.2,45.4,29.76,West,270,11.0,11.0,47,0.00,,,0.00,VWS V14.01,2013-04-20 20:19:00,
2013-04-20 13:20:00,66.2,45.4,29.76,SW,225,15.7,15.7,47,0.00,,,0.00,VWS V14.01,2013-04-20 20:20:00,
2013-04-20 13:21:00,66.0,45.2,29.76,SW,225,15.7,15.7,47,0.00,,,0.00,VWS V14.01,2013-04-20 20:21:00,
2013-04-20 13:22:00,66.0,45.2,29.76,West,270,10.7,10.7,47,0.00,,,0.00,VWS V14.01,2013-04-20 20:22:00,
2013-04-20 13:23:00,66.0,45.8,29.76,SW,225,6.7,6.7,48,0.00,,,0.00,VWS V14.01,2013-04-20 20:23:00,
2013-04-20 13:24:00,66.0,45.8,29.76,WNW,292,17.2,17.2,48,0.00,,,0.00,VWS V14.01,2013-04-20 20:24:00,
2013-04-20 13:25:00,66.2,45.4,29.76,WSW,248,14.1,14.1,47,0.00,,,0.00,VWS V14.01,2013-04-20 20:25:00,
2013-04-20 13:26:00,66.2,45.4,29.76,SSW,202,9.8,9.8,47,0.00,,,0.00,VWS V14.01,2013-04-20 20:26:00,
2013-04-20 13:27:00,66.2,45.4,29.76,SW,225,14.8,14.8,47,0.00,,,0.00,VWS V14.01,2013-04-20 20:27:00,
2013-04-20 13:29:00,66.2,45.4,29.76,SW,225,14.8,14.8,47,0.00,,,0.00,VWS V14.01,2013-04-20 20:29:00,
2013-04-20 13:30:00,65.5,45.8,29.79,SW,225,15.4,15.4,49,0.00,,,0.00,VWS V14.01,2013-04-20 20:30:00,
2013-04-20 13:31:00,65.5,45.8,29.80,West,270,19.0,19.0,49,0.00,,,0.00,VWS V14.01,2013-04-20 20:31:00,
2013-04-20 13:32:00,65.1,45.5,29.80,West,270,17.5,17.5,49,0.00,,,0.00,VWS V14.01,2013-04-20 20:32:00,
2013-04-20 13:33:00,65.1,45.5,29.80,WSW,248,13.2,13.2,49,0.00,,,0.00,VWS V14.01,2013-04-20 20:33:00,
2013-04-20 13:34:00,64.8,45.7,29.80,WSW,248,12.8,12.8,50,0.00,,,0.00,VWS V14.01,2013-04-20 20:34:00,
2013-04-20 13:35:00,64.6,46.1,29.79,WSW,248,13.6,13.6,51,0.00,,,0.00,VWS V14.01,2013-04-20 20:35:00,
2013-04-20 13:36:00,64.6,46.1,29.80,WSW,248,13.6,13.6,51,0.00,,,0.00,VWS V14.01,2013-04-20 20:36:00,
2013-04-20 13:37:00,64.8,46.2,29.80,SSW,202,15.2,15.2,51,0.00,,,0.00,VWS V14.01,2013-04-20 20:37:00,
2013-04-20 13:38:00,64.8,46.2,29.80,West,270,13.2,13.2,51,0.00,,,0.00,VWS V14.01,2013-04-20 20:38:00,
2013-04-20 13:39:00,64.8,46.2,29.80,WNW,292,12.1,12.1,51,0.00,,,0.00,VWS V14.01,2013-04-20 20:39:00,
2013-04-20 13:40:00,64.9,46.4,29.79,WNW,292,12.1,12.1,51,0.00,,,0.00,VWS V14.01,2013-04-20 20:40:00,
2013-04-20 13:41:00,64.9,46.4,29.80,WSW,248,11.4,11.4,51,0.00,,,0.00,VWS V14.01,2013-04-20 20:41:00,
2013-04-20 13:42:00,64.9,46.4,29.76,SW,225,17.0,17.0,51,0.00,,,0.00,VWS V14.01,2013-04-20 20:42:00,
2013-04-20 13:43:00,64.8,46.2,29.76,WSW,248,11.4,11.4,51,0.00,,,0.00,VWS V14.01,2013-04-20 20:43:00,
2013-04-20 13:44:00,64.8,46.2,29.76,West,270,16.1,16.1,51,0.00,,,0.00,VWS V14.01,2013-04-20 20:44:00,
2013-04-20 13:45:00,64.8,46.2,29.76,SW,225,16.3,16.3,51,0.00,,,0.00,VWS V14.01,2013-04-20 20:45:00,
2013-04-20 13:46:00,64.8,46.7,29.76,WNW,292,9.8,9.8,52,0.00,,,0.00,VWS V14.01,2013-04-20 20:46:00,
2013-04-20 13:47:00,64.8,46.7,29.76,SW,225,11.9,11.9,52,0.00,,,0.00,VWS V14.01,2013-04-20 20:47:00,
2013-04-20 13:48:00,64.9,46.4,29.76,SW,225,11.2,11.2,51,0.00,,,0.00,VWS V14.01,2013-04-20 20:48:00,
2013-04-20 13:49:00,64.9,46.4,29.76,WNW,292,8.7,8.7,51,0.00,,,0.00,VWS V14.01,2013-04-20 20:49:00,
2013-04-20 13:50:00,64.9,46.4,29.76,SW,225,17.5,17.5,51,0.00,,,0.00,VWS V14.01,2013-04-20 20:50:00,
2013-04-20 13:52:00,64.4,45.9,29.76,SW,225,17.5,17.5,51,0.00,,,0.00,VWS V14.01,2013-04-20 20:52:00,
2013-04-20 13:53:00,64.6,46.6,29.76,WSW,248,14.8,14.8,52,0.00,,,0.00,VWS V14.01,2013-04-20 20:53:00,
2013-04-20 13:54:00,64.6,46.6,29.76,SSW,202,12.3,12.3,52,0.00,,,0.00,VWS V14.01,2013-04-20 20:54:00,
2013-04-20 13:55:00,64.6,46.1,29.76,WSW,248,10.5,10.5,51,0.00,,,0.00,VWS V14.01,2013-04-20 20:55:00,
2013-04-20 13:56:00,64.6,46.1,29.76,West,270,17.0,17.0,51,0.00,,,0.00,VWS V14.01,2013-04-20 20:56:00,
2013-04-20 13:57:00,64.8,46.2,29.76,WSW,248,13.0,13.0,51,0.00,,,0.00,VWS V14.01,2013-04-20 20:57:00,
2013-04-20 13:58:00,64.6,46.6,29.76,SSW,202,10.5,10.5,52,0.00,,,0.00,VWS V14.01,2013-04-20 20:58:00,
2013-04-20 13:59:00,64.6,46.6,29.76,WSW,248,13.0,13.0,52,0.00,,,0.00,VWS V14.01,2013-04-20 20:59:00,
2013-04-20 14:00:00,64.4,46.4,29.76,WSW,248,15.4,15.4,52,0.00,,,0.00,VWS V14.01,2013-04-20 21:00:00,
2013-04-20 14:01:00,64.4,46.4,29.76,WSW,248,13.9,13.9,52,0.00,,,0.00,VWS V14.01,2013-04-20 21:01:00,
2013-04-20 14:02:00,64.0,46.6,29.76,WSW,248,15.4,15.4,53,0.00,,,0.00,VWS V14.01,2013-04-20 21:02:00,
2013-04-20 14:03:00,64.0,46.6,29.76,SW,225,15.7,15.7,53,0.00,,,0.00,VWS V14.01,2013-04-20 21:03:00,
2013-04-20 14:04:00,63.9,46.4,29.76,WSW,248,14.5,14.5,53,0.00,,,0.00,VWS V14.01,2013-04-20 21:04:00,
2013-04-20 14:05:00,63.9,46.4,29.76,WSW,248,22.6,22.6,53,0.00,,,0.00,VWS V14.01,2013-04-20 21:05:00,
2013-04-20 14:06:00,63.9,46.4,29.76,WSW,248,22.6,22.6,53,0.00,,,0.00,VWS V14.01,2013-04-20 21:06:00,
2013-04-20 14:07:00,63.9,46.4,29.76,SW,225,12.8,12.8,53,0.00,,,0.00,VWS V14.01,2013-04-20 21:07:00,
2013-04-20 14:08:00,63.9,46.4,29.76,WSW,248,15.2,15.2,53,0.00,,,0.00,VWS V14.01,2013-04-20 21:08:00,
2013-04-20 14:09:00,63.9,46.4,29.76,WSW,248,14.3,14.3,53,0.00,,,0.00,VWS V14.01,2013-04-20 21:09:00,
2013-04-20 14:10:00,64.0,47.1,29.76,WSW,248,9.6,9.6,54,0.00,,,0.00,VWS V14.01,2013-04-20 21:10:00,
2013-04-20 14:11:00,64.0,47.1,29.76,WSW,248,10.7,10.7,54,0.00,,,0.00,VWS V14.01,2013-04-20 21:11:00,
2013-04-20 14:12:00,64.0,47.1,29.76,WSW,248,11.0,11.0,54,0.00,,,0.00,VWS V14.01,2013-04-20 21:12:00,
2013-04-20 14:13:00,63.9,46.9,29.76,WSW,248,11.9,11.9,54,0.00,,,0.00,VWS V14.01,2013-04-20 21:13:00,
2013-04-20 14:14:00,63.9,46.9,29.76,WSW,248,12.5,12.5,54,0.00,,,0.00,VWS V14.01,2013-04-20 21:14:00,
2013-04-20 14:15:00,63.9,46.9,29.76,WSW,248,13.0,13.0,54,0.00,,,0.00,VWS V14.01,2013-04-20 21:15:00,
2013-04-20 14:16:00,63.9,46.9,29.76,WSW,248,13.0,13.0,54,0.00,,,0.00,VWS V14.01,2013-04-20 21:16:00,
2013-04-20 14:17:00,63.9,46.9,29.76,SSW,202,16.3,16.3,54,0.00,,,0.00,VWS V14.01,2013-04-20 21:17:00,
2013-04-20 14:18:00,63.9,46.9,29.76,SW,225,16.1,16.1,54,0.00,,,0.00,VWS V14.01,2013-04-20 21:18:00,
2013-04-20 14:19:00,63.9,46.9,29.76,SW,225,19.2,19.2,54,0.00,,,0.00,VWS V14.01,2013-04-20 21:19:00,
2013-04-20 14:20:00,63.7,46.7,29.76,WSW,248,11.4,11.4,54,0.00,,,0.00,VWS V14.01,2013-04-20 21:20:00,
2013-04-20 14:21:00,63.7,46.7,29.76,WSW,248,22.8,22.8,54,0.00,,,0.00,VWS V14.01,2013-04-20 21:21:00,
2013-04-20 14:22:00,63.7,46.7,29.76,WSW,248,12.5,12.5,54,0.00,,,0.00,VWS V14.01,2013-04-20 21:22:00,
2013-04-20 14:23:00,63.5,46.6,29.76,WSW,248,13.4,13.4,54,0.00,,,0.00,VWS V14.01,2013-04-20 21:23:00,
2013-04-20 14:24:00,63.5,46.6,29.76,SSW,202,13.0,13.0,54,0.00,,,0.00,VWS V14.01,2013-04-20 21:24:00,
2013-04-20 14:25:00,63.5,46.6,29.76,SSW,202,17.2,17.2,54,0.00,,,0.00,VWS V14.01,2013-04-20 21:25:00,
2013-04-20 14:26:00,63.5,46.6,29.76,SW,225,14.8,14.8,54,0.00,,,0.00,VWS V14.01,2013-04-20 21:26:00,
2013-04-20 14:27:00,63.9,46.9,29.76,SSW,202,20.1,20.1,54,0.00,,,0.00,VWS V14.01,2013-04-20 21:27:00,
2013-04-20 14:28:00,63.9,46.9,29.76,WSW,248,11.0,11.0,54,0.00,,,0.00,VWS V14.01,2013-04-20 21:28:00,
2013-04-20 14:29:00,63.7,46.7,29.76,WSW,248,17.0,17.0,54,0.00,,,0.00,VWS V14.01,2013-04-20 21:29:00,
2013-04-20 14:30:00,63.5,46.6,29.76,WSW,248,14.8,14.8,54,0.00,,,0.00,VWS V14.01,2013-04-20 21:30:00,
2013-04-20 14:31:00,63.5,46.6,29.76,WSW,248,14.8,14.8,54,0.00,,,0.00,VWS V14.01,2013-04-20 21:31:00,
2013-04-20 14:32:00,63.3,46.4,29.76,SSW,202,12.3,12.3,54,0.00,,,0.00,VWS V14.01,2013-04-20 21:32:00,
2013-04-20 14:33:00,63.3,46.4,29.76,WSW,248,14.1,14.1,54,0.00,,,0.00,VWS V14.01,2013-04-20 21:33:00,
2013-04-20 14:34:00,63.5,46.6,29.76,WSW,248,14.1,14.1,54,0.00,,,0.00,VWS V14.01,2013-04-20 21:34:00,
2013-04-20 14:35:00,63.5,46.6,29.76,SW,225,7.8,7.8,54,0.00,,,0.00,VWS V14.01,2013-04-20 21:35:00,
2013-04-20 14:36:00,63.5,46.6,29.76,SW,225,15.2,15.2,54,0.00,,,0.00,VWS V14.01,2013-04-20 21:36:00,
2013-04-20 14:37:00,63.9,46.9,29.76,SSW,202,19.7,19.7,54,0.00,,,0.00,VWS V14.01,2013-04-20 21:37:00,
2013-04-20 14:38:00,63.9,46.9,29.76,WSW,248,17.5,17.5,54,0.00,,,0.00,VWS V14.01,2013-04-20 21:38:00,
2013-04-20 14:39:00,63.9,46.4,29.76,WSW,248,20.4,20.4,53,0.00,,,0.00,VWS V14.01,2013-04-20 21:39:00,
2013-04-20 14:40:00,63.3,45.9,29.76,WSW,248,19.7,19.7,53,0.00,,,0.00,VWS V14.01,2013-04-20 21:40:00,
2013-04-20 14:41:00,63.3,45.9,29.76,WSW,248,14.8,14.8,53,0.00,,,0.00,VWS V14.01,2013-04-20 21:41:00,
2013-04-20 14:42:00,63.3,45.9,29.76,WSW,248,15.4,15.4,53,0.00,,,0.00,VWS V14.01,2013-04-20 21:42:00,
2013-04-20 14:43:00,63.9,46.9,29.76,SW,225,11.0,11.0,54,0.00,,,0.00,VWS V14.01,2013-04-20 21:43:00,
2013-04-20 14:44:00,64.0,46.6,29.76,WSW,248,17.2,17.2,53,0.00,,,0.00,VWS V14.01,2013-04-20 21:44:00,
2013-04-20 14:45:00,64.0,46.6,29.76,WSW,248,12.5,12.5,53,0.00,,,0.00,VWS V14.01,2013-04-20 21:45:00,
2013-04-20 14:46:00,63.7,46.2,29.76,WSW,248,12.5,12.5,53,0.00,,,0.00,VWS V14.01,2013-04-20 21:46:00,
2013-04-20 14:47:00,63.7,46.2,29.76,SW,225,13.0,13.0,53,0.00,,,0.00,VWS V14.01,2013-04-20 21:47:00,
2013-04-20 14:48:00,63.7,46.2,29.76,WSW,248,10.7,10.7,53,0.00,,,0.00,VWS V14.01,2013-04-20 21:48:00,
2013-04-20 14:49:00,63.7,46.2,29.76,SW,225,13.9,13.9,53,0.00,,,0.00,VWS V14.01,2013-04-20 21:49:00,
2013-04-20 14:50:00,64.0,46.6,29.76,WSW,248,14.3,14.3,53,0.00,,,0.00,VWS V14.01,2013-04-20 21:50:00,
2013-04-20 14:51:00,63.9,46.4,29.76,SW,225,17.7,17.7,53,0.00,,,0.00,VWS V14.01,2013-04-20 21:51:00,
2013-04-20 14:52:00,63.9,46.4,29.76,South,180,17.7,17.7,53,0.00,,,0.00,VWS V14.01,2013-04-20 21:52:00,
2013-04-20 14:53:00,63.5,46.1,29.76,South,180,17.7,17.7,53,0.00,,,0.00,VWS V14.01,2013-04-20 21:53:00,
2013-04-20 14:54:00,63.5,46.1,29.76,South,180,17.7,17.7,53,0.00,,,0.00,VWS V14.01,2013-04-20 21:54:00,
2013-04-20 14:55:00,63.5,46.6,29.76,WSW,248,13.2,13.2,54,0.00,,,0.00,VWS V14.01,2013-04-20 21:55:00,
2013-04-20 14:56:00,63.5,46.6,29.76,WSW,248,13.2,13.2,54,0.00,,,0.00,VWS V14.01,2013-04-20 21:56:00,
2013-04-20 14:57:00,63.9,46.4,29.76,WSW,248,15.2,15.2,53,0.00,,,0.00,VWS V14.01,2013-04-20 21:57:00,
2013-04-20 14:58:00,63.9,46.4,29.76,WSW,248,19.0,19.0,53,0.00,,,0.00,VWS V14.01,2013-04-20 21:58:00,
2013-04-20 14:59:00,63.9,46.4,29.76,WSW,248,15.2,15.2,53,0.00,,,0.00,VWS V14.01,2013-04-20 21:59:00,
2013-04-20 15:00:00,63.9,46.4,29.76,WSW,248,14.1,14.1,53,0.00,,,0.00,VWS V14.01,2013-04-20 22:00:00,
2013-04-20 15:01:00,63.9,46.4,29.76,WSW,248,14.1,14.1,53,0.00,,,0.00,VWS V14.01,2013-04-20 22:01:00,
2013-04-20 15:02:00,63.9,46.9,29.76,SSW,202,17.2,17.2,54,0.00,,,0.00,VWS V14.01,2013-04-20 22:02:00,
2013-04-20 15:03:00,63.9,46.9,29.76,SSW,202,14.8,14.8,54,0.00,,,0.00,VWS V14.01,2013-04-20 22:03:00,
2013-04-20 15:04:00,63.7,46.7,29.76,WSW,248,15.9,15.9,54,0.00,,,0.00,VWS V14.01,2013-04-20 22:04:00,
2013-04-20 15:05:00,63.5,46.6,29.76,SW,225,12.8,12.8,54,0.00,,,0.00,VWS V14.01,2013-04-20 22:05:00,
2013-04-20 15:06:00,63.5,46.6,29.76,West,270,14.8,14.8,54,0.00,,,0.00,VWS V14.01,2013-04-20 22:06:00,
2013-04-20 15:07:00,63.7,46.7,29.76,WNW,292,10.1,10.1,54,0.00,,,0.00,VWS V14.01,2013-04-20 22:07:00,
2013-04-20 15:08:00,63.7,46.7,29.76,SSW,202,13.2,13.2,54,0.00,,,0.00,VWS V14.01,2013-04-20 22:08:00,
2013-04-20 15:09:00,63.9,46.4,29.76,WSW,248,15.2,15.2,53,0.00,,,0.00,VWS V14.01,2013-04-20 22:09:00,
2013-04-20 15:10:00,64.0,46.6,29.76,SW,225,17.7,17.7,53,0.00,,,0.00,VWS V14.01,2013-04-20 22:10:00,
2013-04-20 15:11:00,64.0,46.6,29.76,SW,225,17.7,17.7,53,0.00,,,0.00,VWS V14.01,2013-04-20 22:11:00,
2013-04-20 15:13:00,63.9,46.4,29.76,West,270,15.2,15.2,53,0.00,,,0.00,VWS V14.01,2013-04-20 22:13:00,
2013-04-20 15:14:00,63.9,46.4,29.76,WSW,248,16.1,16.1,53,0.00,,,0.00,VWS V14.01,2013-04-20 22:14:00,
2013-04-20 15:15:00,63.9,46.4,29.76,SW,225,19.5,19.5,53,0.00,,,0.00,VWS V14.01,2013-04-20 22:15:00,
2013-04-20 15:16:00,63.9,46.4,29.76,SW,225,19.5,19.5,53,0.00,,,0.00,VWS V14.01,2013-04-20 22:16:00,
2013-04-20 15:17:00,63.9,46.4,29.76,SSW,202,11.9,11.9,53,0.00,,,0.00,VWS V14.01,2013-04-20 22:17:00,
2013-04-20 15:18:00,63.9,46.4,29.76,WSW,248,13.9,13.9,53,0.00,,,0.00,VWS V14.01,2013-04-20 22:18:00,
2013-04-20 15:19:00,63.9,46.4,29.76,WSW,248,17.0,17.0,53,0.00,,,0.00,VWS V14.01,2013-04-20 22:19:00,
2013-04-20 15:20:00,64.0,46.6,29.76,SW,225,12.8,12.8,53,0.00,,,0.00,VWS V14.01,2013-04-20 22:20:00,
2013-04-20 15:21:00,64.0,46.6,29.76,South,180,15.9,15.9,53,0.00,,,0.00,VWS V14.01,2013-04-20 22:21:00,
2013-04-20 15:22:00,64.4,46.4,29.76,WSW,248,11.4,11.4,52,0.00,,,0.00,VWS V14.01,2013-04-20 22:22:00,
2013-04-20 15:23:00,64.2,46.2,29.76,WSW,248,14.3,14.3,52,0.00,,,0.00,VWS V14.01,2013-04-20 22:23:00,
2013-04-20 15:24:00,64.2,46.2,29.76,WSW,248,12.8,12.8,52,0.00,,,0.00,VWS V14.01,2013-04-20 22:24:00,
2013-04-20 15:25:00,64.4,46.4,29.76,SW,225,15.4,15.4,52,0.00,,,0.00,VWS V14.01,2013-04-20 22:25:00,
2013-04-20 15:26:00,64.4,46.4,29.76,SSW,202,15.4,15.4,52,0.00,,,0.00,VWS V14.01,2013-04-20 22:26:00,
2013-04-20 15:27:00,64.2,46.8,29.74,SW,225,13.2,13.2,53,0.00,,,0.00,VWS V14.01,2013-04-20 22:27:00,
2013-04-20 15:28:00,64.2,46.8,29.74,SSW,202,17.7,17.7,53,0.00,,,0.00,VWS V14.01,2013-04-20 22:28:00,
2013-04-20 15:29:00,64.2,46.2,29.74,WSW,248,16.6,16.6,52,0.00,,,0.00,VWS V14.01,2013-04-20 22:29:00,
2013-04-20 15:30:00,64.2,46.2,29.74,WSW,248,16.6,16.6,52,0.00,,,0.00,VWS V14.01,2013-04-20 22:30:00,
2013-04-20 15:31:00,64.2,46.2,29.74,SW,225,16.3,16.3,52,0.00,,,0.00,VWS V14.01,2013-04-20 22:31:00,
2013-04-20 15:32:00,63.7,46.2,29.74,SW,225,18.6,18.6,53,0.00,,,0.00,VWS V14.01,2013-04-20 22:32:00,
2013-04-20 15:33:00,63.7,46.2,29.74,SW,225,19.7,19.7,53,0.00,,,0.00,VWS V14.01,2013-04-20 22:33:00,
2013-04-20 15:34:00,63.7,46.2,29.74,SW,225,13.2,13.2,53,0.00,,,0.00,VWS V14.01,2013-04-20 22:34:00,
2013-04-20 15:35:00,63.5,46.1,29.74,SSW,202,7.6,7.6,53,0.00,,,0.00,VWS V14.01,2013-04-20 22:35:00,
2013-04-20 15:36:00,63.5,46.1,29.74,SSW,202,7.6,7.6,53,0.00,,,0.00,VWS V14.01,2013-04-20 22:36:00,
2013-04-20 15:37:00,63.7,46.2,29.74,WSW,248,14.8,14.8,53,0.00,,,0.00,VWS V14.01,2013-04-20 22:37:00,
2013-04-20 15:38:00,63.7,46.2,29.74,SW,225,19.0,19.0,53,0.00,,,0.00,VWS V14.01,2013-04-20 22:38:00,
2013-04-20 15:39:00,63.7,46.2,29.74,SW,225,19.0,19.0,53,0.00,,,0.00,VWS V14.01,2013-04-20 22:39:00,
2013-04-20 15:40:00,63.7,46.2,29.74,WNW,292,15.2,15.2,53,0.00,,,0.00,VWS V14.01,2013-04-20 22:40:00,
2013-04-20 15:41:00,63.7,46.7,29.74,WSW,248,13.4,13.4,54,0.00,,,0.00,VWS V14.01,2013-04-20 22:41:00,
2013-04-20 15:42:00,63.7,46.7,29.74,WSW,248,19.9,19.9,54,0.00,,,0.00,VWS V14.01,2013-04-20 22:42:00,
2013-04-20 15:43:00,63.5,46.6,29.74,WSW,248,17.7,17.7,54,0.00,,,0.00,VWS V14.01,2013-04-20 22:43:00,
2013-04-20 15:44:00,63.5,46.6,29.74,SW,225,11.2,11.2,54,0.00,,,0.00,VWS V14.01,2013-04-20 22:44:00,
2013-04-20 15:45:00,63.5,46.6,29.74,SSW,202,17.7,17.7,54,0.00,,,0.00,VWS V14.01,2013-04-20 22:45:00,
2013-04-20 15:46:00,63.5,46.6,29.74,SW,225,13.4,13.4,54,0.00,,,0.00,VWS V14.01,2013-04-20 22:46:00,
2013-04-20 15:47:00,63.5,46.6,29.74,SSW,202,13.0,13.0,54,0.00,,,0.00,VWS V14.01,2013-04-20 22:47:00,
2013-04-20 15:48:00,63.5,46.6,29.74,SSW,202,19.5,19.5,54,0.00,,,0.00,VWS V14.01,2013-04-20 22:48:00,
2013-04-20 15:50:00,63.5,46.6,29.74,WSW,248,15.9,15.9,54,0.00,,,0.00,VWS V14.01,2013-04-20 22:50:00,
2013-04-20 15:51:00,63.5,46.6,29.74,WSW,248,15.9,15.9,54,0.00,,,0.00,VWS V14.01,2013-04-20 22:51:00,
2013-04-20 15:52:00,63.3,46.4,29.74,SW,225,19.0,19.0,54,0.00,,,0.00,VWS V14.01,2013-04-20 22:52:00,
2013-04-20 15:53:00,63.0,46.1,29.74,WSW,248,16.1,16.1,54,0.00,,,0.00,VWS V14.01,2013-04-20 22:53:00,
2013-04-20 15:54:00,63.0,46.1,29.74,SW,225,13.2,13.2,54,0.00,,,0.00,VWS V14.01,2013-04-20 22:54:00,
2013-04-20 15:55:00,63.0,46.6,29.74,WSW,248,12.3,12.3,55,0.00,,,0.00,VWS V14.01,2013-04-20 22:55:00,
2013-04-20 15:56:00,63.0,46.6,29.74,WSW,248,11.9,11.9,55,0.00,,,0.00,VWS V14.01,2013-04-20 22:56:00,
2013-04-20 15:57:00,63.0,46.1,29.74,WSW,248,11.9,11.9,54,0.00,,,0.00,VWS V14.01,2013-04-20 22:57:00,
2013-04-20 15:58:00,63.0,46.1,29.74,SW,225,15.4,15.4,54,0.00,,,0.00,VWS V14.01,2013-04-20 22:58:00,
2013-04-20 15:59:00,63.0,46.6,29.74,WSW,248,10.7,10.7,55,0.00,,,0.00,VWS V14.01,2013-04-20 22:59:00,
2013-04-20 16:00:00,63.1,46.7,29.74,SSW,202,15.7,15.7,55,0.00,,,0.00,VWS V14.01,2013-04-20 23:00:00,
2013-04-20 16:01:00,63.1,46.7,29.74,WSW,248,23.0,23.0,55,0.00,,,0.00,VWS V14.01,2013-04-20 23:01:00,
2013-04-20 16:02:00,63.0,46.1,29.74,SW,225,17.0,17.0,54,0.00,,,0.00,VWS V14.01,2013-04-20 23:02:00,
2013-04-20 16:03:00,63.0,46.1,29.74,SW,225,14.8,14.8,54,0.00,,,0.00,VWS V14.01,2013-04-20 23:03:00,
2013-04-20 16:04:00,63.0,46.1,29.74,WSW,248,17.0,17.0,54,0.00,,,0.00,VWS V14.01,2013-04-20 23:04:00,
2013-04-20 16:05:00,63.0,46.1,29.74,SW,225,17.7,17.7,54,0.00,,,0.00,VWS V14.01,2013-04-20 23:05:00,
2013-04-20 16:06:00,63.0,46.1,29.74,WSW,248,19.7,19.7,54,0.00,,,0.00,VWS V14.01,2013-04-20 23:06:00,
2013-04-20 16:07:00,63.0,46.1,29.74,WSW,248,14.3,14.3,54,0.00,,,0.00,VWS V14.01,2013-04-20 23:07:00,
2013-04-20 16:08:00,63.0,46.1,29.74,WSW,248,16.8,16.8,54,0.00,,,0.00,VWS V14.01,2013-04-20 23:08:00,
2013-04-20 16:09:00,63.0,46.1,29.74,West,270,15.4,15.4,54,0.00,,,0.00,VWS V14.01,2013-04-20 23:09:00,
2013-04-20 16:10:00,63.0,46.1,29.74,WSW,248,17.5,17.5,54,0.00,,,0.00,VWS V14.01,2013-04-20 23:10:00,
2013-04-20 16:11:00,62.8,45.9,29.74,SW,225,19.7,19.7,54,0.00,,,0.00,VWS V14.01,2013-04-20 23:11:00,
2013-04-20 16:12:00,62.8,45.9,29.74,WSW,248,10.3,10.3,54,0.00,,,0.00,VWS V14.01,2013-04-20 23:12:00,
2013-04-20 16:13:00,62.8,45.9,29.74,WSW,248,17.5,17.5,54,0.00,,,0.00,VWS V14.01,2013-04-20 23:13:00,
2013-04-20 16:14:00,62.8,45.9,29.74,West,270,10.5,10.5,54,0.00,,,0.00,VWS V14.01,2013-04-20 23:14:00,
2013-04-20 16:15:00,63.0,46.6,29.74,WSW,248,17.2,17.2,55,0.00,,,0.00,VWS V14.01,2013-04-20 23:15:00,
2013-04-20 16:16:00,62.8,45.9,29.74,SW,225,17.7,17.7,54,0.00,,,0.00,VWS V14.01,2013-04-20 23:16:00,
2013-04-20 16:17:00,62.8,45.9,29.74,SW,225,17.2,17.2,54,0.00,,,0.00,VWS V14.01,2013-04-20 23:17:00,
2013-04-20 16:18:00,62.6,46.2,29.74,WSW,248,19.7,19.7,55,0.00,,,0.00,VWS V14.01,2013-04-20 23:18:00,
2013-04-20 16:19:00,62.6,46.2,29.74,WSW,248,17.0,17.0,55,0.00,,,0.00,VWS V14.01,2013-04-20 23:19:00,
2013-04-20 16:20:00,62.6,46.2,29.74,SW,225,17.0,17.0,55,0.00,,,0.00,VWS V14.01,2013-04-20 23:20:00,
2013-04-20 16:21:00,62.6,46.2,29.74,WSW,248,15.7,15.7,55,0.00,,,0.00,VWS V14.01,2013-04-20 23:21:00,
2013-04-20 16:22:00,62.6,46.2,29.74,WSW,248,17.7,17.7,55,0.00,,,0.00,VWS V14.01,2013-04-20 23:22:00,
2013-04-20 16:23:00,62.4,46.5,29.74,WSW,248,17.7,17.7,56,0.00,,,0.00,VWS V14.01,2013-04-20 23:23:00,
2013-04-20 16:24:00,62.4,46.5,29.74,SSW,202,17.0,17.0,56,0.00,,,0.00,VWS V14.01,2013-04-20 23:24:00,
2013-04-20 16:25:00,62.6,46.7,29.74,WSW,248,16.1,16.1,56,0.00,,,0.00,VWS V14.01,2013-04-20 23:25:00,
2013-04-20 16:26:00,62.6,46.7,29.74,SSW,202,16.1,16.1,56,0.00,,,0.00,VWS V14.01,2013-04-20 23:26:00,
2013-04-20 16:27:00,62.2,46.4,29.74,SSW,202,12.5,12.5,56,0.00,,,0.00,VWS V14.01,2013-04-20 23:27:00,
2013-04-20 16:28:00,62.2,46.4,29.74,WSW,248,17.5,17.5,56,0.00,,,0.00,VWS V14.01,2013-04-20 23:28:00,
2013-04-20 16:29:00,62.2,46.4,29.74,West,270,11.9,11.9,56,0.00,,,0.00,VWS V14.01,2013-04-20 23:29:00,
2013-04-20 16:30:00,62.2,46.4,29.74,WSW,248,14.5,14.5,56,0.00,,,0.00,VWS V14.01,2013-04-20 23:30:00,
2013-04-20 16:31:00,62.2,46.4,29.74,WSW,248,14.5,14.5,56,0.00,,,0.00,VWS V14.01,2013-04-20 23:31:00,
2013-04-20 16:32:00,62.1,46.7,29.74,SW,225,15.2,15.2,57,0.00,,,0.00,VWS V14.01,2013-04-20 23:32:00,
2013-04-20 16:33:00,62.1,46.7,29.74,West,270,19.2,19.2,57,0.00,,,0.00,VWS V14.01,2013-04-20 23:33:00,
2013-04-20 16:34:00,62.2,46.8,29.74,WSW,248,17.5,17.5,57,0.00,,,0.00,VWS V14.01,2013-04-20 23:34:00,
2013-04-20 16:35:00,62.1,46.7,29.74,SSW,202,17.5,17.5,57,0.00,,,0.00,VWS V14.01,2013-04-20 23:35:00,
2013-04-20 16:36:00,62.1,46.7,29.74,SW,225,17.5,17.5,57,0.00,,,0.00,VWS V14.01,2013-04-20 23:36:00,
2013-04-20 16:37:00,61.9,46.5,29.74,WSW,248,15.4,15.4,57,0.00,,,0.00,VWS V14.01,2013-04-20 23:37:00,
2013-04-20 16:38:00,61.9,46.5,29.74,WSW,248,17.0,17.0,57,0.00,,,0.00,VWS V14.01,2013-04-20 23:38:00,
2013-04-20 16:39:00,61.7,46.8,29.74,SSW,202,15.7,15.7,58,0.00,,,0.00,VWS V14.01,2013-04-20 23:39:00,
2013-04-20 16:40:00,61.7,46.8,29.74,South,180,15.7,15.7,58,0.00,,,0.00,VWS V14.01,2013-04-20 23:40:00,
2013-04-20 16:41:00,61.9,47.0,29.74,SSW,202,17.5,17.5,58,0.00,,,0.00,VWS V14.01,2013-04-20 23:41:00,
2013-04-20 16:42:00,61.9,47.0,29.71,WNW,292,15.7,15.7,58,0.00,,,0.00,VWS V14.01,2013-04-20 23:42:00,
2013-04-20 16:43:00,61.5,46.6,29.71,WSW,248,13.0,13.0,58,0.00,,,0.00,VWS V14.01,2013-04-20 23:43:00,
2013-04-20 16:44:00,61.5,46.6,29.71,WNW,292,12.1,12.1,58,0.00,,,0.00,VWS V14.01,2013-04-20 23:44:00,
2013-04-20 16:45:00,61.5,46.6,29.71,WSW,248,19.0,19.0,58,0.00,,,0.00,VWS V14.01,2013-04-20 23:45:00,
2013-04-20 16:46:00,61.3,46.9,29.71,WSW,248,19.0,19.0,59,0.00,,,0.00,VWS V14.01,2013-04-20 23:46:00,
2013-04-20 16:47:00,61.3,46.9,29.71,WSW,248,16.6,16.6,59,0.00,,,0.00,VWS V14.01,2013-04-20 23:47:00,
2013-04-20 16:48:00,61.3,46.9,29.71,SSW,202,19.7,19.7,59,0.00,,,0.00,VWS V14.01,2013-04-20 23:48:00,
2013-04-20 16:49:00,61.3,46.9,29.71,WSW,248,14.8,14.8,59,0.00,,,0.00,VWS V14.01,2013-04-20 23:49:00,
2013-04-20 16:50:00,61.0,46.6,29.71,WSW,248,14.3,14.3,59,0.00,,,0.00,VWS V14.01,2013-04-20 23:50:00,
2013-04-20 16:51:00,61.0,46.6,29.71,WNW,292,21.9,21.9,59,0.00,,,0.00,VWS V14.01,2013-04-20 23:51:00,
2013-04-20 16:52:00,60.8,46.8,29.71,WSW,248,15.4,15.4,60,0.00,,,0.00,VWS V14.01,2013-04-20 23:52:00,
2013-04-20 16:53:00,60.8,46.8,29.71,WSW,248,13.6,13.6,60,0.00,,,0.00,VWS V14.01,2013-04-20 23:53:00,
2013-04-20 16:54:00,60.8,46.8,29.71,WSW,248,13.6,13.6,60,0.00,,,0.00,VWS V14.01,2013-04-20 23:54:00,
2013-04-20 16:55:00,60.8,46.8,29.71,West,270,17.7,17.7,60,0.00,,,0.00,VWS V14.01,2013-04-20 23:55:00,
2013-04-20 16:56:00,60.8,46.8,29.71,West,270,17.7,17.7,60,0.00,,,0.00,VWS V14.01,2013-04-20 23:56:00,
2013-04-20 16:57:00,60.8,46.8,29.71,WSW,248,15.4,15.4,60,0.00,,,0.00,VWS V14.01,2013-04-20 23:57:00,
2013-04-20 16:58:00,60.8,46.8,29.74,WSW,248,13.2,13.2,60,0.00,,,0.00,VWS V14.01,2013-04-20 23:58:00,
2013-04-20 16:59:00,60.8,46.8,29.74,WSW,248,19.0,19.0,60,0.00,,,0.00,VWS V14.01,2013-04-20 23:59:00,
2013-04-20 17:00:00,60.6,47.1,29.74,SW,225,17.5,17.5,61,0.00,,,0.00,VWS V14.01,2013-04-21 00:00:00,
2013-04-20 17:01:00,60.6,47.1,29.74,SW,225,17.5,17.5,61,0.00,,,0.00,VWS V14.01,2013-04-21 00:01:00,
2013-04-20 17:02:00,60.4,46.9,29.74,WSW,248,15.4,15.4,61,0.00,,,0.00,VWS V14.01,2013-04-21 00:02:00,
2013-04-20 17:03:00,60.4,46.9,29.74,WSW,248,23.7,23.7,61,0.00,,,0.00,VWS V14.01,2013-04-21 00:03:00,
2013-04-20 17:04:00,60.1,47.0,29.74,WSW,248,18.6,18.6,62,0.00,,,0.00,VWS V14.01,2013-04-21 00:04:00,
2013-04-20 17:05:00,60.1,47.0,29.74,WSW,248,12.3,12.3,62,0.00,,,0.00,VWS V14.01,2013-04-21 00:05:00,
2013-04-20 17:06:00,60.1,47.0,29.74,WSW,248,13.2,13.2,62,0.00,,,0.00,VWS V14.01,2013-04-21 00:06:00,
2013-04-20 17:07:00,60.1,47.0,29.74,SSW,202,17.2,17.2,62,0.00,,,0.00,VWS V14.01,2013-04-21 00:07:00,
2013-04-20 17:08:00,60.1,47.0,29.74,WSW,248,10.7,10.7,62,0.00,,,0.00,VWS V14.01,2013-04-21 00:08:00,
2013-04-20 17:09:00,60.1,47.0,29.74,WSW,248,17.2,17.2,62,0.00,,,0.00,VWS V14.01,2013-04-21 00:09:00,
2013-04-20 17:10:00,60.1,47.0,29.74,South,180,17.2,17.2,62,0.00,,,0.00,VWS V14.01,2013-04-21 00:10:00,
2013-04-20 17:11:00,59.9,46.9,29.74,WSW,248,15.4,15.4,62,0.00,,,0.00,VWS V14.01,2013-04-21 00:11:00,
2013-04-20 17:12:00,59.9,46.9,29.74,SW,225,17.0,17.0,62,0.00,,,0.00,VWS V14.01,2013-04-21 00:12:00,
2013-04-20 17:13:00,59.9,46.9,29.71,West,270,16.8,16.8,62,0.00,,,0.00,VWS V14.01,2013-04-21 00:13:00,
2013-04-20 17:14:00,59.9,46.9,29.71,WSW,248,17.7,17.7,62,0.00,,,0.00,VWS V14.01,2013-04-21 00:14:00,
2013-04-20 17:15:00,59.5,47.0,29.71,SW,225,14.5,14.5,63,0.00,,,0.00,VWS V14.01,2013-04-21 00:15:00,
2013-04-20 17:16:00,59.4,46.8,29.71,WSW,248,22.6,22.6,63,0.00,,,0.00,VWS V14.01,2013-04-21 00:16:00,
2013-04-20 17:17:00,59.4,46.8,29.71,WSW,248,15.2,15.2,63,0.00,,,0.00,VWS V14.01,2013-04-21 00:17:00,
2013-04-20 17:18:00,59.4,47.2,29.71,SW,225,14.8,14.8,64,0.00,,,0.00,VWS V14.01,2013-04-21 00:18:00,
2013-04-20 17:19:00,59.4,47.2,29.71,West,270,21.5,21.5,64,0.00,,,0.00,VWS V14.01,2013-04-21 00:19:00,
2013-04-20 17:20:00,59.2,47.0,29.71,WSW,248,13.9,13.9,64,0.00,,,0.00,VWS V14.01,2013-04-21 00:20:00,
2013-04-20 17:21:00,59.2,47.0,29.71,WSW,248,14.8,14.8,64,0.00,,,0.00,VWS V14.01,2013-04-21 00:21:00,
2013-04-20 17:22:00,58.8,47.1,29.71,West,270,16.8,16.8,65,0.00,,,0.00,VWS V14.01,2013-04-21 00:22:00,
2013-04-20 17:23:00,58.8,47.1,29.71,WSW,248,16.6,16.6,65,0.00,,,0.00,VWS V14.01,2013-04-21 00:23:00,
2013-04-20 17:24:00,58.8,47.1,29.71,WSW,248,10.7,10.7,65,0.00,,,0.00,VWS V14.01,2013-04-21 00:24:00,
2013-04-20 17:25:00,58.8,47.5,29.71,WSW,248,23.5,23.5,66,0.00,,,0.00,VWS V14.01,2013-04-21 00:25:00,
2013-04-20 17:26:00,58.8,47.5,29.71,WSW,248,12.8,12.8,66,0.00,,,0.00,VWS V14.01,2013-04-21 00:26:00,
2013-04-20 17:27:00,58.8,47.5,29.71,West,270,19.9,19.9,66,0.00,,,0.00,VWS V14.01,2013-04-21 00:27:00,
2013-04-20 17:28:00,58.8,47.5,29.71,SSW,202,18.6,18.6,66,0.00,,,0.00,VWS V14.01,2013-04-21 00:28:00,
2013-04-20 17:29:00,58.8,47.5,29.71,SW,225,17.0,17.0,66,0.00,,,0.00,VWS V14.01,2013-04-21 00:29:00,
2013-04-20 17:30:00,58.6,47.3,29.71,WSW,248,19.2,19.2,66,0.00,,,0.00,VWS V14.01,2013-04-21 00:30:00,
2013-04-20 17:31:00,58.6,47.3,29.71,WSW,248,17.0,17.0,66,0.00,,,0.00,VWS V14.01,2013-04-21 00:31:00,
2013-04-20 17:32:00,58.5,47.2,29.71,WSW,248,17.0,17.0,66,0.00,,,0.00,VWS V14.01,2013-04-21 00:32:00,
2013-04-20 17:33:00,58.5,47.2,29.71,West,270,17.7,17.7,66,0.00,,,0.00,VWS V14.01,2013-04-21 00:33:00,
2013-04-20 17:34:00,58.3,47.0,29.71,WSW,248,13.9,13.9,66,0.00,,,0.00,VWS V14.01,2013-04-21 00:34:00,
2013-04-20 17:35:00,58.3,47.4,29.71,WSW,248,18.6,18.6,67,0.00,,,0.00,VWS V14.01,2013-04-21 00:35:00,
2013-04-20 17:36:00,58.3,47.4,29.71,WSW,248,16.8,16.8,67,0.00,,,0.00,VWS V14.01,2013-04-21 00:36:00,
2013-04-20 17:37:00,58.3,47.4,29.71,West,270,23.5,23.5,67,0.00,,,0.00,VWS V14.01,2013-04-21 00:37:00,
2013-04-20 17:38:00,58.1,47.2,29.71,WSW,248,17.7,17.7,67,0.00,,,0.00,VWS V14.01,2013-04-21 00:38:00,
2013-04-20 17:39:00,58.3,47.4,29.71,SW,225,13.2,13.2,67,0.00,,,0.00,VWS V14.01,2013-04-21 00:39:00,
2013-04-20 17:40:00,58.3,47.4,29.71,WSW,248,17.7,17.7,67,0.00,,,0.00,VWS V14.01,2013-04-21 00:40:00,
2013-04-20 17:41:00,58.3,47.4,29.71,WSW,248,14.5,14.5,67,0.00,,,0.00,VWS V14.01,2013-04-21 00:41:00,
2013-04-20 17:42:00,58.3,47.4,29.71,WSW,248,19.9,19.9,67,0.00,,,0.00,VWS V14.01,2013-04-21 00:42:00,
2013-04-20 17:43:00,58.1,47.2,29.71,WSW,248,19.9,19.9,67,0.00,,,0.00,VWS V14.01,2013-04-21 00:43:00,
2013-04-20 17:44:00,58.1,47.2,29.71,WSW,248,19.7,19.7,67,0.00,,,0.00,VWS V14.01,2013-04-21 00:44:00,
2013-04-20 17:45:00,58.1,47.2,29.71,WSW,248,17.7,17.7,67,0.00,,,0.00,VWS V14.01,2013-04-21 00:45:00,
2013-04-20 17:46:00,58.1,47.2,29.71,WSW,248,21.3,21.3,67,0.00,,,0.00,VWS V14.01,2013-04-21 00:46:00,
2013-04-20 17:47:00,58.1,47.2,29.71,West,270,15.2,15.2,67,0.00,,,0.00,VWS V14.01,2013-04-21 00:47:00,
2013-04-20 17:48:00,57.9,47.0,29.71,SSW,202,18.1,18.1,67,0.00,,,0.00,VWS V14.01,2013-04-21 00:48:00,
2013-04-20 17:49:00,57.9,47.0,29.71,WSW,248,19.5,19.5,67,0.00,,,0.00,VWS V14.01,2013-04-21 00:49:00,
2013-04-20 17:50:00,57.9,47.0,29.71,WSW,248,19.5,19.5,67,0.00,,,0.00,VWS V14.01,2013-04-21 00:50:00,
2013-04-20 17:51:00,57.9,47.0,29.71,SSW,202,17.7,17.7,67,0.00,,,0.00,VWS V14.01,2013-04-21 00:51:00,
2013-04-20 17:52:00,57.9,47.0,29.71,SW,225,14.5,14.5,67,0.00,,,0.00,VWS V14.01,2013-04-21 00:52:00,
2013-04-20 17:53:00,57.7,46.9,29.71,WSW,248,21.5,21.5,67,0.00,,,0.00,VWS V14.01,2013-04-21 00:53:00,
2013-04-20 17:54:00,57.7,46.9,29.71,WSW,248,21.5,21.5,67,0.00,,,0.00,VWS V14.01,2013-04-21 00:54:00,
2013-04-20 17:55:00,57.6,47.1,29.71,SW,225,15.7,15.7,68,0.00,,,0.00,VWS V14.01,2013-04-21 00:55:00,
2013-04-20 17:56:00,57.6,47.1,29.71,SW,225,15.7,15.7,68,0.00,,,0.00,VWS V14.01,2013-04-21 00:56:00,
2013-04-20 17:57:00,57.4,46.9,29.71,WSW,248,17.9,17.9,68,0.00,,,0.00,VWS V14.01,2013-04-21 00:57:00,
2013-04-20 17:58:00,57.4,46.9,29.71,SSW,202,23.7,23.7,68,0.00,,,0.00,VWS V14.01,2013-04-21 00:58:00,
2013-04-20 17:59:00,57.4,46.9,29.71,SW,225,17.7,17.7,68,0.00,,,0.00,VWS V14.01,2013-04-21 00:59:00,
2013-04-20 18:00:00,57.4,46.9,29.71,WSW,248,16.3,16.3,68,0.00,,,0.00,VWS V14.01,2013-04-21 01:00:00,
2013-04-20 18:01:00,57.4,46.9,29.71,WSW,248,16.3,16.3,68,0.00,,,0.00,VWS V14.01,2013-04-21 01:01:00,
2013-04-20 18:02:00,57.2,47.1,29.71,WSW,248,13.0,13.0,69,0.00,,,0.00,VWS V14.01,2013-04-21 01:02:00,
2013-04-20 18:03:00,57.2,47.1,29.71,WSW,248,13.0,13.0,69,0.00,,,0.00,VWS V14.01,2013-04-21 01:03:00,
2013-04-20 18:04:00,57.2,47.1,29.71,SW,225,17.7,17.7,69,0.00,,,0.00,VWS V14.01,2013-04-21 01:04:00,
2013-04-20 18:05:00,57.2,47.1,29.71,SSW,202,23.0,23.0,69,0.00,,,0.00,VWS V14.01,2013-04-21 01:05:00,
2013-04-20 18:06:00,57.0,47.0,29.71,SW,225,15.2,15.2,69,0.00,,,0.00,VWS V14.01,2013-04-21 01:06:00,
2013-04-20 18:07:00,57.0,47.0,29.71,WSW,248,17.0,17.0,69,0.00,,,0.00,VWS V14.01,2013-04-21 01:07:00,
2013-04-20 18:08:00,57.0,47.0,29.71,SW,225,19.0,19.0,69,0.00,,,0.00,VWS V14.01,2013-04-21 01:08:00,
2013-04-20 18:09:00,56.8,46.8,29.71,WSW,248,17.5,17.5,69,0.00,,,0.00,VWS V14.01,2013-04-21 01:09:00,
2013-04-20 18:10:00,56.8,46.8,29.71,SW,225,14.5,14.5,69,0.00,,,0.00,VWS V14.01,2013-04-21 01:10:00,
2013-04-20 18:11:00,56.8,47.2,29.71,SW,225,14.5,14.5,70,0.00,,,0.00,VWS V14.01,2013-04-21 01:11:00,
2013-04-20 18:12:00,56.8,47.2,29.71,WSW,248,13.0,13.0,70,0.00,,,0.00,VWS V14.01,2013-04-21 01:12:00,
2013-04-20 18:13:00,56.8,47.2,29.71,South,180,15.2,15.2,70,0.00,,,0.00,VWS V14.01,2013-04-21 01:13:00,
2013-04-20 18:14:00,56.8,47.2,29.71,South,180,15.2,15.2,70,0.00,,,0.00,VWS V14.01,2013-04-21 01:14:00,
2013-04-20 18:15:00,56.8,47.2,29.71,WSW,248,16.8,16.8,70,0.00,,,0.00,VWS V14.01,2013-04-21 01:15:00,
2013-04-20 18:16:00,56.7,47.0,29.71,WNW,292,12.8,12.8,70,0.00,,,0.00,VWS V14.01,2013-04-21 01:16:00,
2013-04-20 18:17:00,56.7,47.0,29.71,WSW,248,13.2,13.2,70,0.00,,,0.00,VWS V14.01,2013-04-21 01:17:00,
2013-04-20 18:18:00,56.8,47.2,29.71,SSW,202,16.1,16.1,70,0.00,,,0.00,VWS V14.01,2013-04-21 01:18:00,
2013-04-20 18:19:00,56.8,47.2,29.71,SW,225,15.4,15.4,70,0.00,,,0.00,VWS V14.01,2013-04-21 01:19:00,
2013-04-20 18:20:00,56.7,47.0,29.71,SW,225,14.3,14.3,70,0.00,,,0.00,VWS V14.01,2013-04-21 01:20:00,
2013-04-20 18:21:00,56.7,47.0,29.71,SSW,202,15.4,15.4,70,0.00,,,0.00,VWS V14.01,2013-04-21 01:21:00,
2013-04-20 18:22:00,56.5,46.8,29.71,SSW,202,15.4,15.4,70,0.00,,,0.00,VWS V14.01,2013-04-21 01:22:00,
2013-04-20 18:23:00,56.5,46.8,29.71,SW,225,13.0,13.0,70,0.00,,,0.00,VWS V14.01,2013-04-21 01:23:00,
2013-04-20 18:24:00,56.5,46.8,29.71,West,270,13.6,13.6,70,0.00,,,0.00,VWS V14.01,2013-04-21 01:24:00,
2013-04-20 18:25:00,56.5,46.8,29.71,SW,225,17.5,17.5,70,0.00,,,0.00,VWS V14.01,2013-04-21 01:25:00,
2013-04-20 18:26:00,56.5,46.8,29.71,West,270,13.6,13.6,70,0.00,,,0.00,VWS V14.01,2013-04-21 01:26:00,
2013-04-20 18:27:00,56.3,47.0,29.71,WSW,248,15.2,15.2,71,0.00,,,0.00,VWS V14.01,2013-04-21 01:27:00,
2013-04-20 18:28:00,56.3,47.0,29.71,SW,225,19.2,19.2,71,0.00,,,0.00,VWS V14.01,2013-04-21 01:28:00,
2013-04-20 18:29:00,56.3,47.0,29.71,SW,225,19.2,19.2,71,0.00,,,0.00,VWS V14.01,2013-04-21 01:29:00,
2013-04-20 18:30:00,55.9,46.7,29.71,WSW,248,23.5,23.5,71,0.00,,,0.00,VWS V14.01,2013-04-21 01:30:00,
2013-04-20 18:31:00,55.9,46.7,29.71,WSW,248,23.5,23.5,71,0.00,,,0.00,VWS V14.01,2013-04-21 01:31:00,
2013-04-20 18:32:00,55.9,46.7,29.71,WSW,248,23.5,23.5,71,0.00,,,0.00,VWS V14.01,2013-04-21 01:32:00,
2013-04-20 18:33:00,55.9,46.7,29.71,WSW,248,11.4,11.4,71,0.00,,,0.00,VWS V14.01,2013-04-21 01:33:00,
2013-04-20 18:34:00,55.9,46.7,29.71,SW,225,12.3,12.3,71,0.00,,,0.00,VWS V14.01,2013-04-21 01:34:00,
2013-04-20 18:35:00,55.9,46.7,29.71,SW,225,12.3,12.3,71,0.00,,,0.00,VWS V14.01,2013-04-21 01:35:00,
2013-04-20 18:36:00,55.9,46.7,29.71,SSW,202,19.7,19.7,71,0.00,,,0.00,VWS V14.01,2013-04-21 01:36:00,
2013-04-20 18:37:00,55.9,46.7,29.71,SSW,202,19.7,19.7,71,0.00,,,0.00,VWS V14.01,2013-04-21 01:37:00,
2013-04-20 18:38:00,55.8,46.9,29.71,WSW,248,13.2,13.2,72,0.00,,,0.00,VWS V14.01,2013-04-21 01:38:00,
2013-04-20 18:39:00,55.8,46.9,29.71,WSW,248,13.2,13.2,72,0.00,,,0.00,VWS V14.01,2013-04-21 01:39:00,
2013-04-20 18:40:00,55.8,46.9,29.71,WSW,248,17.0,17.0,72,0.00,,,0.00,VWS V14.01,2013-04-21 01:40:00,
2013-04-20 18:41:00,55.8,46.9,29.71,WSW,248,13.9,13.9,72,0.00,,,0.00,VWS V14.01,2013-04-21 01:41:00,
2013-04-20 18:42:00,55.8,46.9,29.71,WSW,248,17.7,17.7,72,0.00,,,0.00,VWS V14.01,2013-04-21 01:42:00,
2013-04-20 18:43:00,55.8,46.9,29.71,South,180,17.9,17.9,72,0.00,,,0.00,VWS V14.01,2013-04-21 01:43:00,
2013-04-20 18:44:00,55.8,46.9,29.71,WNW,292,16.1,16.1,72,0.00,,,0.00,VWS V14.01,2013-04-21 01:44:00,
2013-04-20 18:45:00,55.4,46.5,29.71,WSW,248,12.8,12.8,72,0.00,,,0.00,VWS V14.01,2013-04-21 01:45:00,
2013-04-20 18:46:00,55.4,46.5,29.71,WSW,248,19.0,19.0,72,0.00,,,0.00,VWS V14.01,2013-04-21 01:46:00,
2013-04-20 18:47:00,55.4,46.5,29.71,WSW,248,19.0,19.0,72,0.00,,,0.00,VWS V14.01,2013-04-21 01:47:00,
2013-04-20 18:48:00,55.2,46.7,29.71,WSW,248,17.7,17.7,73,0.00,,,0.00,VWS V14.01,2013-04-21 01:48:00,
2013-04-20 18:49:00,55.2,46.7,29.71,WSW,248,15.2,15.2,73,0.00,,,0.00,VWS V14.01,2013-04-21 01:49:00,
2013-04-20 18:50:00,55.0,46.5,29.71,WSW,248,16.3,16.3,73,0.00,,,0.00,VWS V14.01,2013-04-21 01:50:00,
2013-04-20 18:51:00,54.9,46.4,29.71,WSW,248,16.3,16.3,73,0.00,,,0.00,VWS V14.01,2013-04-21 01:51:00,
2013-04-20 18:52:00,54.9,46.4,29.71,WSW,248,19.7,19.7,73,0.00,,,0.00,VWS V14.01,2013-04-21 01:52:00,
2013-04-20 18:53:00,54.7,46.2,29.71,WSW,248,13.9,13.9,73,0.00,,,0.00,VWS V14.01,2013-04-21 01:53:00,
2013-04-20 18:54:00,54.7,46.2,29.71,WSW,248,13.2,13.2,73,0.00,,,0.00,VWS V14.01,2013-04-21 01:54:00,
2013-04-20 18:55:00,54.7,46.2,29.71,WSW,248,17.7,17.7,73,0.00,,,0.00,VWS V14.01,2013-04-21 01:55:00,
2013-04-20 18:56:00,54.5,46.0,29.71,WSW,248,15.2,15.2,73,0.00,,,0.00,VWS V14.01,2013-04-21 01:56:00,
2013-04-20 18:57:00,54.5,46.0,29.71,WSW,248,21.0,21.0,73,0.00,,,0.00,VWS V14.01,2013-04-21 01:57:00,
2013-04-20 18:58:00,54.3,45.9,29.71,WSW,248,21.0,21.0,73,0.00,,,0.00,VWS V14.01,2013-04-21 01:58:00,
2013-04-20 18:59:00,54.3,45.9,29.71,WSW,248,21.0,21.0,73,0.00,,,0.00,VWS V14.01,2013-04-21 01:59:00,
2013-04-20 19:00:00,54.3,46.2,29.71,SSW,202,15.2,15.2,74,0.00,,,0.00,VWS V14.01,2013-04-21 02:00:00,
2013-04-20 19:01:00,54.1,46.0,29.71,SW,225,13.2,13.2,74,0.00,,,0.00,VWS V14.01,2013-04-21 02:01:00,
2013-04-20 19:02:00,54.1,46.0,29.71,SSW,202,17.7,17.7,74,0.00,,,0.00,VWS V14.01,2013-04-21 02:02:00,
2013-04-20 19:03:00,54.1,46.0,29.71,WSW,248,15.4,15.4,74,0.00,,,0.00,VWS V14.01,2013-04-21 02:03:00,
2013-04-20 19:04:00,54.1,46.0,29.71,SW,225,19.2,19.2,74,0.00,,,0.00,VWS V14.01,2013-04-21 02:04:00,
2013-04-20 19:05:00,53.8,45.7,29.71,WSW,248,15.2,15.2,74,0.00,,,0.00,VWS V14.01,2013-04-21 02:05:00,
2013-04-20 19:06:00,53.8,45.7,29.71,WSW,248,19.9,19.9,74,0.00,,,0.00,VWS V14.01,2013-04-21 02:06:00,
2013-04-20 19:07:00,53.6,45.9,29.71,WSW,248,14.8,14.8,75,0.00,,,0.00,VWS V14.01,2013-04-21 02:07:00,
2013-04-20 19:08:00,53.6,45.9,29.71,WSW,248,19.7,19.7,75,0.00,,,0.00,VWS V14.01,2013-04-21 02:08:00,
2013-04-20 19:09:00,53.6,45.9,29.71,WSW,248,15.4,15.4,75,0.00,,,0.00,VWS V14.01,2013-04-21 02:09:00,
2013-04-20 19:10:00,53.6,45.9,29.71,WSW,248,15.4,15.4,75,0.00,,,0.00,VWS V14.01,2013-04-21 02:10:00,
2013-04-20 19:11:00,53.4,46.1,29.71,SW,225,14.3,14.3,76,0.00,,,0.00,VWS V14.01,2013-04-21 02:11:00,
2013-04-20 19:12:00,53.4,46.1,29.71,SW,225,14.3,14.3,76,0.00,,,0.00,VWS V14.01,2013-04-21 02:12:00,
2013-04-20 19:13:00,53.4,46.1,29.71,SSW,202,16.1,16.1,76,0.00,,,0.00,VWS V14.01,2013-04-21 02:13:00,
2013-04-20 19:14:00,53.4,46.1,29.71,South,180,17.2,17.2,76,0.00,,,0.00,VWS V14.01,2013-04-21 02:14:00,
2013-04-20 19:15:00,53.4,46.1,29.71,WSW,248,13.2,13.2,76,0.00,,,0.00,VWS V14.01,2013-04-21 02:15:00,
2013-04-20 19:16:00,53.1,45.7,29.71,SW,225,16.3,16.3,76,0.00,,,0.00,VWS V14.01,2013-04-21 02:16:00,
2013-04-20 19:17:00,53.1,45.7,29.71,WSW,248,12.8,12.8,76,0.00,,,0.00,VWS V14.01,2013-04-21 02:17:00,
2013-04-20 19:18:00,52.9,45.9,29.71,WSW,248,12.8,12.8,77,0.00,,,0.00,VWS V14.01,2013-04-21 02:18:00,
2013-04-20 19:19:00,52.9,45.9,29.71,WSW,248,12.8,12.8,77,0.00,,,0.00,VWS V14.01,2013-04-21 02:19:00,
2013-04-20 19:20:00,52.9,46.2,29.71,SW,225,15.2,15.2,78,0.00,,,0.00,VWS V14.01,2013-04-21 02:20:00,
2013-04-20 19:21:00,52.9,46.2,29.71,SW,225,15.2,15.2,78,0.00,,,0.00,VWS V14.01,2013-04-21 02:21:00,
2013-04-20 19:22:00,52.9,46.2,29.71,SW,225,20.4,20.4,78,0.00,,,0.00,VWS V14.01,2013-04-21 02:22:00,
2013-04-20 19:23:00,52.9,46.2,29.71,WSW,248,13.2,13.2,78,0.00,,,0.00,VWS V14.01,2013-04-21 02:23:00,
2013-04-20 19:24:00,52.7,46.0,29.71,WSW,248,13.2,13.2,78,0.00,,,0.00,VWS V14.01,2013-04-21 02:24:00,
2013-04-20 19:25:00,52.7,46.0,29.71,WSW,248,13.2,13.2,78,0.00,,,0.00,VWS V14.01,2013-04-21 02:25:00,
2013-04-20 19:26:00,52.7,46.0,29.71,West,270,19.5,19.5,78,0.00,,,0.00,VWS V14.01,2013-04-21 02:26:00,
2013-04-20 19:27:00,52.7,46.0,29.71,WSW,248,15.4,15.4,78,0.00,,,0.00,VWS V14.01,2013-04-21 02:27:00,
2013-04-20 19:28:00,52.7,46.0,29.71,WSW,248,17.2,17.2,78,0.00,,,0.00,VWS V14.01,2013-04-21 02:28:00,
2013-04-20 19:29:00,52.7,46.0,29.71,WSW,248,17.2,17.2,78,0.00,,,0.00,VWS V14.01,2013-04-21 02:29:00,
2013-04-20 19:30:00,52.7,46.0,29.71,WSW,248,17.2,17.2,78,0.00,,,0.00,VWS V14.01,2013-04-21 02:30:00,
2013-04-20 19:31:00,52.7,46.0,29.71,WSW,248,17.2,17.2,78,0.00,,,0.00,VWS V14.01,2013-04-21 02:31:00,
2013-04-20 19:32:00,52.3,46.0,29.71,WSW,248,13.2,13.2,79,0.00,,,0.00,VWS V14.01,2013-04-21 02:32:00,
2013-04-20 19:33:00,52.3,46.0,29.71,WSW,248,12.3,12.3,79,0.00,,,0.00,VWS V14.01,2013-04-21 02:33:00,
2013-04-20 19:34:00,52.2,45.8,29.71,SW,225,10.1,10.1,79,0.00,,,0.00,VWS V14.01,2013-04-21 02:34:00,
2013-04-20 19:35:00,52.2,45.8,29.71,SW,225,10.5,10.5,79,0.00,,,0.00,VWS V14.01,2013-04-21 02:35:00,
2013-04-20 19:36:00,52.2,45.8,29.71,WSW,248,17.2,17.2,79,0.00,,,0.00,VWS V14.01,2013-04-21 02:36:00,
2013-04-20 19:37:00,52.2,45.8,29.71,SSW,202,16.6,16.6,79,0.00,,,0.00,VWS V14.01,2013-04-21 02:37:00,
2013-04-20 19:38:00,52.2,45.8,29.71,WSW,248,13.2,13.2,79,0.00,,,0.00,VWS V14.01,2013-04-21 02:38:00,
2013-04-20 19:40:00,52.2,45.8,29.71,SW,225,17.0,17.0,79,0.00,,,0.00,VWS V14.01,2013-04-21 02:40:00,
2013-04-20 19:41:00,52.0,46.0,29.71,SSW,202,12.8,12.8,80,0.00,,,0.00,VWS V14.01,2013-04-21 02:41:00,
2013-04-20 19:42:00,52.0,46.0,29.71,SSW,202,12.8,12.8,80,0.00,,,0.00,VWS V14.01,2013-04-21 02:42:00,
2013-04-20 19:43:00,52.0,46.0,29.71,SSW,202,12.8,12.8,80,0.00,,,0.00,VWS V14.01,2013-04-21 02:43:00,
2013-04-20 19:44:00,52.0,46.0,29.71,SSW,202,14.5,14.5,80,0.00,,,0.00,VWS V14.01,2013-04-21 02:44:00,
2013-04-20 19:45:00,52.0,46.0,29.71,WSW,248,15.7,15.7,80,0.00,,,0.00,VWS V14.01,2013-04-21 02:45:00,
2013-04-20 19:46:00,52.0,46.0,29.71,WSW,248,15.2,15.2,80,0.00,,,0.00,VWS V14.01,2013-04-21 02:46:00,
2013-04-20 19:47:00,52.0,46.0,29.71,WSW,248,14.5,14.5,80,0.00,,,0.00,VWS V14.01,2013-04-21 02:47:00,
2013-04-20 19:48:00,51.6,46.0,29.71,WSW,248,17.2,17.2,81,0.00,,,0.00,VWS V14.01,2013-04-21 02:48:00,
2013-04-20 19:49:00,51.6,46.0,29.71,SW,225,15.2,15.2,81,0.00,,,0.00,VWS V14.01,2013-04-21 02:49:00,
2013-04-20 19:50:00,51.6,46.0,29.71,WSW,248,15.7,15.7,81,0.00,,,0.00,VWS V14.01,2013-04-21 02:50:00,
2013-04-20 19:51:00,51.6,46.0,29.71,WSW,248,17.5,17.5,81,0.00,,,0.00,VWS V14.01,2013-04-21 02:51:00,
2013-04-20 19:52:00,51.4,45.8,29.71,West,270,15.2,15.2,81,0.00,,,0.00,VWS V14.01,2013-04-21 02:52:00,
2013-04-20 19:53:00,51.4,45.8,29.71,WSW,248,10.5,10.5,81,0.00,,,0.00,VWS V14.01,2013-04-21 02:53:00,
2013-04-20 19:54:00,51.4,45.8,29.71,WSW,248,10.7,10.7,81,0.00,,,0.00,VWS V14.01,2013-04-21 02:54:00,
2013-04-20 19:55:00,51.4,46.1,29.71,WSW,248,17.0,17.0,82,0.00,,,0.00,VWS V14.01,2013-04-21 02:55:00,
2013-04-20 19:56:00,51.4,46.1,29.71,WSW,248,14.1,14.1,82,0.00,,,0.00,VWS V14.01,2013-04-21 02:56:00,
2013-04-20 19:57:00,51.3,46.0,29.71,WSW,248,14.8,14.8,82,0.00,,,0.00,VWS V14.01,2013-04-21 02:57:00,
2013-04-20 19:58:00,51.3,46.0,29.71,WSW,248,10.1,10.1,82,0.00,,,0.00,VWS V14.01,2013-04-21 02:58:00,
2013-04-20 19:59:00,51.3,46.0,29.71,SSW,202,15.4,15.4,82,0.00,,,0.00,VWS V14.01,2013-04-21 02:59:00,
2013-04-20 20:00:00,51.3,46.0,29.71,WSW,248,22.2,22.2,82,0.00,,,0.00,VWS V14.01,2013-04-21 03:00:00,
2013-04-20 20:01:00,51.1,45.8,29.71,WSW,248,14.8,14.8,82,0.00,,,0.00,VWS V14.01,2013-04-21 03:01:00,
2013-04-20 20:03:00,51.1,45.8,29.71,WSW,248,8.1,8.1,82,0.00,,,0.00,VWS V14.01,2013-04-21 03:03:00,
2013-04-20 20:04:00,51.1,46.1,29.71,SW,225,12.8,12.8,83,0.00,,,0.00,VWS V14.01,2013-04-21 03:04:00,
2013-04-20 20:05:00,51.1,46.1,29.71,SW,225,12.8,12.8,83,0.00,,,0.00,VWS V14.01,2013-04-21 03:05:00,
2013-04-20 20:06:00,51.1,46.1,29.71,SW,225,12.8,12.8,83,0.00,,,0.00,VWS V14.01,2013-04-21 03:06:00,
2013-04-20 20:07:00,51.1,46.1,29.71,WSW,248,15.4,15.4,83,0.00,,,0.00,VWS V14.01,2013-04-21 03:07:00,
2013-04-20 20:08:00,51.1,46.1,29.71,SW,225,15.2,15.2,83,0.00,,,0.00,VWS V14.01,2013-04-21 03:08:00,
2013-04-20 20:09:00,51.1,46.1,29.71,WSW,248,12.3,12.3,83,0.00,,,0.00,VWS V14.01,2013-04-21 03:09:00,
2013-04-20 20:10:00,51.1,46.1,29.71,WSW,248,12.3,12.3,83,0.00,,,0.00,VWS V14.01,2013-04-21 03:10:00,
2013-04-20 20:11:00,51.1,46.1,29.71,West,270,17.2,17.2,83,0.00,,,0.00,VWS V14.01,2013-04-21 03:11:00,
2013-04-20 20:12:00,51.1,46.1,29.71,West,270,17.2,17.2,83,0.00,,,0.00,VWS V14.01,2013-04-21 03:12:00,
2013-04-20 20:13:00,51.1,46.1,29.71,WSW,248,14.8,14.8,83,0.00,,,0.00,VWS V14.01,2013-04-21 03:13:00,
2013-04-20 20:14:00,51.1,46.1,29.71,SW,225,13.0,13.0,83,0.00,,,0.00,VWS V14.01,2013-04-21 03:14:00,
2013-04-20 20:15:00,51.1,46.1,29.71,WSW,248,13.0,13.0,83,0.00,,,0.00,VWS V14.01,2013-04-21 03:15:00,
2013-04-20 20:16:00,51.1,46.1,29.71,WSW,248,13.0,13.0,83,0.00,,,0.00,VWS V14.01,2013-04-21 03:16:00,
2013-04-20 20:17:00,50.7,45.8,29.71,WSW,248,14.3,14.3,83,0.00,,,0.00,VWS V14.01,2013-04-21 03:17:00,
2013-04-20 20:18:00,50.7,46.1,29.71,WSW,248,17.5,17.5,84,0.00,,,0.00,VWS V14.01,2013-04-21 03:18:00,
2013-04-20 20:19:00,50.7,46.1,29.71,West,270,10.5,10.5,84,0.00,,,0.00,VWS V14.01,2013-04-21 03:19:00,
2013-04-20 20:20:00,50.7,46.1,29.71,SW,225,13.6,13.6,84,0.00,,,0.00,VWS V14.01,2013-04-21 03:20:00,
2013-04-20 20:21:00,50.7,46.1,29.71,SW,225,13.2,13.2,84,0.00,,,0.00,VWS V14.01,2013-04-21 03:21:00,
2013-04-20 20:22:00,50.7,46.1,29.71,WSW,248,14.5,14.5,84,0.00,,,0.00,VWS V14.01,2013-04-21 03:22:00,
2013-04-20 20:23:00,50.7,46.1,29.71,WSW,248,14.5,14.5,84,0.00,,,0.00,VWS V14.01,2013-04-21 03:23:00,
2013-04-20 20:24:00,50.7,46.1,29.71,WSW,248,15.2,15.2,84,0.00,,,0.00,VWS V14.01,2013-04-21 03:24:00,
2013-04-20 20:25:00,50.7,46.1,29.71,WSW,248,15.2,15.2,84,0.00,,,0.00,VWS V14.01,2013-04-21 03:25:00,
2013-04-20 20:26:00,50.7,46.1,29.71,WSW,248,15.2,15.2,84,0.00,,,0.00,VWS V14.01,2013-04-21 03:26:00,
2013-04-20 20:27:00,50.7,46.1,29.71,WSW,248,12.8,12.8,84,0.00,,,0.00,VWS V14.01,2013-04-21 03:27:00,
2013-04-20 20:28:00,50.7,46.1,29.71,WSW,248,12.1,12.1,84,0.00,,,0.00,VWS V14.01,2013-04-21 03:28:00,
2013-04-20 20:29:00,50.7,46.1,29.71,SW,225,17.2,17.2,84,0.00,,,0.00,VWS V14.01,2013-04-21 03:29:00,
2013-04-20 20:30:00,50.7,46.1,29.71,SSW,202,10.3,10.3,84,0.00,,,0.00,VWS V14.01,2013-04-21 03:30:00,
2013-04-20 20:31:00,50.7,46.1,29.71,SSW,202,10.3,10.3,84,0.00,,,0.00,VWS V14.01,2013-04-21 03:31:00,
2013-04-20 20:32:00,50.5,45.9,29.71,South,180,15.4,15.4,84,0.00,,,0.00,VWS V14.01,2013-04-21 03:32:00,
2013-04-20 20:33:00,50.5,45.9,29.71,WSW,248,15.2,15.2,84,0.00,,,0.00,VWS V14.01,2013-04-21 03:33:00,
2013-04-20 20:34:00,50.5,45.9,29.71,SSW,202,15.2,15.2,84,0.00,,,0.00,VWS V14.01,2013-04-21 03:34:00,
2013-04-20 20:35:00,50.5,45.9,29.71,SW,225,12.8,12.8,84,0.00,,,0.00,VWS V14.01,2013-04-21 03:35:00,
2013-04-20 20:36:00,50.5,46.2,29.71,WSW,248,14.3,14.3,85,0.00,,,0.00,VWS V14.01,2013-04-21 03:36:00,
2013-04-20 20:37:00,50.5,46.2,29.71,WSW,248,14.5,14.5,85,0.00,,,0.00,VWS V14.01,2013-04-21 03:37:00,
2013-04-20 20:38:00,50.5,46.2,29.71,WSW,248,14.5,14.5,85,0.00,,,0.00,VWS V14.01,2013-04-21 03:38:00,
2013-04-20 20:39:00,50.5,46.2,29.71,WSW,248,19.5,19.5,85,0.00,,,0.00,VWS V14.01,2013-04-21 03:39:00,
2013-04-20 20:40:00,50.5,46.2,29.71,SW,225,15.4,15.4,85,0.00,,,0.00,VWS V14.01,2013-04-21 03:40:00,
2013-04-20 20:41:00,50.5,46.2,29.71,WSW,248,12.1,12.1,85,0.00,,,0.00,VWS V14.01,2013-04-21 03:41:00,
2013-04-20 20:42:00,50.5,46.2,29.71,WSW,248,15.9,15.9,85,0.00,,,0.00,VWS V14.01,2013-04-21 03:42:00,
2013-04-20 20:43:00,50.5,46.2,29.71,SW,225,11.9,11.9,85,0.00,,,0.00,VWS V14.01,2013-04-21 03:43:00,
2013-04-20 20:44:00,50.5,46.2,29.71,SW,225,11.9,11.9,85,0.00,,,0.00,VWS V14.01,2013-04-21 03:44:00,
2013-04-20 20:45:00,50.4,46.0,29.71,SW,225,17.0,17.0,85,0.00,,,0.00,VWS V14.01,2013-04-21 03:45:00,
2013-04-20 20:46:00,50.4,46.0,29.71,SW,225,16.6,16.6,85,0.00,,,0.00,VWS V14.01,2013-04-21 03:46:00,
2013-04-20 20:47:00,50.4,46.0,29.71,WSW,248,14.8,14.8,85,0.00,,,0.00,VWS V14.01,2013-04-21 03:47:00,
2013-04-20 20:48:00,50.4,46.0,29.71,SW,225,19.0,19.0,85,0.00,,,0.00,VWS V14.01,2013-04-21 03:48:00,
2013-04-20 20:49:00,50.4,46.0,29.71,WSW,248,15.4,15.4,85,0.00,,,0.00,VWS V14.01,2013-04-21 03:49:00,
2013-04-20 20:50:00,50.4,46.0,29.71,WSW,248,14.3,14.3,85,0.00,,,0.00,VWS V14.01,2013-04-21 03:50:00,
2013-04-20 20:51:00,50.4,46.0,29.71,WSW,248,17.0,17.0,85,0.00,,,0.00,VWS V14.01,2013-04-21 03:51:00,
2013-04-20 20:52:00,50.4,46.0,29.71,WSW,248,10.3,10.3,85,0.00,,,0.00,VWS V14.01,2013-04-21 03:52:00,
2013-04-20 20:53:00,50.4,46.0,29.71,SW,225,15.4,15.4,85,0.00,,,0.00,VWS V14.01,2013-04-21 03:53:00,
2013-04-20 20:54:00,50.4,46.3,29.71,WSW,248,10.1,10.1,86,0.00,,,0.00,VWS V14.01,2013-04-21 03:54:00,
2013-04-20 20:55:00,50.4,46.3,29.71,West,270,13.6,13.6,86,0.00,,,0.00,VWS V14.01,2013-04-21 03:55:00,
2013-04-20 20:56:00,50.4,46.3,29.71,SW,225,13.0,13.0,86,0.00,,,0.00,VWS V14.01,2013-04-21 03:56:00,
2013-04-20 20:57:00,50.4,46.3,29.71,SW,225,10.7,10.7,86,0.00,,,0.00,VWS V14.01,2013-04-21 03:57:00,
2013-04-20 20:58:00,50.4,46.3,29.71,WSW,248,14.8,14.8,86,0.00,,,0.00,VWS V14.01,2013-04-21 03:58:00,
2013-04-20 20:59:00,50.4,46.3,29.71,WSW,248,17.0,17.0,86,0.00,,,0.00,VWS V14.01,2013-04-21 03:59:00,
2013-04-20 21:00:00,50.4,46.3,29.71,WSW,248,15.2,15.2,86,0.00,,,0.00,VWS V14.01,2013-04-21 04:00:00,
2013-04-20 21:01:00,50.4,46.3,29.71,WSW,248,19.7,19.7,86,0.00,,,0.00,VWS V14.01,2013-04-21 04:01:00,
2013-04-20 21:02:00,50.4,46.3,29.71,WSW,248,19.7,19.7,86,0.00,,,0.00,VWS V14.01,2013-04-21 04:02:00,
2013-04-20 21:03:00,50.4,46.3,29.71,WSW,248,17.2,17.2,86,0.00,,,0.00,VWS V14.01,2013-04-21 04:03:00,
2013-04-20 21:04:00,50.4,46.3,29.71,West,270,23.7,23.7,86,0.00,,,0.00,VWS V14.01,2013-04-21 04:04:00,
2013-04-20 21:05:00,50.4,46.3,29.71,WSW,248,13.2,13.2,86,0.00,,,0.00,VWS V14.01,2013-04-21 04:05:00,
2013-04-20 21:06:00,50.4,46.3,29.71,WSW,248,15.4,15.4,86,0.00,,,0.00,VWS V14.01,2013-04-21 04:06:00,
2013-04-20 21:07:00,50.4,46.3,29.71,WSW,248,19.9,19.9,86,0.00,,,0.00,VWS V14.01,2013-04-21 04:07:00,
2013-04-20 21:08:00,50.4,46.3,29.71,West,270,10.7,10.7,86,0.00,,,0.00,VWS V14.01,2013-04-21 04:08:00,
2013-04-20 21:09:00,50.4,46.3,29.71,WSW,248,16.8,16.8,86,0.00,,,0.00,VWS V14.01,2013-04-21 04:09:00,
2013-04-20 21:10:00,50.4,46.3,29.71,WSW,248,16.8,16.8,86,0.00,,,0.00,VWS V14.01,2013-04-21 04:10:00,
2013-04-20 21:11:00,50.4,46.3,29.71,West,270,14.8,14.8,86,0.00,,,0.00,VWS V14.01,2013-04-21 04:11:00,
2013-04-20 21:12:00,50.4,46.3,29.74,West,270,14.8,14.8,86,0.00,,,0.00,VWS V14.01,2013-04-21 04:12:00,
2013-04-20 21:13:00,50.2,46.2,29.74,WSW,248,17.2,17.2,86,0.00,,,0.00,VWS V14.01,2013-04-21 04:13:00,
2013-04-20 21:14:00,50.2,46.2,29.74,WSW,248,16.1,16.1,86,0.00,,,0.00,VWS V14.01,2013-04-21 04:14:00,
2013-04-20 21:15:00,50.2,46.2,29.74,WSW,248,12.5,12.5,86,0.00,,,0.00,VWS V14.01,2013-04-21 04:15:00,
2013-04-20 21:16:00,50.2,46.2,29.74,West,270,11.4,11.4,86,0.00,,,0.00,VWS V14.01,2013-04-21 04:16:00,
2013-04-20 21:17:00,50.2,46.2,29.74,WSW,248,15.4,15.4,86,0.00,,,0.00,VWS V14.01,2013-04-21 04:17:00,
2013-04-20 21:18:00,50.2,46.5,29.74,West,270,13.2,13.2,87,0.00,,,0.00,VWS V14.01,2013-04-21 04:18:00,
2013-04-20 21:19:00,50.2,46.5,29.74,WSW,248,17.5,17.5,87,0.00,,,0.00,VWS V14.01,2013-04-21 04:19:00,
2013-04-20 21:20:00,50.2,46.5,29.74,WSW,248,13.6,13.6,87,0.00,,,0.00,VWS V14.01,2013-04-21 04:20:00,
2013-04-20 21:21:00,50.2,46.5,29.74,WSW,248,16.1,16.1,87,0.00,,,0.00,VWS V14.01,2013-04-21 04:21:00,
2013-04-20 21:22:00,50.2,46.5,29.74,WSW,248,11.0,11.0,87,0.00,,,0.00,VWS V14.01,2013-04-21 04:22:00,
2013-04-20 21:23:00,50.2,46.5,29.74,West,270,13.0,13.0,87,0.00,,,0.00,VWS V14.01,2013-04-21 04:23:00,
2013-04-20 21:24:00,50.2,46.5,29.74,WSW,248,13.2,13.2,87,0.00,,,0.00,VWS V14.01,2013-04-21 04:24:00,
2013-04-20 21:25:00,50.2,46.5,29.74,WSW,248,13.2,13.2,87,0.00,,,0.00,VWS V14.01,2013-04-21 04:25:00,
2013-04-20 21:26:00,50.2,46.5,29.74,WSW,248,10.5,10.5,87,0.00,,,0.00,VWS V14.01,2013-04-21 04:26:00,
2013-04-20 21:27:00,50.2,46.5,29.74,WSW,248,10.5,10.5,87,0.00,,,0.00,VWS V14.01,2013-04-21 04:27:00,
2013-04-20 21:28:00,50.2,46.5,29.74,SW,225,17.9,17.9,87,0.00,,,0.00,VWS V14.01,2013-04-21 04:28:00,
2013-04-20 21:29:00,50.2,46.5,29.74,WSW,248,22.4,22.4,87,0.00,,,0.00,VWS V14.01,2013-04-21 04:29:00,
2013-04-20 21:30:00,50.2,46.5,29.74,West,270,12.8,12.8,87,0.00,,,0.00,VWS V14.01,2013-04-21 04:30:00,
2013-04-20 21:31:00,50.0,46.3,29.74,West,270,12.8,12.8,87,0.00,,,0.00,VWS V14.01,2013-04-21 04:31:00,
2013-04-20 21:32:00,50.0,46.3,29.74,West,270,12.8,12.8,87,0.00,,,0.00,VWS V14.01,2013-04-21 04:32:00,
2013-04-20 21:33:00,50.0,46.3,29.74,NW,315,17.5,17.5,87,0.00,,,0.00,VWS V14.01,2013-04-21 04:33:00,
2013-04-20 21:34:00,50.0,46.6,29.74,SW,225,13.4,13.4,88,0.00,,,0.00,VWS V14.01,2013-04-21 04:34:00,
2013-04-20 21:35:00,50.0,46.6,29.74,WSW,248,15.4,15.4,88,0.00,,,0.00,VWS V14.01,2013-04-21 04:35:00,
2013-04-20 21:36:00,50.0,46.6,29.74,WSW,248,12.1,12.1,88,0.00,,,0.00,VWS V14.01,2013-04-21 04:36:00,
2013-04-20 21:37:00,50.0,46.6,29.74,WSW,248,12.1,12.1,88,0.00,,,0.00,VWS V14.01,2013-04-21 04:37:00,
2013-04-20 21:38:00,50.0,46.6,29.74,SW,225,10.1,10.1,88,0.00,,,0.00,VWS V14.01,2013-04-21 04:38:00,
2013-04-20 21:39:00,50.0,46.6,29.74,WNW,292,12.5,12.5,88,0.00,,,0.00,VWS V14.01,2013-04-21 04:39:00,
2013-04-20 21:40:00,50.0,46.6,29.74,WSW,248,15.9,15.9,88,0.00,,,0.00,VWS V14.01,2013-04-21 04:40:00,
2013-04-20 21:41:00,49.8,46.4,29.74,WSW,248,14.5,14.5,88,0.00,,,0.00,VWS V14.01,2013-04-21 04:41:00,
2013-04-20 21:42:00,49.8,46.4,29.74,SW,225,11.9,11.9,88,0.00,,,0.00,VWS V14.01,2013-04-21 04:42:00,
2013-04-20 21:43:00,49.8,46.7,29.74,WSW,248,17.7,17.7,89,0.00,,,0.00,VWS V14.01,2013-04-21 04:43:00,
2013-04-20 21:44:00,49.8,46.7,29.74,WSW,248,12.5,12.5,89,0.00,,,0.00,VWS V14.01,2013-04-21 04:44:00,
2013-04-20 21:45:00,49.8,46.7,29.74,SW,225,19.9,19.9,89,0.00,,,0.00,VWS V14.01,2013-04-21 04:45:00,
2013-04-20 21:46:00,49.8,46.7,29.74,WSW,248,17.2,17.2,89,0.00,,,0.00,VWS V14.01,2013-04-21 04:46:00,
2013-04-20 21:47:00,49.8,46.7,29.74,SW,225,19.5,19.5,89,0.00,,,0.00,VWS V14.01,2013-04-21 04:47:00,
2013-04-20 21:48:00,49.8,46.7,29.74,WSW,248,13.0,13.0,89,0.00,,,0.00,VWS V14.01,2013-04-21 04:48:00,
2013-04-20 21:49:00,49.8,46.7,29.74,WSW,248,13.0,13.0,89,0.00,,,0.00,VWS V14.01,2013-04-21 04:49:00,
2013-04-20 21:50:00,49.8,46.7,29.74,WSW,248,10.7,10.7,89,0.00,,,0.00,VWS V14.01,2013-04-21 04:50:00,
2013-04-20 21:51:00,49.8,46.7,29.74,WSW,248,17.5,17.5,89,0.00,,,0.00,VWS V14.01,2013-04-21 04:51:00,
2013-04-20 21:52:00,49.8,46.7,29.74,WSW,248,12.8,12.8,89,0.00,,,0.00,VWS V14.01,2013-04-21 04:52:00,
2013-04-20 21:53:00,49.8,46.7,29.74,West,270,19.9,19.9,89,0.00,,,0.00,VWS V14.01,2013-04-21 04:53:00,
2013-04-20 21:54:00,49.8,47.0,29.74,WSW,248,13.4,13.4,90,0.00,,,0.00,VWS V14.01,2013-04-21 04:54:00,
2013-04-20 21:55:00,49.8,47.0,29.74,SW,225,14.3,14.3,90,0.00,,,0.00,VWS V14.01,2013-04-21 04:55:00,
2013-04-20 21:56:00,49.8,47.0,29.74,WSW,248,15.2,15.2,90,0.00,,,0.00,VWS V14.01,2013-04-21 04:56:00,
2013-04-20 21:57:00,49.8,47.0,29.74,WSW,248,15.2,15.2,90,0.00,,,0.00,VWS V14.01,2013-04-21 04:57:00,
2013-04-20 21:58:00,49.8,47.0,29.74,WSW,248,15.9,15.9,90,0.00,,,0.00,VWS V14.01,2013-04-21 04:58:00,
2013-04-20 21:59:00,49.8,47.0,29.74,WSW,248,15.9,15.9,90,0.00,,,0.00,VWS V14.01,2013-04-21 04:59:00,
2013-04-20 22:00:00,49.8,47.0,29.74,WSW,248,10.7,10.7,90,0.00,,,0.00,VWS V14.01,2013-04-21 05:00:00,
2013-04-20 22:01:00,49.8,47.0,29.74,West,270,12.8,12.8,90,0.00,,,0.00,VWS V14.01,2013-04-21 05:01:00,
2013-04-20 22:02:00,49.8,47.0,29.74,SSW,202,11.0,11.0,90,0.00,,,0.00,VWS V14.01,2013-04-21 05:02:00,
2013-04-20 22:03:00,49.8,47.0,29.74,SSW,202,13.2,13.2,90,0.00,,,0.00,VWS V14.01,2013-04-21 05:03:00,
2013-04-20 22:04:00,49.8,47.0,29.74,SW,225,12.8,12.8,90,0.00,,,0.00,VWS V14.01,2013-04-21 05:04:00,
2013-04-20 22:05:00,49.8,47.0,29.74,WSW,248,14.5,14.5,90,0.00,,,0.00,VWS V14.01,2013-04-21 05:05:00,
2013-04-20 22:06:00,49.8,47.0,29.74,WSW,248,14.5,14.5,90,0.00,,,0.00,VWS V14.01,2013-04-21 05:06:00,
2013-04-20 22:07:00,49.8,47.0,29.74,WSW,248,13.2,13.2,90,0.00,,,0.00,VWS V14.01,2013-04-21 05:07:00,
2013-04-20 22:08:00,49.8,47.0,29.74,WSW,248,13.2,13.2,90,0.00,,,0.00,VWS V14.01,2013-04-21 05:08:00,
2013-04-20 22:09:00,49.8,47.0,29.74,WSW,248,13.2,13.2,90,0.00,,,0.00,VWS V14.01,2013-04-21 05:09:00,
2013-04-20 22:10:00,49.8,47.0,29.74,WSW,248,13.2,13.2,90,0.00,,,0.00,VWS V14.01,2013-04-21 05:10:00,
2013-04-20 22:11:00,49.8,47.0,29.74,WSW,248,13.2,13.2,90,0.00,,,0.00,VWS V14.01,2013-04-21 05:11:00,
2013-04-20 22:12:00,49.8,47.0,29.74,WSW,248,13.2,13.2,90,0.00,,,0.00,VWS V14.01,2013-04-21 05:12:00,
2013-04-20 22:13:00,49.8,47.0,29.74,WSW,248,13.2,13.2,90,0.00,,,0.00,VWS V14.01,2013-04-21 05:13:00,
2013-04-20 22:14:00,49.8,47.0,29.74,WSW,248,13.2,13.2,90,0.00,,,0.00,VWS V14.01,2013-04-21 05:14:00,
2013-04-20 22:15:00,49.6,46.8,29.74,WSW,248,13.2,13.2,90,0.00,,,0.00,VWS V14.01,2013-04-21 05:15:00,
2013-04-20 22:16:00,49.6,46.8,29.74,WSW,248,13.4,13.4,90,0.00,,,0.00,VWS V14.01,2013-04-21 05:16:00,
2013-04-20 22:17:00,49.6,46.8,29.74,WSW,248,13.4,13.4,90,0.00,,,0.00,VWS V14.01,2013-04-21 05:17:00,
2013-04-20 22:18:00,49.6,46.8,29.74,SW,225,13.9,13.9,90,0.00,,,0.00,VWS V14.01,2013-04-21 05:18:00,
2013-04-20 22:19:00,49.6,46.8,29.74,SW,225,13.9,13.9,90,0.00,,,0.00,VWS V14.01,2013-04-21 05:19:00,
2013-04-20 22:20:00,49.6,46.8,29.74,SW,225,13.9,13.9,90,0.00,,,0.00,VWS V14.01,2013-04-21 05:20:00,
2013-04-20 22:21:00,49.6,46.8,29.74,SSW,202,12.5,12.5,90,0.00,,,0.00,VWS V14.01,2013-04-21 05:21:00,
2013-04-20 22:22:00,49.6,46.8,29.74,SSW,202,12.5,12.5,90,0.00,,,0.00,VWS V14.01,2013-04-21 05:22:00,
2013-04-20 22:23:00,49.6,46.8,29.74,WSW,248,8.7,8.7,90,0.00,,,0.00,VWS V14.01,2013-04-21 05:23:00,
2013-04-20 22:24:00,49.6,46.8,29.74,WSW,248,6.5,6.5,90,0.00,,,0.00,VWS V14.01,2013-04-21 05:24:00,
2013-04-20 22:25:00,49.6,46.8,29.74,WSW,248,6.5,6.5,90,0.00,,,0.00,VWS V14.01,2013-04-21 05:25:00,
2013-04-20 22:26:00,49.6,46.8,29.74,West,270,4.3,4.3,90,0.00,,,0.00,VWS V14.01,2013-04-21 05:26:00,
2013-04-20 22:27:00,49.6,46.8,29.74,West,270,4.3,4.3,90,0.00,,,0.00,VWS V14.01,2013-04-21 05:27:00,
2013-04-20 22:28:00,49.6,46.8,29.74,West,270,11.0,11.0,90,0.00,,,0.00,VWS V14.01,2013-04-21 05:28:00,
2013-04-20 22:29:00,49.6,46.8,29.74,WSW,248,5.6,5.6,90,0.00,,,0.00,VWS V14.01,2013-04-21 05:29:00,
2013-04-20 22:30:00,49.6,46.8,29.74,SSW,202,3.4,3.4,90,0.00,,,0.00,VWS V14.01,2013-04-21 05:30:00,
2013-04-20 22:31:00,49.6,46.5,29.74,WSW,248,9.4,9.4,89,0.00,,,0.00,VWS V14.01,2013-04-21 05:31:00,
2013-04-20 22:32:00,49.6,46.5,29.74,SSW,202,6.3,6.3,89,0.00,,,0.00,VWS V14.01,2013-04-21 05:32:00,
2013-04-20 22:33:00,49.6,46.5,29.74,WSW,248,10.1,10.1,89,0.00,,,0.00,VWS V14.01,2013-04-21 05:33:00,
2013-04-20 22:34:00,49.6,46.5,29.74,WSW,248,4.3,4.3,89,0.00,,,0.00,VWS V14.01,2013-04-21 05:34:00,
2013-04-20 22:35:00,49.6,46.5,29.74,SSW,202,3.4,3.4,89,0.00,,,0.00,VWS V14.01,2013-04-21 05:35:00,
2013-04-20 22:36:00,49.5,46.4,29.74,WSW,248,4.3,4.3,89,0.00,,,0.00,VWS V14.01,2013-04-21 05:36:00,
2013-04-20 22:37:00,49.5,46.4,29.74,SW,225,5.6,5.6,89,0.00,,,0.00,VWS V14.01,2013-04-21 05:37:00,
2013-04-20 22:38:00,49.5,46.4,29.74,SSW,202,3.1,3.1,89,0.00,,,0.00,VWS V14.01,2013-04-21 05:38:00,
2013-04-20 22:39:00,49.5,46.4,29.74,WSW,248,6.5,6.5,89,0.00,,,0.00,VWS V14.01,2013-04-21 05:39:00,
2013-04-20 22:40:00,49.5,46.4,29.74,SW,225,7.8,7.8,89,0.00,,,0.00,VWS V14.01,2013-04-21 05:40:00,
2013-04-20 22:41:00,49.5,46.4,29.74,SSW,202,6.3,6.3,89,0.00,,,0.00,VWS V14.01,2013-04-21 05:41:00,
2013-04-20 22:42:00,49.5,46.4,29.76,WSW,248,4.3,4.3,89,0.00,,,0.00,VWS V14.01,2013-04-21 05:42:00,
2013-04-20 22:43:00,49.5,46.4,29.76,SSW,202,5.6,5.6,89,0.00,,,0.00,VWS V14.01,2013-04-21 05:43:00,
2013-04-20 22:44:00,49.5,46.4,29.76,WSW,248,5.6,5.6,89,0.00,,,0.00,VWS V14.01,2013-04-21 05:44:00,
2013-04-20 22:45:00,49.5,46.4,29.76,WSW,248,7.8,7.8,89,0.00,,,0.00,VWS V14.01,2013-04-21 05:45:00,
2013-04-20 22:46:00,49.5,46.4,29.76,WSW,248,3.4,3.4,89,0.00,,,0.00,VWS V14.01,2013-04-21 05:46:00,
2013-04-20 22:47:00,49.5,46.4,29.76,WSW,248,3.8,3.8,89,0.00,,,0.00,VWS V14.01,2013-04-21 05:47:00,
2013-04-20 22:48:00,49.5,46.4,29.76,West,270,5.8,5.8,89,0.00,,,0.00,VWS V14.01,2013-04-21 05:48:00,
2013-04-20 22:49:00,49.5,46.4,29.76,NW,315,2.9,2.9,89,0.00,,,0.00,VWS V14.01,2013-04-21 05:49:00,
2013-04-20 22:50:00,49.5,46.4,29.76,WSW,248,8.5,8.5,89,0.00,,,0.00,VWS V14.01,2013-04-21 05:50:00,
2013-04-20 22:51:00,49.5,46.4,29.76,WSW,248,12.5,12.5,89,0.00,,,0.00,VWS V14.01,2013-04-21 05:51:00,
2013-04-20 22:52:00,49.5,46.4,29.76,WSW,248,12.5,12.5,89,0.00,,,0.00,VWS V14.01,2013-04-21 05:52:00,
2013-04-20 22:53:00,49.5,46.4,29.76,SW,225,4.5,4.5,89,0.00,,,0.00,VWS V14.01,2013-04-21 05:53:00,
2013-04-20 22:54:00,49.5,46.4,29.76,SW,225,4.0,4.0,89,0.00,,,0.00,VWS V14.01,2013-04-21 05:54:00,
2013-04-20 22:55:00,49.5,46.4,29.76,West,270,14.8,14.8,89,0.00,,,0.00,VWS V14.01,2013-04-21 05:55:00,
2013-04-20 22:56:00,49.5,46.4,29.76,WSW,248,10.3,10.3,89,0.00,,,0.00,VWS V14.01,2013-04-21 05:56:00,
2013-04-20 22:57:00,49.5,46.4,29.76,WSW,248,10.3,10.3,89,0.00,,,0.00,VWS V14.01,2013-04-21 05:57:00,
2013-04-20 22:58:00,49.5,46.4,29.76,WSW,248,10.5,10.5,89,0.00,,,0.00,VWS V14.01,2013-04-21 05:58:00,
2013-04-20 22:59:00,49.5,46.4,29.76,SSW,202,13.0,13.0,89,0.00,,,0.00,VWS V14.01,2013-04-21 05:59:00,
2013-04-20 23:00:00,49.5,46.4,29.76,SSW,202,13.0,13.0,89,0.00,,,0.00,VWS V14.01,2013-04-21 06:00:00,
2013-04-20 23:01:00,49.5,46.4,29.76,West,270,9.0,9.0,89,0.00,,,0.00,VWS V14.01,2013-04-21 06:01:00,
2013-04-20 23:02:00,49.5,46.4,29.76,WSW,248,10.5,10.5,89,0.00,,,0.00,VWS V14.01,2013-04-21 06:02:00,
2013-04-20 23:03:00,49.5,46.7,29.76,SSW,202,8.1,8.1,90,0.00,,,0.00,VWS V14.01,2013-04-21 06:03:00,
2013-04-20 23:04:00,49.5,46.7,29.76,WSW,248,12.5,12.5,90,0.00,,,0.00,VWS V14.01,2013-04-21 06:04:00,
2013-04-20 23:05:00,49.5,46.7,29.76,WSW,248,12.5,12.5,90,0.00,,,0.00,VWS V14.01,2013-04-21 06:05:00,
2013-04-20 23:06:00,49.5,46.7,29.76,SW,225,9.8,9.8,90,0.00,,,0.00,VWS V14.01,2013-04-21 06:06:00,
2013-04-20 23:07:00,49.5,46.7,29.76,SW,225,9.8,9.8,90,0.00,,,0.00,VWS V14.01,2013-04-21 06:07:00,
2013-04-20 23:08:00,49.3,46.5,29.76,WSW,248,10.7,10.7,90,0.00,,,0.00,VWS V14.01,2013-04-21 06:08:00,
2013-04-20 23:09:00,49.3,46.5,29.76,WSW,248,14.5,14.5,90,0.00,,,0.00,VWS V14.01,2013-04-21 06:09:00,
2013-04-20 23:10:00,49.3,46.5,29.76,SW,225,12.5,12.5,90,0.00,,,0.00,VWS V14.01,2013-04-21 06:10:00,
2013-04-20 23:11:00,49.3,46.5,29.76,SSW,202,8.5,8.5,90,0.00,,,0.00,VWS V14.01,2013-04-21 06:11:00,
2013-04-20 23:12:00,49.3,46.5,29.74,WSW,248,11.0,11.0,90,0.00,,,0.00,VWS V14.01,2013-04-21 06:12:00,
2013-04-20 23:13:00,49.3,46.5,29.74,WSW,248,9.2,9.2,90,0.00,,,0.00,VWS V14.01,2013-04-21 06:13:00,
2013-04-20 23:14:00,49.3,46.5,29.74,SW,225,10.3,10.3,90,0.00,,,0.00,VWS V14.01,2013-04-21 06:14:00,
2013-04-20 23:15:00,49.3,46.5,29.74,SW,225,8.7,8.7,90,0.00,,,0.00,VWS V14.01,2013-04-21 06:15:00,
2013-04-20 23:16:00,49.3,46.5,29.74,WSW,248,6.0,6.0,90,0.00,,,0.00,VWS V14.01,2013-04-21 06:16:00,
2013-04-20 23:17:00,49.3,46.5,29.74,WSW,248,6.0,6.0,90,0.00,,,0.00,VWS V14.01,2013-04-21 06:17:00,
2013-04-20 23:18:00,49.3,46.5,29.74,WSW,248,14.8,14.8,90,0.00,,,0.00,VWS V14.01,2013-04-21 06:18:00,
2013-04-20 23:19:00,49.3,46.5,29.74,WSW,248,14.8,14.8,90,0.00,,,0.00,VWS V14.01,2013-04-21 06:19:00,
2013-04-20 23:20:00,49.3,46.5,29.74,SW,225,9.8,9.8,90,0.00,,,0.00,VWS V14.01,2013-04-21 06:20:00,
2013-04-20 23:21:00,49.3,46.5,29.74,WSW,248,9.8,9.8,90,0.00,,,0.00,VWS V14.01,2013-04-21 06:21:00,
2013-04-20 23:22:00,49.3,46.5,29.74,WSW,248,13.9,13.9,90,0.00,,,0.00,VWS V14.01,2013-04-21 06:22:00,
2013-04-20 23:23:00,49.3,46.5,29.74,WSW,248,12.5,12.5,90,0.00,,,0.00,VWS V14.01,2013-04-21 06:23:00,
2013-04-20 23:24:00,49.3,46.5,29.74,SW,225,13.2,13.2,90,0.00,,,0.00,VWS V14.01,2013-04-21 06:24:00,
2013-04-20 23:25:00,49.3,46.5,29.74,SSW,202,14.8,14.8,90,0.00,,,0.00,VWS V14.01,2013-04-21 06:25:00,
2013-04-20 23:26:00,49.3,46.5,29.74,WSW,248,12.1,12.1,90,0.00,,,0.00,VWS V14.01,2013-04-21 06:26:00,
2013-04-20 23:27:00,49.3,46.5,29.74,WSW,248,7.8,7.8,90,0.00,,,0.00,VWS V14.01,2013-04-21 06:27:00,
2013-04-20 23:28:00,49.3,46.5,29.74,WSW,248,14.5,14.5,90,0.00,,,0.00,VWS V14.01,2013-04-21 06:28:00,
2013-04-20 23:29:00,49.3,46.5,29.74,West,270,12.5,12.5,90,0.00,,,0.00,VWS V14.01,2013-04-21 06:29:00,
2013-04-20 23:30:00,49.3,46.5,29.74,West,270,10.5,10.5,90,0.00,,,0.00,VWS V14.01,2013-04-21 06:30:00,
2013-04-20 23:31:00,49.3,46.5,29.74,WSW,248,10.3,10.3,90,0.00,,,0.00,VWS V14.01,2013-04-21 06:31:00,
2013-04-20 23:32:00,49.3,46.5,29.74,WSW,248,12.8,12.8,90,0.00,,,0.00,VWS V14.01,2013-04-21 06:32:00,
2013-04-20 23:33:00,49.3,46.5,29.74,SSW,202,10.3,10.3,90,0.00,,,0.00,VWS V14.01,2013-04-21 06:33:00,
2013-04-20 23:34:00,49.1,46.3,29.74,SSW,202,10.3,10.3,90,0.00,,,0.00,VWS V14.01,2013-04-21 06:34:00,
2013-04-20 23:35:00,49.1,46.3,29.74,SSW,202,11.0,11.0,90,0.00,,,0.00,VWS V14.01,2013-04-21 06:35:00,
2013-04-20 23:36:00,49.1,46.3,29.74,WSW,248,10.5,10.5,90,0.00,,,0.00,VWS V14.01,2013-04-21 06:36:00,
2013-04-20 23:37:00,49.1,46.3,29.74,WSW,248,12.5,12.5,90,0.00,,,0.00,VWS V14.01,2013-04-21 06:37:00,
2013-04-20 23:38:00,49.1,46.3,29.74,WSW,248,8.7,8.7,90,0.00,,,0.00,VWS V14.01,2013-04-21 06:38:00,
2013-04-20 23:39:00,49.1,46.3,29.74,West,270,10.3,10.3,90,0.00,,,0.00,VWS V14.01,2013-04-21 06:39:00,
2013-04-20 23:40:00,49.1,46.3,29.74,SSW,202,10.1,10.1,90,0.00,,,0.00,VWS V14.01,2013-04-21 06:40:00,
2013-04-20 23:41:00,49.1,46.3,29.74,WSW,248,7.8,7.8,90,0.00,,,0.00,VWS V14.01,2013-04-21 06:41:00,
2013-04-20 23:42:00,49.1,46.3,29.74,SSW,202,15.4,15.4,90,0.00,,,0.00,VWS V14.01,2013-04-21 06:42:00,
2013-04-20 23:43:00,49.1,46.3,29.74,WSW,248,13.0,13.0,90,0.00,,,0.00,VWS V14.01,2013-04-21 06:43:00,
2013-04-20 23:44:00,49.1,46.3,29.74,SW,225,10.5,10.5,90,0.00,,,0.00,VWS V14.01,2013-04-21 06:44:00,
2013-04-20 23:45:00,49.1,46.3,29.74,WSW,248,6.3,6.3,90,0.00,,,0.00,VWS V14.01,2013-04-21 06:45:00,
2013-04-20 23:46:00,49.1,46.0,29.74,WSW,248,14.3,14.3,89,0.00,,,0.00,VWS V14.01,2013-04-21 06:46:00,
2013-04-20 23:47:00,49.1,46.0,29.74,WNW,292,5.6,5.6,89,0.00,,,0.00,VWS V14.01,2013-04-21 06:47:00,
2013-04-20 23:48:00,49.1,46.0,29.74,SW,225,14.1,14.1,89,0.00,,,0.00,VWS V14.01,2013-04-21 06:48:00,
2013-04-20 23:49:00,49.1,46.3,29.74,WNW,292,10.7,10.7,90,0.00,,,0.00,VWS V14.01,2013-04-21 06:49:00,
2013-04-20 23:51:00,49.1,46.0,29.74,WSW,248,10.1,10.1,89,0.00,,,0.00,VWS V14.01,2013-04-21 06:51:00,
2013-04-20 23:52:00,49.1,46.3,29.74,WNW,292,5.8,5.8,90,0.00,,,0.00,VWS V14.01,2013-04-21 06:52:00,
2013-04-20 23:53:00,49.1,46.3,29.74,WSW,248,12.3,12.3,90,0.00,,,0.00,VWS V14.01,2013-04-21 06:53:00,
2013-04-20 23:54:00,49.1,46.3,29.74,SW,225,7.6,7.6,90,0.00,,,0.00,VWS V14.01,2013-04-21 06:54:00,
2013-04-20 23:55:00,49.1,46.3,29.74,WSW,248,8.5,8.5,90,0.00,,,0.00,VWS V14.01,2013-04-21 06:55:00,
2013-04-20 23:56:00,49.1,46.3,29.74,WSW,248,6.3,6.3,90,0.00,,,0.00,VWS V14.01,2013-04-21 06:56:00,
2013-04-20 23:57:00,49.1,46.3,29.74,WSW,248,6.3,6.3,90,0.00,,,0.00,VWS V14.01,2013-04-21 06:57:00,
2013-04-20 23:58:00,49.1,46.3,29.74,WSW,248,10.3,10.3,90,0.00,,,0.00,VWS V14.01,2013-04-21 06:58:00,
2013-04-20 23:59:00,49.1,46.3,29.74,West,270,7.6,7.6,90,0.00,,,0.00,VWS V14.01,2013-04-21 06:59:00,